PWSweather.com
Personal Weather Stations
Station Observations
1A3COP
Copperhill Airport Community, Copperhill, TN 37317

Copperhill Airport CommunityCopperhill, TN 37317

Lat: 35.015465, Lon: -84.340598

Elevation: 1830

Station Type: Acurite Pro 5 in 1

High Low Average
Temperature 32.0°F0.0°C 8.1°F-13.3°C 18.1°F-7.7°C
Dew Point 122.0°F50.0°C -2.5°F-19.2°C 3.1°F-16.1°C
Winds 9.2 mph 14.8 kmh Calm Calm 2.0 mph SSW3.2 kmh SSW
Wind Gusts 11.5 mph18.5 kmh -- 3.0 mph4.8 kmh
Humidity 90% 0% 55%
Pressure 28.55 in966.8 mb 0.00 in0.0 mb -
Precipitation 0.00 in0.0 mm - -
Hour Temp Dew Point Humidity Winds Wind Gusts Pressure Precip Precip Rate Daily Precip Total
12:00 AM 14.0°F-10.0°C 6.0°F-14.4°C 70% Calm Calm -- 28.44 in963.1 mb - 0.00 in0.0 mm 0.00 in0.0 mm
12:01 AM 14.0°F-10.0°C 6.0°F-14.4°C 70% Calm Calm -- 28.44 in963.1 mb - 0.00 in0.0 mm 0.00 in0.0 mm
12:02 AM 14.0°F-10.0°C 6.3°F-14.3°C 71% Calm Calm -- 28.44 in963.1 mb - 0.00 in0.0 mm 0.00 in0.0 mm
12:03 AM 14.0°F-10.0°C 6.3°F-14.3°C 71% Calm Calm -- 28.44 in963.1 mb - 0.00 in0.0 mm 0.00 in0.0 mm
12:04 AM 14.0°F-10.0°C 6.3°F-14.3°C 71% Calm Calm -- 28.44 in963.1 mb - 0.00 in0.0 mm 0.00 in0.0 mm
12:05 AM 14.0°F-10.0°C 6.3°F-14.3°C 71% Calm Calm -- 28.44 in963.1 mb - 0.00 in0.0 mm 0.00 in0.0 mm
12:06 AM 14.0°F-10.0°C 6.3°F-14.3°C 71% Calm Calm -- 28.44 in963.1 mb - 0.00 in0.0 mm 0.00 in0.0 mm
12:07 AM 14.0°F-10.0°C 6.3°F-14.3°C 71% Calm Calm -- 28.44 in963.1 mb - 0.00 in0.0 mm 0.00 in0.0 mm
12:08 AM 14.0°F-10.0°C 6.3°F-14.3°C 71% Calm Calm -- 28.44 in963.1 mb - 0.00 in0.0 mm 0.00 in0.0 mm
12:09 AM 14.0°F-10.0°C 6.3°F-14.3°C 71% Calm Calm -- 28.44 in963.1 mb - 0.00 in0.0 mm 0.00 in0.0 mm
12:10 AM 14.0°F-10.0°C 6.3°F-14.3°C 71% Calm Calm -- 28.44 in963.1 mb - 0.00 in0.0 mm 0.00 in0.0 mm
12:11 AM 13.8°F-10.1°C 6.1°F-14.4°C 71% Calm Calm -- 28.44 in963.1 mb - 0.00 in0.0 mm 0.00 in0.0 mm
12:12 AM 13.8°F-10.1°C 6.1°F-14.4°C 71% Calm Calm -- 28.44 in963.1 mb - 0.00 in0.0 mm 0.00 in0.0 mm
12:13 AM 13.7°F-10.2°C 6.0°F-14.4°C 71% Calm Calm -- 28.44 in963.1 mb - 0.00 in0.0 mm 0.00 in0.0 mm
12:14 AM 13.6°F-10.2°C 5.9°F-14.5°C 71% Calm Calm -- 28.44 in963.1 mb - 0.00 in0.0 mm 0.00 in0.0 mm
12:15 AM 13.5°F-10.3°C 6.2°F-14.3°C 72% Calm Calm -- 28.44 in963.1 mb - 0.00 in0.0 mm 0.00 in0.0 mm
12:16 AM 13.5°F-10.3°C 6.1°F-14.4°C 72% Calm Calm -- 28.44 in963.1 mb - 0.00 in0.0 mm 0.00 in0.0 mm
12:17 AM 13.4°F-10.3°C 6.1°F-14.4°C 72% Calm Calm -- 28.44 in963.1 mb - 0.00 in0.0 mm 0.00 in0.0 mm
12:18 AM 13.3°F-10.4°C 6.0°F-14.4°C 72% Calm Calm -- 28.44 in963.1 mb - 0.00 in0.0 mm 0.00 in0.0 mm
12:19 AM 13.3°F-10.4°C 6.0°F-14.4°C 72% Calm Calm -- 28.44 in963.1 mb - 0.00 in0.0 mm 0.00 in0.0 mm
12:20 AM 13.1°F-10.5°C 5.8°F-14.6°C 72% Calm Calm -- 28.44 in963.1 mb - 0.00 in0.0 mm 0.00 in0.0 mm
12:21 AM 13.0°F-10.6°C 5.6°F-14.7°C 72% Calm Calm -- 28.44 in963.1 mb - 0.00 in0.0 mm 0.00 in0.0 mm
12:22 AM 12.9°F-10.6°C 5.9°F-14.5°C 73% Calm Calm -- 28.44 in963.1 mb - 0.00 in0.0 mm 0.00 in0.0 mm
12:23 AM 12.9°F-10.6°C 5.9°F-14.5°C 73% Calm Calm -- 28.44 in963.1 mb - 0.00 in0.0 mm 0.00 in0.0 mm
12:24 AM 12.9°F-10.6°C 5.9°F-14.5°C 73% Calm Calm -- 28.44 in963.1 mb - 0.00 in0.0 mm 0.00 in0.0 mm
12:25 AM 12.8°F-10.7°C 5.8°F-14.6°C 73% Calm Calm -- 28.44 in963.1 mb - 0.00 in0.0 mm 0.00 in0.0 mm
12:26 AM 12.7°F-10.7°C 5.7°F-14.6°C 73% Calm Calm -- 28.44 in963.1 mb - 0.00 in0.0 mm 0.00 in0.0 mm
12:27 AM 12.7°F-10.7°C 5.7°F-14.6°C 73% Calm Calm -- 28.44 in963.1 mb - 0.00 in0.0 mm 0.00 in0.0 mm
12:28 AM 12.6°F-10.8°C 5.6°F-14.7°C 73% Calm Calm -- 28.44 in963.1 mb - 0.00 in0.0 mm 0.00 in0.0 mm
12:29 AM 12.6°F-10.8°C 5.6°F-14.7°C 73% Calm Calm -- 28.44 in963.1 mb - 0.00 in0.0 mm 0.00 in0.0 mm
12:30 AM 12.4°F-10.9°C 5.4°F-14.8°C 73% Calm Calm -- 28.44 in963.1 mb - 0.00 in0.0 mm 0.00 in0.0 mm
12:31 AM 12.4°F-10.9°C 5.7°F-14.6°C 74% Calm Calm -- 28.44 in963.1 mb - 0.00 in0.0 mm 0.00 in0.0 mm
12:32 AM 12.4°F-10.9°C 5.7°F-14.6°C 74% Calm Calm 3.5 mph5.6 kmh 28.44 in963.1 mb - 0.00 in0.0 mm 0.00 in0.0 mm
12:33 AM 12.4°F-10.9°C 5.7°F-14.6°C 74% 2.3 mph NW3.7 kmh NW 2.3 mph3.7 kmh 28.44 in963.1 mb - 0.00 in0.0 mm 0.00 in0.0 mm
12:34 AM 12.4°F-10.9°C 6.0°F-14.4°C 75% 2.3 mph NNW3.7 kmh NNW 2.3 mph3.7 kmh 28.44 in963.1 mb - 0.00 in0.0 mm 0.00 in0.0 mm
12:35 AM 12.4°F-10.9°C 6.0°F-14.4°C 75% 2.3 mph WNW3.7 kmh WNW 2.3 mph3.7 kmh 28.44 in963.1 mb - 0.00 in0.0 mm 0.00 in0.0 mm
12:36 AM 12.2°F-11.0°C 5.8°F-14.6°C 75% 2.3 mph NW3.7 kmh NW 1.2 mph1.9 kmh 28.44 in963.1 mb - 0.00 in0.0 mm 0.00 in0.0 mm
12:37 AM 12.2°F-11.0°C 5.8°F-14.6°C 75% 2.3 mph NW3.7 kmh NW 2.3 mph3.7 kmh 28.44 in963.1 mb - 0.00 in0.0 mm 0.00 in0.0 mm
12:38 AM 12.6°F-10.8°C 6.2°F-14.3°C 75% 1.2 mph NNW1.9 kmh NNW 1.2 mph1.9 kmh 28.44 in963.1 mb - 0.00 in0.0 mm 0.00 in0.0 mm
12:39 AM 12.6°F-10.8°C 6.2°F-14.3°C 75% Calm Calm 2.3 mph3.7 kmh 28.44 in963.1 mb - 0.00 in0.0 mm 0.00 in0.0 mm
12:40 AM 12.6°F-10.8°C 6.2°F-14.3°C 75% 2.3 mph WNW3.7 kmh WNW 2.3 mph3.7 kmh 28.44 in963.1 mb - 0.00 in0.0 mm 0.00 in0.0 mm
12:41 AM 12.6°F-10.8°C 6.2°F-14.3°C 75% 2.3 mph WNW3.7 kmh WNW 1.2 mph1.9 kmh 28.44 in963.1 mb - 0.00 in0.0 mm 0.00 in0.0 mm
12:42 AM 12.6°F-10.8°C 6.2°F-14.3°C 75% 1.2 mph NW1.9 kmh NW 1.2 mph1.9 kmh 28.44 in963.1 mb - 0.00 in0.0 mm 0.00 in0.0 mm
12:43 AM 12.6°F-10.8°C 6.2°F-14.3°C 75% 1.2 mph NNW1.9 kmh NNW 2.3 mph3.7 kmh 28.44 in963.1 mb - 0.00 in0.0 mm 0.00 in0.0 mm
12:44 AM 12.7°F-10.7°C 6.3°F-14.3°C 75% 2.3 mph NW3.7 kmh NW 3.5 mph5.6 kmh 28.44 in963.1 mb - 0.00 in0.0 mm 0.00 in0.0 mm
12:45 AM 13.0°F-10.6°C 6.6°F-14.1°C 75% 2.3 mph WNW3.7 kmh WNW 2.3 mph3.7 kmh 28.44 in963.1 mb - 0.00 in0.0 mm 0.00 in0.0 mm
12:46 AM 13.1°F-10.5°C 6.7°F-14.1°C 75% 1.2 mph SW1.9 kmh SW 1.2 mph1.9 kmh 28.44 in963.1 mb - 0.00 in0.0 mm 0.00 in0.0 mm
12:47 AM 13.1°F-10.5°C 6.7°F-14.1°C 75% 1.2 mph NNW1.9 kmh NNW 2.3 mph3.7 kmh 28.44 in963.1 mb - 0.00 in0.0 mm 0.00 in0.0 mm
12:48 AM 13.3°F-10.4°C 6.9°F-13.9°C 75% 1.2 mph W1.9 kmh W 2.3 mph3.7 kmh 28.44 in963.1 mb - 0.00 in0.0 mm 0.00 in0.0 mm
12:49 AM 13.1°F-10.5°C 6.7°F-14.1°C 75% 1.2 mph W1.9 kmh W 1.2 mph1.9 kmh 28.44 in963.1 mb - 0.00 in0.0 mm 0.00 in0.0 mm
12:50 AM 13.1°F-10.5°C 6.7°F-14.1°C 75% 2.3 mph W3.7 kmh W 2.3 mph3.7 kmh 28.44 in963.1 mb - 0.00 in0.0 mm 0.00 in0.0 mm
12:51 AM 12.9°F-10.6°C 6.5°F-14.2°C 75% 2.3 mph WNW3.7 kmh WNW 2.3 mph3.7 kmh 28.44 in963.1 mb - 0.00 in0.0 mm 0.00 in0.0 mm
12:52 AM 12.9°F-10.6°C 6.5°F-14.2°C 75% 1.2 mph WNW1.9 kmh WNW 1.2 mph1.9 kmh 28.44 in963.1 mb - 0.00 in0.0 mm 0.00 in0.0 mm
12:53 AM 12.9°F-10.6°C 6.5°F-14.2°C 75% Calm Calm -- 28.44 in963.1 mb - 0.00 in0.0 mm 0.00 in0.0 mm
12:54 AM 12.9°F-10.6°C 6.5°F-14.2°C 75% Calm Calm -- 28.44 in963.1 mb - 0.00 in0.0 mm 0.00 in0.0 mm
12:55 AM 12.9°F-10.6°C 6.5°F-14.2°C 75% Calm Calm -- 28.44 in963.1 mb - 0.00 in0.0 mm 0.00 in0.0 mm
12:56 AM 12.9°F-10.6°C 6.5°F-14.2°C 75% Calm Calm -- 28.44 in963.1 mb - 0.00 in0.0 mm 0.00 in0.0 mm
12:57 AM 12.9°F-10.6°C 6.5°F-14.2°C 75% Calm Calm -- 28.44 in963.1 mb - 0.00 in0.0 mm 0.00 in0.0 mm
12:58 AM 12.9°F-10.6°C 6.5°F-14.2°C 75% 1.2 mph NNW1.9 kmh NNW 2.3 mph3.7 kmh 28.44 in963.1 mb - 0.00 in0.0 mm 0.00 in0.0 mm
12:59 AM 12.9°F-10.6°C 6.5°F-14.2°C 75% 1.2 mph NW1.9 kmh NW 1.2 mph1.9 kmh 28.44 in963.1 mb - 0.00 in0.0 mm 0.00 in0.0 mm
01:00 AM 12.9°F-10.6°C 6.5°F-14.2°C 75% Calm Calm -- 28.44 in963.1 mb - 0.00 in0.0 mm 0.00 in0.0 mm
01:01 AM 12.9°F-10.6°C 6.5°F-14.2°C 75% Calm Calm -- 28.44 in963.1 mb - 0.00 in0.0 mm 0.00 in0.0 mm
01:02 AM 12.8°F-10.7°C 6.4°F-14.2°C 75% Calm Calm -- 28.44 in963.1 mb - 0.00 in0.0 mm 0.00 in0.0 mm
01:03 AM 12.7°F-10.7°C 6.3°F-14.3°C 75% Calm Calm 1.2 mph1.9 kmh 28.44 in963.1 mb - 0.00 in0.0 mm 0.00 in0.0 mm
01:04 AM 12.7°F-10.7°C 6.3°F-14.3°C 75% 1.2 mph NW1.9 kmh NW 1.2 mph1.9 kmh 28.44 in963.1 mb - 0.00 in0.0 mm 0.00 in0.0 mm
01:05 AM 12.7°F-10.7°C 6.3°F-14.3°C 75% 1.2 mph NNW1.9 kmh NNW 1.2 mph1.9 kmh 28.44 in963.1 mb - 0.00 in0.0 mm 0.00 in0.0 mm
01:06 AM 12.7°F-10.7°C 6.3°F-14.3°C 75% Calm Calm -- 28.44 in963.1 mb - 0.00 in0.0 mm 0.00 in0.0 mm
01:07 AM 12.7°F-10.7°C 6.3°F-14.3°C 75% Calm Calm 1.2 mph1.9 kmh 28.44 in963.1 mb - 0.00 in0.0 mm 0.00 in0.0 mm
01:08 AM 12.7°F-10.7°C 6.3°F-14.3°C 75% 1.2 mph W1.9 kmh W 2.3 mph3.7 kmh 28.44 in963.1 mb - 0.00 in0.0 mm 0.00 in0.0 mm
01:09 AM 12.6°F-10.8°C 6.2°F-14.3°C 75% 2.3 mph WNW3.7 kmh WNW 2.3 mph3.7 kmh 28.44 in963.1 mb - 0.00 in0.0 mm 0.00 in0.0 mm
01:10 AM 12.6°F-10.8°C 6.2°F-14.3°C 75% 1.2 mph NW1.9 kmh NW 1.2 mph1.9 kmh 28.44 in963.1 mb - 0.00 in0.0 mm 0.00 in0.0 mm
01:11 AM 12.6°F-10.8°C 6.2°F-14.3°C 75% 1.2 mph N1.9 kmh N -- 28.44 in963.1 mb - 0.00 in0.0 mm 0.00 in0.0 mm
01:12 AM 12.6°F-10.8°C 6.2°F-14.3°C 75% Calm Calm -- 28.44 in963.1 mb - 0.00 in0.0 mm 0.00 in0.0 mm
01:13 AM 12.6°F-10.8°C 6.2°F-14.3°C 75% Calm Calm 1.2 mph1.9 kmh 28.44 in963.1 mb - 0.00 in0.0 mm 0.00 in0.0 mm
01:14 AM 12.8°F-10.7°C 6.4°F-14.2°C 75% 1.2 mph N1.9 kmh N 1.2 mph1.9 kmh 28.44 in963.1 mb - 0.00 in0.0 mm 0.00 in0.0 mm
01:15 AM 12.9°F-10.6°C 6.5°F-14.2°C 75% Calm Calm 1.2 mph1.9 kmh 28.44 in963.1 mb - 0.00 in0.0 mm 0.00 in0.0 mm
01:16 AM 12.7°F-10.7°C 6.3°F-14.3°C 75% 1.2 mph NW1.9 kmh NW 1.2 mph1.9 kmh 28.44 in963.1 mb - 0.00 in0.0 mm 0.00 in0.0 mm
01:17 AM 12.7°F-10.7°C 6.3°F-14.3°C 75% 1.2 mph NW1.9 kmh NW 1.2 mph1.9 kmh 28.44 in963.1 mb - 0.00 in0.0 mm 0.00 in0.0 mm
01:18 AM 12.7°F-10.7°C 6.3°F-14.3°C 75% Calm Calm -- 28.44 in963.1 mb - 0.00 in0.0 mm 0.00 in0.0 mm
01:19 AM 12.7°F-10.7°C 6.3°F-14.3°C 75% 1.2 mph NW1.9 kmh NW 1.2 mph1.9 kmh 28.44 in963.1 mb - 0.00 in0.0 mm 0.00 in0.0 mm
01:20 AM 12.7°F-10.7°C 6.3°F-14.3°C 75% Calm Calm -- 28.44 in963.1 mb - 0.00 in0.0 mm 0.00 in0.0 mm
01:21 AM 12.7°F-10.7°C 6.3°F-14.3°C 75% Calm Calm -- 28.44 in963.1 mb - 0.00 in0.0 mm 0.00 in0.0 mm
01:22 AM 12.7°F-10.7°C 6.3°F-14.3°C 75% Calm Calm 1.2 mph1.9 kmh 28.44 in963.1 mb - 0.00 in0.0 mm 0.00 in0.0 mm
01:23 AM 12.7°F-10.7°C 6.3°F-14.3°C 75% 1.2 mph N1.9 kmh N 1.2 mph1.9 kmh 28.44 in963.1 mb - 0.00 in0.0 mm 0.00 in0.0 mm
01:24 AM 12.7°F-10.7°C 6.3°F-14.3°C 75% 1.2 mph N1.9 kmh N 1.2 mph1.9 kmh 28.44 in963.1 mb - 0.00 in0.0 mm 0.00 in0.0 mm
01:25 AM 12.7°F-10.7°C 6.6°F-14.1°C 76% 1.2 mph NW1.9 kmh NW 1.2 mph1.9 kmh 28.44 in963.1 mb - 0.00 in0.0 mm 0.00 in0.0 mm
01:26 AM 12.7°F-10.7°C 6.6°F-14.1°C 76% Calm Calm -- 28.43 in962.8 mb - 0.00 in0.0 mm 0.00 in0.0 mm
01:27 AM 12.7°F-10.7°C 6.6°F-14.1°C 76% Calm Calm -- 28.43 in962.8 mb - 0.00 in0.0 mm 0.00 in0.0 mm
01:28 AM 12.7°F-10.7°C 6.6°F-14.1°C 76% Calm Calm -- 28.43 in962.8 mb - 0.00 in0.0 mm 0.00 in0.0 mm
01:29 AM 12.7°F-10.7°C 6.6°F-14.1°C 76% Calm Calm -- 28.43 in962.8 mb - 0.00 in0.0 mm 0.00 in0.0 mm
01:30 AM 12.7°F-10.7°C 6.6°F-14.1°C 76% Calm Calm 2.3 mph3.7 kmh 28.43 in962.8 mb - 0.00 in0.0 mm 0.00 in0.0 mm
01:31 AM 12.7°F-10.7°C 6.6°F-14.1°C 76% 1.2 mph NNW1.9 kmh NNW 2.3 mph3.7 kmh 28.43 in962.8 mb - 0.00 in0.0 mm 0.00 in0.0 mm
01:32 AM 12.7°F-10.7°C 6.6°F-14.1°C 76% 2.3 mph N3.7 kmh N 1.2 mph1.9 kmh 28.43 in962.8 mb - 0.00 in0.0 mm 0.00 in0.0 mm
01:33 AM 12.7°F-10.7°C 6.6°F-14.1°C 76% 1.2 mph NNE1.9 kmh NNE 1.2 mph1.9 kmh 28.43 in962.8 mb - 0.00 in0.0 mm 0.00 in0.0 mm
01:34 AM 12.8°F-10.7°C 6.9°F-13.9°C 77% 1.2 mph N1.9 kmh N 2.3 mph3.7 kmh 28.43 in962.8 mb - 0.00 in0.0 mm 0.00 in0.0 mm
01:35 AM 12.9°F-10.6°C 7.0°F-13.9°C 77% 2.3 mph NW3.7 kmh NW 3.5 mph5.6 kmh 28.43 in962.8 mb - 0.00 in0.0 mm 0.00 in0.0 mm
01:36 AM 13.1°F-10.5°C 7.2°F-13.8°C 77% 3.5 mph NW5.6 kmh NW 3.5 mph5.6 kmh 28.43 in962.8 mb - 0.00 in0.0 mm 0.00 in0.0 mm
01:37 AM 13.1°F-10.5°C 7.2°F-13.8°C 77% 2.3 mph NNW3.7 kmh NNW 3.5 mph5.6 kmh 28.43 in962.8 mb - 0.00 in0.0 mm 0.00 in0.0 mm
01:38 AM 12.9°F-10.6°C 7.0°F-13.9°C 77% 2.3 mph N3.7 kmh N 2.3 mph3.7 kmh 28.44 in963.1 mb - 0.00 in0.0 mm 0.00 in0.0 mm
01:39 AM 12.9°F-10.6°C 7.0°F-13.9°C 77% 2.3 mph NW3.7 kmh NW 2.3 mph3.7 kmh 28.44 in963.1 mb - 0.00 in0.0 mm 0.00 in0.0 mm
01:40 AM 12.9°F-10.6°C 7.0°F-13.9°C 77% 2.3 mph N3.7 kmh N 2.3 mph3.7 kmh 28.44 in963.1 mb - 0.00 in0.0 mm 0.00 in0.0 mm
01:41 AM 13.0°F-10.6°C 7.1°F-13.8°C 77% 2.3 mph N3.7 kmh N 2.3 mph3.7 kmh 28.44 in963.1 mb - 0.00 in0.0 mm 0.00 in0.0 mm
01:42 AM 13.1°F-10.5°C 7.2°F-13.8°C 77% 2.3 mph NNE3.7 kmh NNE 2.3 mph3.7 kmh 28.44 in963.1 mb - 0.00 in0.0 mm 0.00 in0.0 mm
01:43 AM 13.1°F-10.5°C 7.2°F-13.8°C 77% 2.3 mph N3.7 kmh N 4.6 mph7.4 kmh 28.44 in963.1 mb - 0.00 in0.0 mm 0.00 in0.0 mm
01:44 AM 13.4°F-10.3°C 7.5°F-13.6°C 77% 3.5 mph NNE5.6 kmh NNE 3.5 mph5.6 kmh 28.44 in963.1 mb - 0.00 in0.0 mm 0.00 in0.0 mm
01:45 AM 13.5°F-10.3°C 7.3°F-13.7°C 76% 2.3 mph NE3.7 kmh NE 2.3 mph3.7 kmh 28.44 in963.1 mb - 0.00 in0.0 mm 0.00 in0.0 mm
01:46 AM 13.5°F-10.3°C 7.3°F-13.7°C 76% 3.5 mph N5.6 kmh N 3.5 mph5.6 kmh 28.44 in963.1 mb - 0.00 in0.0 mm 0.00 in0.0 mm
01:47 AM 13.5°F-10.3°C 7.3°F-13.7°C 76% 3.5 mph NNW5.6 kmh NNW 3.5 mph5.6 kmh 28.44 in963.1 mb - 0.00 in0.0 mm 0.00 in0.0 mm
01:48 AM 13.5°F-10.3°C 7.3°F-13.7°C 76% 2.3 mph NNW3.7 kmh NNW 2.3 mph3.7 kmh 28.44 in963.1 mb - 0.00 in0.0 mm 0.00 in0.0 mm
01:49 AM 13.5°F-10.3°C 7.3°F-13.7°C 76% 2.3 mph NNW3.7 kmh NNW 4.6 mph7.4 kmh 28.44 in963.1 mb - 0.00 in0.0 mm 0.00 in0.0 mm
01:50 AM 13.5°F-10.3°C 7.3°F-13.7°C 76% 3.5 mph N5.6 kmh N 3.5 mph5.6 kmh 28.44 in963.1 mb - 0.00 in0.0 mm 0.00 in0.0 mm
01:51 AM 13.5°F-10.3°C 7.3°F-13.7°C 76% 2.3 mph NW3.7 kmh NW 2.3 mph3.7 kmh 28.44 in963.1 mb - 0.00 in0.0 mm 0.00 in0.0 mm
01:52 AM 13.5°F-10.3°C 7.3°F-13.7°C 76% 2.3 mph NW3.7 kmh NW 2.3 mph3.7 kmh 28.44 in963.1 mb - 0.00 in0.0 mm 0.00 in0.0 mm
01:53 AM 13.5°F-10.3°C 7.3°F-13.7°C 76% 2.3 mph N3.7 kmh N 2.3 mph3.7 kmh 28.44 in963.1 mb - 0.00 in0.0 mm 0.00 in0.0 mm
01:54 AM 13.5°F-10.3°C 7.3°F-13.7°C 76% 2.3 mph NNE3.7 kmh NNE 3.5 mph5.6 kmh 28.44 in963.1 mb - 0.00 in0.0 mm 0.00 in0.0 mm
01:55 AM 13.5°F-10.3°C 7.3°F-13.7°C 76% 3.5 mph N5.6 kmh N 4.6 mph7.4 kmh 28.44 in963.1 mb - 0.00 in0.0 mm 0.00 in0.0 mm
01:56 AM 13.6°F-10.2°C 7.4°F-13.7°C 76% 3.5 mph N5.6 kmh N 3.5 mph5.6 kmh 28.44 in963.1 mb - 0.00 in0.0 mm 0.00 in0.0 mm
01:57 AM 13.6°F-10.2°C 7.4°F-13.7°C 76% 3.5 mph N5.6 kmh N 4.6 mph7.4 kmh 28.44 in963.1 mb - 0.00 in0.0 mm 0.00 in0.0 mm
01:58 AM 13.8°F-10.1°C 7.6°F-13.6°C 76% 3.5 mph NE5.6 kmh NE 4.6 mph7.4 kmh 28.44 in963.1 mb - 0.00 in0.0 mm 0.00 in0.0 mm
01:59 AM 13.8°F-10.1°C 7.3°F-13.7°C 75% 4.6 mph NE7.4 kmh NE 4.6 mph7.4 kmh 28.44 in963.1 mb - 0.00 in0.0 mm 0.00 in0.0 mm
02:00 AM 14.0°F-10.0°C 7.5°F-13.6°C 75% 3.5 mph NE5.6 kmh NE 2.3 mph3.7 kmh 28.44 in963.1 mb - 0.00 in0.0 mm 0.00 in0.0 mm
02:01 AM 14.0°F-10.0°C 7.5°F-13.6°C 75% 2.3 mph N3.7 kmh N 2.3 mph3.7 kmh 28.44 in963.1 mb - 0.00 in0.0 mm 0.00 in0.0 mm
02:02 AM 14.0°F-10.0°C 7.5°F-13.6°C 75% 2.3 mph NW3.7 kmh NW 2.3 mph3.7 kmh 28.44 in963.1 mb - 0.00 in0.0 mm 0.00 in0.0 mm
02:03 AM 14.0°F-10.0°C 7.5°F-13.6°C 75% 2.3 mph NW3.7 kmh NW 2.3 mph3.7 kmh 28.44 in963.1 mb - 0.00 in0.0 mm 0.00 in0.0 mm
02:04 AM 13.8°F-10.1°C 7.3°F-13.7°C 75% 2.3 mph NW3.7 kmh NW 3.5 mph5.6 kmh 28.44 in963.1 mb - 0.00 in0.0 mm 0.00 in0.0 mm
02:05 AM 13.8°F-10.1°C 7.3°F-13.7°C 75% 2.3 mph N3.7 kmh N 2.3 mph3.7 kmh 28.44 in963.1 mb - 0.00 in0.0 mm 0.00 in0.0 mm
02:08 AM 32.0°F0.0°C 122.0°F50.0°C 0% Calm Calm -- 0.00 in0.0 mb - 0.00 in0.0 mm 0.00 in0.0 mm
02:09 AM 32.0°F0.0°C 122.0°F50.0°C 0% Calm Calm -- 0.00 in0.0 mb - 0.00 in0.0 mm 0.00 in0.0 mm
02:10 AM 32.0°F0.0°C 122.0°F50.0°C 0% Calm Calm 3.5 mph5.6 kmh 0.00 in0.0 mb - 0.00 in0.0 mm 0.00 in0.0 mm
02:11 AM 32.0°F0.0°C 122.0°F50.0°C 0% 2.3 mph N3.7 kmh N 4.6 mph7.4 kmh 0.00 in0.0 mb - 0.00 in0.0 mm 0.00 in0.0 mm
02:12 AM 32.0°F0.0°C 20.1°F-6.6°C 61% 3.5 mph N5.6 kmh N 2.3 mph3.7 kmh 23.23 in786.7 mb - 0.00 in0.0 mm 0.00 in0.0 mm
02:13 AM 14.0°F-10.0°C 7.5°F-13.6°C 75% 2.3 mph N3.7 kmh N 2.3 mph3.7 kmh 28.44 in963.1 mb - 0.00 in0.0 mm 0.00 in0.0 mm
02:14 AM 14.0°F-10.0°C 7.5°F-13.6°C 75% 2.3 mph N3.7 kmh N 3.5 mph5.6 kmh 28.45 in963.4 mb - 0.00 in0.0 mm 0.00 in0.0 mm
02:15 AM 14.0°F-10.0°C 7.5°F-13.6°C 75% 2.3 mph N3.7 kmh N 3.5 mph5.6 kmh 28.45 in963.4 mb - 0.00 in0.0 mm 0.00 in0.0 mm
02:16 AM 14.0°F-10.0°C 7.5°F-13.6°C 75% 3.5 mph NW5.6 kmh NW 4.6 mph7.4 kmh 28.45 in963.4 mb - 0.00 in0.0 mm 0.00 in0.0 mm
02:17 AM 14.0°F-10.0°C 7.5°F-13.6°C 75% 2.3 mph N3.7 kmh N 3.5 mph5.6 kmh 28.45 in963.4 mb - 0.00 in0.0 mm 0.00 in0.0 mm
02:18 AM 14.0°F-10.0°C 7.5°F-13.6°C 75% 2.3 mph NNW3.7 kmh NNW 3.5 mph5.6 kmh 28.45 in963.4 mb - 0.00 in0.0 mm 0.00 in0.0 mm
02:19 AM 14.0°F-10.0°C 7.5°F-13.6°C 75% 2.3 mph NNW3.7 kmh NNW 3.5 mph5.6 kmh 28.45 in963.4 mb - 0.00 in0.0 mm 0.00 in0.0 mm
02:20 AM 14.0°F-10.0°C 7.5°F-13.6°C 75% 2.3 mph NW3.7 kmh NW 2.3 mph3.7 kmh 28.45 in963.4 mb - 0.00 in0.0 mm 0.00 in0.0 mm
02:21 AM 14.0°F-10.0°C 7.5°F-13.6°C 75% 1.2 mph N1.9 kmh N 2.3 mph3.7 kmh 28.45 in963.4 mb - 0.00 in0.0 mm 0.00 in0.0 mm
02:22 AM 13.8°F-10.1°C 7.4°F-13.7°C 75% 2.3 mph NW3.7 kmh NW 3.5 mph5.6 kmh 28.45 in963.4 mb - 0.00 in0.0 mm 0.00 in0.0 mm
02:23 AM 13.8°F-10.1°C 7.3°F-13.7°C 75% 2.3 mph NNW3.7 kmh NNW 3.5 mph5.6 kmh 28.45 in963.4 mb - 0.00 in0.0 mm 0.00 in0.0 mm
02:24 AM 13.8°F-10.1°C 7.3°F-13.7°C 75% 2.3 mph N3.7 kmh N 4.6 mph7.4 kmh 28.45 in963.4 mb - 0.00 in0.0 mm 0.00 in0.0 mm
02:25 AM 13.8°F-10.1°C 7.3°F-13.7°C 75% 3.5 mph NW5.6 kmh NW 3.5 mph5.6 kmh 28.45 in963.4 mb - 0.00 in0.0 mm 0.00 in0.0 mm
02:26 AM 13.8°F-10.1°C 7.3°F-13.7°C 75% 2.3 mph NNW3.7 kmh NNW 2.3 mph3.7 kmh 28.45 in963.4 mb - 0.00 in0.0 mm 0.00 in0.0 mm
02:27 AM 13.8°F-10.1°C 7.3°F-13.7°C 75% 2.3 mph N3.7 kmh N 2.3 mph3.7 kmh 28.45 in963.4 mb - 0.00 in0.0 mm 0.00 in0.0 mm
02:28 AM 13.8°F-10.1°C 7.3°F-13.7°C 75% 2.3 mph NW3.7 kmh NW 2.3 mph3.7 kmh 28.45 in963.4 mb - 0.00 in0.0 mm 0.00 in0.0 mm
02:29 AM 13.7°F-10.2°C 7.3°F-13.7°C 75% 2.3 mph WNW3.7 kmh WNW 2.3 mph3.7 kmh 28.45 in963.4 mb - 0.00 in0.0 mm 0.00 in0.0 mm
02:30 AM 13.6°F-10.2°C 7.1°F-13.8°C 75% 2.3 mph NNW3.7 kmh NNW 2.3 mph3.7 kmh 28.45 in963.4 mb - 0.00 in0.0 mm 0.00 in0.0 mm
02:31 AM 13.6°F-10.2°C 7.1°F-13.8°C 75% 2.3 mph NNW3.7 kmh NNW 2.3 mph3.7 kmh 28.45 in963.4 mb - 0.00 in0.0 mm 0.00 in0.0 mm
02:32 AM 13.5°F-10.3°C 7.0°F-13.9°C 75% 2.3 mph NW3.7 kmh NW 2.3 mph3.7 kmh 28.45 in963.4 mb - 0.00 in0.0 mm 0.00 in0.0 mm
02:33 AM 13.5°F-10.3°C 7.0°F-13.9°C 75% 2.3 mph NW3.7 kmh NW 2.3 mph3.7 kmh 28.45 in963.4 mb - 0.00 in0.0 mm 0.00 in0.0 mm
02:34 AM 13.5°F-10.3°C 7.0°F-13.9°C 75% 2.3 mph NW3.7 kmh NW 2.3 mph3.7 kmh 28.45 in963.4 mb - 0.00 in0.0 mm 0.00 in0.0 mm
02:35 AM 13.5°F-10.3°C 7.0°F-13.9°C 75% 1.2 mph NW1.9 kmh NW 1.2 mph1.9 kmh 28.45 in963.4 mb - 0.00 in0.0 mm 0.00 in0.0 mm
02:36 AM 13.5°F-10.3°C 7.0°F-13.9°C 75% 1.2 mph NW1.9 kmh NW 4.6 mph7.4 kmh 28.45 in963.4 mb - 0.00 in0.0 mm 0.00 in0.0 mm
02:37 AM 13.5°F-10.3°C 7.0°F-13.9°C 75% 3.5 mph NW5.6 kmh NW 3.5 mph5.6 kmh 28.45 in963.4 mb - 0.00 in0.0 mm 0.00 in0.0 mm
02:38 AM 13.4°F-10.3°C 7.0°F-13.9°C 75% 2.3 mph NW3.7 kmh NW 2.3 mph3.7 kmh 28.45 in963.4 mb - 0.00 in0.0 mm 0.00 in0.0 mm
02:39 AM 13.3°F-10.4°C 6.9°F-13.9°C 75% 2.3 mph NW3.7 kmh NW 2.3 mph3.7 kmh 28.45 in963.4 mb - 0.00 in0.0 mm 0.00 in0.0 mm
02:40 AM 13.3°F-10.4°C 6.9°F-13.9°C 75% 2.3 mph NW3.7 kmh NW 2.3 mph3.7 kmh 28.45 in963.4 mb - 0.00 in0.0 mm 0.00 in0.0 mm
02:41 AM 13.3°F-10.4°C 6.9°F-13.9°C 75% 2.3 mph NW3.7 kmh NW 2.3 mph3.7 kmh 28.45 in963.4 mb - 0.00 in0.0 mm 0.00 in0.0 mm
02:42 AM 13.3°F-10.4°C 6.9°F-13.9°C 75% 2.3 mph N3.7 kmh N 2.3 mph3.7 kmh 28.45 in963.4 mb - 0.00 in0.0 mm 0.00 in0.0 mm
02:43 AM 13.3°F-10.4°C 6.9°F-13.9°C 75% 2.3 mph NW3.7 kmh NW 2.3 mph3.7 kmh 28.45 in963.4 mb - 0.00 in0.0 mm 0.00 in0.0 mm
02:44 AM 13.3°F-10.4°C 6.9°F-13.9°C 75% 2.3 mph NNW3.7 kmh NNW 2.3 mph3.7 kmh 28.45 in963.4 mb - 0.00 in0.0 mm 0.00 in0.0 mm
02:45 AM 13.3°F-10.4°C 6.9°F-13.9°C 75% 2.3 mph NW3.7 kmh NW 2.3 mph3.7 kmh 28.45 in963.4 mb - 0.00 in0.0 mm 0.00 in0.0 mm
02:46 AM 13.3°F-10.4°C 6.9°F-13.9°C 75% 2.3 mph NW3.7 kmh NW 2.3 mph3.7 kmh 28.45 in963.4 mb - 0.00 in0.0 mm 0.00 in0.0 mm
02:47 AM 13.2°F-10.4°C 7.1°F-13.8°C 76% 2.3 mph NW3.7 kmh NW 3.5 mph5.6 kmh 28.45 in963.4 mb - 0.00 in0.0 mm 0.00 in0.0 mm
02:48 AM 13.1°F-10.5°C 7.0°F-13.9°C 76% 2.3 mph NNW3.7 kmh NNW 3.5 mph5.6 kmh 28.45 in963.4 mb - 0.00 in0.0 mm 0.00 in0.0 mm
02:49 AM 13.1°F-10.5°C 7.0°F-13.9°C 76% 2.3 mph NW3.7 kmh NW 2.3 mph3.7 kmh 28.46 in963.8 mb - 0.00 in0.0 mm 0.00 in0.0 mm
02:50 AM 13.1°F-10.5°C 7.0°F-13.9°C 76% 2.3 mph NW3.7 kmh NW 2.3 mph3.7 kmh 28.46 in963.8 mb - 0.00 in0.0 mm 0.00 in0.0 mm
02:51 AM 13.1°F-10.5°C 7.0°F-13.9°C 76% 2.3 mph NW3.7 kmh NW 4.6 mph7.4 kmh 28.46 in963.8 mb - 0.00 in0.0 mm 0.00 in0.0 mm
02:52 AM 13.2°F-10.4°C 7.1°F-13.8°C 76% 3.5 mph NNW5.6 kmh NNW 6.9 mph11.1 kmh 28.46 in963.8 mb - 0.00 in0.0 mm 0.00 in0.0 mm
02:53 AM 13.3°F-10.4°C 7.1°F-13.8°C 76% 3.5 mph W5.6 kmh W 3.5 mph5.6 kmh 28.46 in963.8 mb - 0.00 in0.0 mm 0.00 in0.0 mm
02:54 AM 13.3°F-10.4°C 7.1°F-13.8°C 76% 1.2 mph WNW1.9 kmh WNW 2.3 mph3.7 kmh 28.46 in963.8 mb - 0.00 in0.0 mm 0.00 in0.0 mm
02:55 AM 13.3°F-10.4°C 7.1°F-13.8°C 76% 2.3 mph NW3.7 kmh NW 3.5 mph5.6 kmh 28.46 in963.8 mb - 0.00 in0.0 mm 0.00 in0.0 mm
02:56 AM 13.3°F-10.4°C 7.1°F-13.8°C 76% 2.3 mph N3.7 kmh N 3.5 mph5.6 kmh 28.46 in963.8 mb - 0.00 in0.0 mm 0.00 in0.0 mm
02:57 AM 13.3°F-10.4°C 7.1°F-13.8°C 76% 3.5 mph N5.6 kmh N 4.6 mph7.4 kmh 28.46 in963.8 mb - 0.00 in0.0 mm 0.00 in0.0 mm
02:58 AM 13.5°F-10.3°C 7.3°F-13.7°C 76% 2.3 mph WNW3.7 kmh WNW 3.5 mph5.6 kmh 28.46 in963.8 mb - 0.00 in0.0 mm 0.00 in0.0 mm
02:59 AM 13.5°F-10.3°C 7.3°F-13.7°C 76% 2.3 mph NW3.7 kmh NW 3.5 mph5.6 kmh 28.46 in963.8 mb - 0.00 in0.0 mm 0.00 in0.0 mm
03:00 AM 13.3°F-10.4°C 7.1°F-13.8°C 76% 2.3 mph NW3.7 kmh NW 3.5 mph5.6 kmh 28.46 in963.8 mb - 0.00 in0.0 mm 0.00 in0.0 mm
03:01 AM 13.3°F-10.4°C 7.1°F-13.8°C 76% 2.3 mph W3.7 kmh W 3.5 mph5.6 kmh 28.46 in963.8 mb - 0.00 in0.0 mm 0.00 in0.0 mm
03:02 AM 13.3°F-10.4°C 7.1°F-13.8°C 76% 2.3 mph W3.7 kmh W 3.5 mph5.6 kmh 28.46 in963.8 mb - 0.00 in0.0 mm 0.00 in0.0 mm
03:03 AM 13.5°F-10.3°C 7.3°F-13.7°C 76% 2.3 mph NW3.7 kmh NW 2.3 mph3.7 kmh 28.46 in963.8 mb - 0.00 in0.0 mm 0.00 in0.0 mm
03:04 AM 13.3°F-10.4°C 7.2°F-13.8°C 76% 2.3 mph NW3.7 kmh NW 2.3 mph3.7 kmh 28.46 in963.8 mb - 0.00 in0.0 mm 0.00 in0.0 mm
03:05 AM 13.3°F-10.4°C 7.1°F-13.8°C 76% 1.2 mph WSW1.9 kmh WSW 1.2 mph1.9 kmh 28.46 in963.8 mb - 0.00 in0.0 mm 0.00 in0.0 mm
03:06 AM 13.3°F-10.4°C 7.1°F-13.8°C 76% Calm Calm 3.5 mph5.6 kmh 28.46 in963.8 mb - 0.00 in0.0 mm 0.00 in0.0 mm
03:07 AM 13.3°F-10.4°C 7.1°F-13.8°C 76% 2.3 mph NW3.7 kmh NW 3.5 mph5.6 kmh 28.46 in963.8 mb - 0.00 in0.0 mm 0.00 in0.0 mm
03:08 AM 13.3°F-10.4°C 7.1°F-13.8°C 76% 3.5 mph NW5.6 kmh NW 2.3 mph3.7 kmh 28.46 in963.8 mb - 0.00 in0.0 mm 0.00 in0.0 mm
03:09 AM 13.3°F-10.4°C 7.1°F-13.8°C 76% 2.3 mph NW3.7 kmh NW 2.3 mph3.7 kmh 28.46 in963.8 mb - 0.00 in0.0 mm 0.00 in0.0 mm
03:10 AM 13.3°F-10.4°C 7.1°F-13.8°C 76% 2.3 mph NW3.7 kmh NW 2.3 mph3.7 kmh 28.46 in963.8 mb - 0.00 in0.0 mm 0.00 in0.0 mm
03:11 AM 13.3°F-10.4°C 7.1°F-13.8°C 76% 1.2 mph WNW1.9 kmh WNW 1.2 mph1.9 kmh 28.46 in963.8 mb - 0.00 in0.0 mm 0.00 in0.0 mm
03:12 AM 13.3°F-10.4°C 7.1°F-13.8°C 76% 1.2 mph WNW1.9 kmh WNW 1.2 mph1.9 kmh 28.46 in963.8 mb - 0.00 in0.0 mm 0.00 in0.0 mm
03:13 AM 13.2°F-10.4°C 7.0°F-13.9°C 76% 2.3 mph NW3.7 kmh NW 2.3 mph3.7 kmh 28.46 in963.8 mb - 0.00 in0.0 mm 0.00 in0.0 mm
03:14 AM 13.1°F-10.5°C 7.0°F-13.9°C 76% 2.3 mph NW3.7 kmh NW 2.3 mph3.7 kmh 28.46 in963.8 mb - 0.00 in0.0 mm 0.00 in0.0 mm
03:15 AM 13.1°F-10.5°C 7.0°F-13.9°C 76% 2.3 mph NW3.7 kmh NW 3.5 mph5.6 kmh 28.46 in963.8 mb - 0.00 in0.0 mm 0.00 in0.0 mm
03:16 AM 13.1°F-10.5°C 7.0°F-13.9°C 76% 2.3 mph NW3.7 kmh NW 2.3 mph3.7 kmh 28.46 in963.8 mb - 0.00 in0.0 mm 0.00 in0.0 mm
03:17 AM 13.1°F-10.5°C 6.9°F-13.9°C 76% 2.3 mph W3.7 kmh W 2.3 mph3.7 kmh 28.46 in963.8 mb - 0.00 in0.0 mm 0.00 in0.0 mm
03:18 AM 12.9°F-10.6°C 6.8°F-14.0°C 76% 1.2 mph W1.9 kmh W 1.2 mph1.9 kmh 28.46 in963.8 mb - 0.00 in0.0 mm 0.00 in0.0 mm
03:19 AM 12.9°F-10.6°C 6.8°F-14.0°C 76% Calm Calm -- 28.46 in963.8 mb - 0.00 in0.0 mm 0.00 in0.0 mm
03:20 AM 12.9°F-10.6°C 6.8°F-14.0°C 76% 1.2 mph NNW1.9 kmh NNW 2.3 mph3.7 kmh 28.46 in963.8 mb - 0.00 in0.0 mm 0.00 in0.0 mm
03:21 AM 12.9°F-10.6°C 6.8°F-14.0°C 76% 2.3 mph WNW3.7 kmh WNW 2.3 mph3.7 kmh 28.46 in963.8 mb - 0.00 in0.0 mm 0.00 in0.0 mm
03:22 AM 12.9°F-10.6°C 6.8°F-14.0°C 76% 2.3 mph NW3.7 kmh NW 1.2 mph1.9 kmh 28.46 in963.8 mb - 0.00 in0.0 mm 0.00 in0.0 mm
03:23 AM 12.9°F-10.6°C 6.8°F-14.0°C 76% 1.2 mph NW1.9 kmh NW 2.3 mph3.7 kmh 28.46 in963.8 mb - 0.00 in0.0 mm 0.00 in0.0 mm
03:24 AM 12.8°F-10.7°C 6.7°F-14.1°C 76% 2.3 mph NNW3.7 kmh NNW 2.3 mph3.7 kmh 28.46 in963.8 mb - 0.00 in0.0 mm 0.00 in0.0 mm
03:25 AM 12.7°F-10.7°C 6.6°F-14.1°C 76% 1.2 mph NW1.9 kmh NW 3.5 mph5.6 kmh 28.46 in963.8 mb - 0.00 in0.0 mm 0.00 in0.0 mm
03:26 AM 12.8°F-10.7°C 6.7°F-14.1°C 76% 3.5 mph NNE5.6 kmh NNE 5.8 mph9.3 kmh 28.46 in963.8 mb - 0.00 in0.0 mm 0.00 in0.0 mm
03:27 AM 12.9°F-10.6°C 6.8°F-14.0°C 76% 2.3 mph NE3.7 kmh NE 2.3 mph3.7 kmh 28.46 in963.8 mb - 0.00 in0.0 mm 0.00 in0.0 mm
03:28 AM 12.9°F-10.6°C 6.8°F-14.0°C 76% 1.2 mph NW1.9 kmh NW 2.3 mph3.7 kmh 28.46 in963.8 mb - 0.00 in0.0 mm 0.00 in0.0 mm
03:29 AM 12.9°F-10.6°C 6.8°F-14.0°C 76% 2.3 mph WNW3.7 kmh WNW 1.2 mph1.9 kmh 28.46 in963.8 mb - 0.00 in0.0 mm 0.00 in0.0 mm
03:30 AM 12.9°F-10.6°C 6.8°F-14.0°C 76% 1.2 mph WNW1.9 kmh WNW 1.2 mph1.9 kmh 28.46 in963.8 mb - 0.00 in0.0 mm 0.00 in0.0 mm
03:31 AM 12.9°F-10.6°C 7.0°F-13.9°C 77% Calm Calm -- 28.46 in963.8 mb - 0.00 in0.0 mm 0.00 in0.0 mm
03:32 AM 12.7°F-10.7°C 6.9°F-13.9°C 77% Calm Calm -- 28.46 in963.8 mb - 0.00 in0.0 mm 0.00 in0.0 mm
03:33 AM 12.7°F-10.7°C 6.9°F-13.9°C 77% 1.2 mph W1.9 kmh W 2.3 mph3.7 kmh 28.46 in963.8 mb - 0.00 in0.0 mm 0.00 in0.0 mm
03:34 AM 12.7°F-10.7°C 6.9°F-13.9°C 77% 2.3 mph NW3.7 kmh NW 2.3 mph3.7 kmh 28.46 in963.8 mb - 0.00 in0.0 mm 0.00 in0.0 mm
03:35 AM 12.6°F-10.8°C 6.8°F-14.0°C 77% 1.2 mph NW1.9 kmh NW 1.2 mph1.9 kmh 28.46 in963.8 mb - 0.00 in0.0 mm 0.00 in0.0 mm
03:36 AM 12.6°F-10.8°C 6.8°F-14.0°C 77% 1.2 mph WNW1.9 kmh WNW 1.2 mph1.9 kmh 28.46 in963.8 mb - 0.00 in0.0 mm 0.00 in0.0 mm
03:37 AM 12.6°F-10.8°C 6.8°F-14.0°C 77% Calm Calm -- 28.46 in963.8 mb - 0.00 in0.0 mm 0.00 in0.0 mm
03:38 AM 12.6°F-10.8°C 6.8°F-14.0°C 77% Calm Calm -- 28.46 in963.8 mb - 0.00 in0.0 mm 0.00 in0.0 mm
03:39 AM 12.6°F-10.8°C 6.8°F-14.0°C 77% Calm Calm -- 28.46 in963.8 mb - 0.00 in0.0 mm 0.00 in0.0 mm
03:40 AM 12.6°F-10.8°C 6.8°F-14.0°C 77% Calm Calm -- 28.46 in963.8 mb - 0.00 in0.0 mm 0.00 in0.0 mm
03:41 AM 12.6°F-10.8°C 6.8°F-14.0°C 77% Calm Calm -- 28.46 in963.8 mb - 0.00 in0.0 mm 0.00 in0.0 mm
03:42 AM 12.6°F-10.8°C 6.8°F-14.0°C 77% Calm Calm 2.3 mph3.7 kmh 28.46 in963.8 mb - 0.00 in0.0 mm 0.00 in0.0 mm
03:43 AM 12.6°F-10.8°C 6.8°F-14.0°C 77% 2.3 mph WNW3.7 kmh WNW 2.3 mph3.7 kmh 28.46 in963.8 mb - 0.00 in0.0 mm 0.00 in0.0 mm
03:44 AM 12.6°F-10.8°C 6.8°F-14.0°C 77% 1.2 mph NW1.9 kmh NW 1.2 mph1.9 kmh 28.46 in963.8 mb - 0.00 in0.0 mm 0.00 in0.0 mm
03:45 AM 12.6°F-10.8°C 6.8°F-14.0°C 77% 2.3 mph NW3.7 kmh NW 2.3 mph3.7 kmh 28.46 in963.8 mb - 0.00 in0.0 mm 0.00 in0.0 mm
03:46 AM 12.4°F-10.9°C 6.6°F-14.1°C 77% 1.2 mph NW1.9 kmh NW 1.2 mph1.9 kmh 28.46 in963.8 mb - 0.00 in0.0 mm 0.00 in0.0 mm
03:47 AM 12.4°F-10.9°C 6.6°F-14.1°C 77% 1.2 mph N1.9 kmh N 2.3 mph3.7 kmh 28.46 in963.8 mb - 0.00 in0.0 mm 0.00 in0.0 mm
03:48 AM 12.4°F-10.9°C 6.6°F-14.1°C 77% 2.3 mph NW3.7 kmh NW 2.3 mph3.7 kmh 28.46 in963.8 mb - 0.00 in0.0 mm 0.00 in0.0 mm
03:49 AM 12.4°F-10.9°C 6.6°F-14.1°C 77% 2.3 mph NW3.7 kmh NW 2.3 mph3.7 kmh 28.46 in963.8 mb - 0.00 in0.0 mm 0.00 in0.0 mm
03:50 AM 12.4°F-10.9°C 6.6°F-14.1°C 77% 2.3 mph NW3.7 kmh NW 1.2 mph1.9 kmh 28.46 in963.8 mb - 0.00 in0.0 mm 0.00 in0.0 mm
03:51 AM 12.4°F-10.9°C 6.6°F-14.1°C 77% 1.2 mph NW1.9 kmh NW 1.2 mph1.9 kmh 28.46 in963.8 mb - 0.00 in0.0 mm 0.00 in0.0 mm
03:52 AM 12.4°F-10.9°C 6.6°F-14.1°C 77% Calm Calm -- 28.46 in963.8 mb - 0.00 in0.0 mm 0.00 in0.0 mm
03:53 AM 12.5°F-10.8°C 6.6°F-14.1°C 77% Calm Calm -- 28.46 in963.8 mb - 0.00 in0.0 mm 0.00 in0.0 mm
03:54 AM 12.6°F-10.8°C 6.8°F-14.0°C 77% Calm Calm 2.3 mph3.7 kmh 28.46 in963.8 mb - 0.00 in0.0 mm 0.00 in0.0 mm
03:55 AM 12.6°F-10.8°C 6.8°F-14.0°C 77% 1.2 mph NNW1.9 kmh NNW 2.3 mph3.7 kmh 28.46 in963.8 mb - 0.00 in0.0 mm 0.00 in0.0 mm
03:56 AM 12.6°F-10.8°C 6.8°F-14.0°C 77% Calm Calm -- 28.46 in963.8 mb - 0.00 in0.0 mm 0.00 in0.0 mm
03:57 AM 12.6°F-10.8°C 6.8°F-14.0°C 77% Calm Calm -- 28.46 in963.8 mb - 0.00 in0.0 mm 0.00 in0.0 mm
03:58 AM 12.6°F-10.8°C 6.8°F-14.0°C 77% Calm Calm -- 28.46 in963.8 mb - 0.00 in0.0 mm 0.00 in0.0 mm
03:59 AM 12.6°F-10.8°C 6.8°F-14.0°C 77% Calm Calm -- 28.46 in963.8 mb - 0.00 in0.0 mm 0.00 in0.0 mm
04:00 AM 12.6°F-10.8°C 6.8°F-14.0°C 77% Calm Calm -- 28.46 in963.8 mb - 0.00 in0.0 mm 0.00 in0.0 mm
04:01 AM 12.6°F-10.8°C 6.8°F-14.0°C 77% Calm Calm -- 28.46 in963.8 mb - 0.00 in0.0 mm 0.00 in0.0 mm
04:02 AM 12.4°F-10.9°C 6.6°F-14.1°C 77% 1.2 mph NNE1.9 kmh NNE 2.3 mph3.7 kmh 28.47 in964.1 mb - 0.00 in0.0 mm 0.00 in0.0 mm
04:03 AM 12.4°F-10.9°C 6.6°F-14.1°C 77% 2.3 mph NNW3.7 kmh NNW 2.3 mph3.7 kmh 28.47 in964.1 mb - 0.00 in0.0 mm 0.00 in0.0 mm
04:04 AM 12.4°F-10.9°C 6.6°F-14.1°C 77% 1.2 mph NW1.9 kmh NW 1.2 mph1.9 kmh 28.47 in964.1 mb - 0.00 in0.0 mm 0.00 in0.0 mm
04:05 AM 12.4°F-10.9°C 6.6°F-14.1°C 77% Calm Calm 1.2 mph1.9 kmh 28.47 in964.1 mb - 0.00 in0.0 mm 0.00 in0.0 mm
04:06 AM 12.4°F-10.9°C 6.6°F-14.1°C 77% 1.2 mph N1.9 kmh N 1.2 mph1.9 kmh 28.47 in964.1 mb - 0.00 in0.0 mm 0.00 in0.0 mm
04:07 AM 12.4°F-10.9°C 6.6°F-14.1°C 77% Calm Calm -- 28.47 in964.1 mb - 0.00 in0.0 mm 0.00 in0.0 mm
04:08 AM 12.4°F-10.9°C 6.6°F-14.1°C 77% Calm Calm -- 28.47 in964.1 mb - 0.00 in0.0 mm 0.00 in0.0 mm
04:09 AM 12.4°F-10.9°C 6.6°F-14.1°C 77% Calm Calm 1.2 mph1.9 kmh 28.47 in964.1 mb - 0.00 in0.0 mm 0.00 in0.0 mm
04:10 AM 12.2°F-11.0°C 6.4°F-14.2°C 77% 1.2 mph NE1.9 kmh NE 2.3 mph3.7 kmh 28.47 in964.1 mb - 0.00 in0.0 mm 0.00 in0.0 mm
04:11 AM 12.0°F-11.1°C 6.4°F-14.2°C 78% 2.3 mph NNE3.7 kmh NNE 2.3 mph3.7 kmh 28.47 in964.1 mb - 0.00 in0.0 mm 0.00 in0.0 mm
04:12 AM 11.8°F-11.2°C 6.3°F-14.3°C 78% 2.3 mph N3.7 kmh N 2.3 mph3.7 kmh 28.47 in964.1 mb - 0.00 in0.0 mm 0.00 in0.0 mm
04:13 AM 11.8°F-11.2°C 6.5°F-14.2°C 79% 2.3 mph N3.7 kmh N 1.2 mph1.9 kmh 28.47 in964.1 mb - 0.00 in0.0 mm 0.00 in0.0 mm
04:14 AM 11.8°F-11.2°C 6.5°F-14.2°C 79% 1.2 mph NNE1.9 kmh NNE 1.2 mph1.9 kmh 28.47 in964.1 mb - 0.00 in0.0 mm 0.00 in0.0 mm
04:15 AM 12.0°F-11.1°C 6.8°F-14.0°C 79% 1.2 mph NNE1.9 kmh NNE 1.2 mph1.9 kmh 28.47 in964.1 mb - 0.00 in0.0 mm 0.00 in0.0 mm
04:16 AM 12.2°F-11.0°C 6.9°F-13.9°C 79% Calm Calm 1.2 mph1.9 kmh 28.47 in964.1 mb - 0.00 in0.0 mm 0.00 in0.0 mm
04:17 AM 12.2°F-11.0°C 6.9°F-13.9°C 79% 1.2 mph NNW1.9 kmh NNW 2.3 mph3.7 kmh 28.47 in964.1 mb - 0.00 in0.0 mm 0.00 in0.0 mm
04:18 AM 12.0°F-11.1°C 6.8°F-14.0°C 79% 2.3 mph 3.7 kmh 2.3 mph3.7 kmh 28.47 in964.1 mb - 0.00 in0.0 mm 0.00 in0.0 mm
04:19 AM 12.0°F-11.1°C 6.7°F-14.1°C 79% 1.2 mph N1.9 kmh N 2.3 mph3.7 kmh 28.47 in964.1 mb - 0.00 in0.0 mm 0.00 in0.0 mm
04:20 AM 12.0°F-11.1°C 6.7°F-14.1°C 79% Calm Calm -- 28.47 in964.1 mb - 0.00 in0.0 mm 0.00 in0.0 mm
04:21 AM 12.0°F-11.1°C 6.7°F-14.1°C 79% Calm Calm -- 28.47 in964.1 mb - 0.00 in0.0 mm 0.00 in0.0 mm
04:22 AM 12.0°F-11.1°C 6.7°F-14.1°C 79% Calm Calm -- 28.47 in964.1 mb - 0.00 in0.0 mm 0.00 in0.0 mm
04:23 AM 12.0°F-11.1°C 6.7°F-14.1°C 79% Calm Calm -- 28.47 in964.1 mb - 0.00 in0.0 mm 0.00 in0.0 mm
04:24 AM 12.0°F-11.1°C 6.7°F-14.1°C 79% Calm Calm -- 28.47 in964.1 mb - 0.00 in0.0 mm 0.00 in0.0 mm
04:25 AM 12.0°F-11.1°C 6.7°F-14.1°C 79% Calm Calm 2.3 mph3.7 kmh 28.47 in964.1 mb - 0.00 in0.0 mm 0.00 in0.0 mm
04:26 AM 12.0°F-11.1°C 6.7°F-14.1°C 79% 2.3 mph NNW3.7 kmh NNW 2.3 mph3.7 kmh 28.47 in964.1 mb - 0.00 in0.0 mm 0.00 in0.0 mm
04:27 AM 12.0°F-11.1°C 6.7°F-14.1°C 79% 2.3 mph NNW3.7 kmh NNW 3.5 mph5.6 kmh 28.47 in964.1 mb - 0.00 in0.0 mm 0.00 in0.0 mm
04:28 AM 11.9°F-11.2°C 6.7°F-14.1°C 79% 2.3 mph NW3.7 kmh NW 3.5 mph5.6 kmh 28.47 in964.1 mb - 0.00 in0.0 mm 0.00 in0.0 mm
04:29 AM 11.8°F-11.2°C 6.5°F-14.2°C 79% 2.3 mph NW3.7 kmh NW 2.3 mph3.7 kmh 28.47 in964.1 mb - 0.00 in0.0 mm 0.00 in0.0 mm
04:30 AM 11.8°F-11.2°C 6.5°F-14.2°C 79% 2.3 mph N3.7 kmh N 2.3 mph3.7 kmh 28.47 in964.1 mb - 0.00 in0.0 mm 0.00 in0.0 mm
04:31 AM 11.8°F-11.2°C 6.8°F-14.0°C 80% 1.2 mph N1.9 kmh N 1.2 mph1.9 kmh 28.47 in964.1 mb - 0.00 in0.0 mm 0.00 in0.0 mm
04:32 AM 11.8°F-11.2°C 6.8°F-14.0°C 80% Calm Calm -- 28.47 in964.1 mb - 0.00 in0.0 mm 0.00 in0.0 mm
04:33 AM 11.8°F-11.2°C 6.8°F-14.0°C 80% Calm Calm -- 28.47 in964.1 mb - 0.00 in0.0 mm 0.00 in0.0 mm
04:34 AM 11.8°F-11.2°C 6.8°F-14.0°C 80% Calm Calm -- 28.47 in964.1 mb - 0.00 in0.0 mm 0.00 in0.0 mm
04:35 AM 11.8°F-11.2°C 6.8°F-14.0°C 80% Calm Calm -- 28.47 in964.1 mb - 0.00 in0.0 mm 0.00 in0.0 mm
04:36 AM 11.8°F-11.2°C 6.8°F-14.0°C 80% Calm Calm 2.3 mph3.7 kmh 28.47 in964.1 mb - 0.00 in0.0 mm 0.00 in0.0 mm
04:37 AM 11.7°F-11.3°C 6.7°F-14.1°C 80% 1.2 mph NW1.9 kmh NW 2.3 mph3.7 kmh 28.47 in964.1 mb - 0.00 in0.0 mm 0.00 in0.0 mm
04:38 AM 11.7°F-11.3°C 6.7°F-14.1°C 80% 1.2 mph WNW1.9 kmh WNW 1.2 mph1.9 kmh 28.47 in964.1 mb - 0.00 in0.0 mm 0.00 in0.0 mm
04:39 AM 11.7°F-11.3°C 6.7°F-14.1°C 80% Calm Calm -- 28.47 in964.1 mb - 0.00 in0.0 mm 0.00 in0.0 mm
04:40 AM 11.7°F-11.3°C 6.7°F-14.1°C 80% Calm Calm -- 28.47 in964.1 mb - 0.00 in0.0 mm 0.00 in0.0 mm
04:41 AM 11.5°F-11.4°C 6.5°F-14.2°C 80% Calm Calm -- 28.47 in964.1 mb - 0.00 in0.0 mm 0.00 in0.0 mm
04:42 AM 11.5°F-11.4°C 6.5°F-14.2°C 80% Calm Calm -- 28.47 in964.1 mb - 0.00 in0.0 mm 0.00 in0.0 mm
04:43 AM 11.4°F-11.4°C 6.4°F-14.2°C 80% Calm Calm -- 28.47 in964.1 mb - 0.00 in0.0 mm 0.00 in0.0 mm
04:44 AM 11.2°F-11.6°C 6.3°F-14.3°C 80% Calm Calm -- 28.47 in964.1 mb - 0.00 in0.0 mm 0.00 in0.0 mm
04:45 AM 11.1°F-11.6°C 6.1°F-14.4°C 80% Calm Calm -- 28.47 in964.1 mb - 0.00 in0.0 mm 0.00 in0.0 mm
04:46 AM 11.1°F-11.6°C 6.1°F-14.4°C 80% Calm Calm -- 28.47 in964.1 mb - 0.00 in0.0 mm 0.00 in0.0 mm
04:47 AM 11.1°F-11.6°C 6.1°F-14.4°C 80% Calm Calm -- 28.47 in964.1 mb - 0.00 in0.0 mm 0.00 in0.0 mm
04:48 AM 11.1°F-11.6°C 6.1°F-14.4°C 80% Calm Calm -- 28.47 in964.1 mb - 0.00 in0.0 mm 0.00 in0.0 mm
04:49 AM 11.1°F-11.6°C 6.1°F-14.4°C 80% Calm Calm -- 28.47 in964.1 mb - 0.00 in0.0 mm 0.00 in0.0 mm
04:50 AM 11.1°F-11.6°C 6.1°F-14.4°C 80% Calm Calm -- 28.47 in964.1 mb - 0.00 in0.0 mm 0.00 in0.0 mm
04:51 AM 11.0°F-11.7°C 6.0°F-14.4°C 80% Calm Calm -- 28.47 in964.1 mb - 0.00 in0.0 mm 0.00 in0.0 mm
04:52 AM 10.9°F-11.7°C 5.9°F-14.5°C 80% Calm Calm -- 28.47 in964.1 mb - 0.00 in0.0 mm 0.00 in0.0 mm
04:53 AM 10.9°F-11.7°C 5.9°F-14.5°C 80% Calm Calm -- 28.47 in964.1 mb - 0.00 in0.0 mm 0.00 in0.0 mm
04:54 AM 10.9°F-11.7°C 5.9°F-14.5°C 80% Calm Calm -- 28.47 in964.1 mb - 0.00 in0.0 mm 0.00 in0.0 mm
04:55 AM 10.9°F-11.7°C 5.9°F-14.5°C 80% Calm Calm -- 28.47 in964.1 mb - 0.00 in0.0 mm 0.00 in0.0 mm
04:56 AM 10.8°F-11.8°C 5.9°F-14.5°C 80% Calm Calm -- 28.47 in964.1 mb - 0.00 in0.0 mm 0.00 in0.0 mm
04:57 AM 10.8°F-11.8°C 6.1°F-14.4°C 81% Calm Calm -- 28.47 in964.1 mb - 0.00 in0.0 mm 0.00 in0.0 mm
04:58 AM 10.8°F-11.8°C 6.1°F-14.4°C 81% Calm Calm 2.3 mph3.7 kmh 28.47 in964.1 mb - 0.00 in0.0 mm 0.00 in0.0 mm
04:59 AM 10.8°F-11.8°C 6.1°F-14.4°C 81% 1.2 mph NNW1.9 kmh NNW 2.3 mph3.7 kmh 28.47 in964.1 mb - 0.00 in0.0 mm 0.00 in0.0 mm
05:00 AM 10.8°F-11.8°C 6.1°F-14.4°C 81% 1.2 mph N1.9 kmh N 1.2 mph1.9 kmh 28.47 in964.1 mb - 0.00 in0.0 mm 0.00 in0.0 mm
05:01 AM 10.8°F-11.8°C 6.1°F-14.4°C 81% Calm Calm -- 28.47 in964.1 mb - 0.00 in0.0 mm 0.00 in0.0 mm
05:02 AM 10.8°F-11.8°C 6.1°F-14.4°C 81% Calm Calm -- 28.47 in964.1 mb - 0.00 in0.0 mm 0.00 in0.0 mm
05:03 AM 10.8°F-11.8°C 6.1°F-14.4°C 81% Calm Calm -- 28.47 in964.1 mb - 0.00 in0.0 mm 0.00 in0.0 mm
05:04 AM 10.6°F-11.9°C 5.9°F-14.5°C 81% Calm Calm -- 28.47 in964.1 mb - 0.00 in0.0 mm 0.00 in0.0 mm
05:05 AM 10.6°F-11.9°C 5.9°F-14.5°C 81% Calm Calm -- 28.47 in964.1 mb - 0.00 in0.0 mm 0.00 in0.0 mm
05:06 AM 10.4°F-12.0°C 5.8°F-14.6°C 81% Calm Calm -- 28.47 in964.1 mb - 0.00 in0.0 mm 0.00 in0.0 mm
05:07 AM 10.4°F-12.0°C 5.7°F-14.6°C 81% Calm Calm -- 28.47 in964.1 mb - 0.00 in0.0 mm 0.00 in0.0 mm
05:08 AM 10.4°F-12.0°C 5.7°F-14.6°C 81% Calm Calm -- 28.47 in964.1 mb - 0.00 in0.0 mm 0.00 in0.0 mm
05:09 AM 10.4°F-12.0°C 5.7°F-14.6°C 81% Calm Calm -- 28.47 in964.1 mb - 0.00 in0.0 mm 0.00 in0.0 mm
05:10 AM 10.4°F-12.0°C 5.7°F-14.6°C 81% Calm Calm -- 28.47 in964.1 mb - 0.00 in0.0 mm 0.00 in0.0 mm
05:11 AM 10.6°F-11.9°C 5.9°F-14.5°C 81% Calm Calm -- 28.47 in964.1 mb - 0.00 in0.0 mm 0.00 in0.0 mm
05:12 AM 10.6°F-11.9°C 5.9°F-14.5°C 81% Calm Calm -- 28.47 in964.1 mb - 0.00 in0.0 mm 0.00 in0.0 mm
05:13 AM 10.6°F-11.9°C 5.9°F-14.5°C 81% Calm Calm -- 28.47 in964.1 mb - 0.00 in0.0 mm 0.00 in0.0 mm
05:14 AM 10.6°F-11.9°C 5.9°F-14.5°C 81% Calm Calm -- 28.47 in964.1 mb - 0.00 in0.0 mm 0.00 in0.0 mm
05:15 AM 10.6°F-11.9°C 5.9°F-14.5°C 81% Calm Calm -- 28.47 in964.1 mb - 0.00 in0.0 mm 0.00 in0.0 mm
05:16 AM 10.6°F-11.9°C 5.9°F-14.5°C 81% Calm Calm -- 28.47 in964.1 mb - 0.00 in0.0 mm 0.00 in0.0 mm
05:17 AM 10.6°F-11.9°C 5.9°F-14.5°C 81% 1.2 mph NNE1.9 kmh NNE 1.2 mph1.9 kmh 28.47 in964.1 mb - 0.00 in0.0 mm 0.00 in0.0 mm
05:18 AM 10.6°F-11.9°C 5.9°F-14.5°C 81% 2.3 mph NNE3.7 kmh NNE 2.3 mph3.7 kmh 28.47 in964.1 mb - 0.00 in0.0 mm 0.00 in0.0 mm
05:19 AM 10.6°F-11.9°C 5.9°F-14.5°C 81% 2.3 mph N3.7 kmh N 2.3 mph3.7 kmh 28.47 in964.1 mb - 0.00 in0.0 mm 0.00 in0.0 mm
05:20 AM 10.6°F-11.9°C 5.9°F-14.5°C 81% 1.2 mph N1.9 kmh N 1.2 mph1.9 kmh 28.47 in964.1 mb - 0.00 in0.0 mm 0.00 in0.0 mm
05:21 AM 10.6°F-11.9°C 5.9°F-14.5°C 81% 1.2 mph NNW1.9 kmh NNW 1.2 mph1.9 kmh 28.47 in964.1 mb - 0.00 in0.0 mm 0.00 in0.0 mm
05:22 AM 10.6°F-11.9°C 5.9°F-14.5°C 81% 1.2 mph NNW1.9 kmh NNW 1.2 mph1.9 kmh 28.47 in964.1 mb - 0.00 in0.0 mm 0.00 in0.0 mm
05:23 AM 10.6°F-11.9°C 5.9°F-14.5°C 81% Calm Calm -- 28.47 in964.1 mb - 0.00 in0.0 mm 0.00 in0.0 mm
05:24 AM 10.6°F-11.9°C 5.9°F-14.5°C 81% Calm Calm -- 28.47 in964.1 mb - 0.00 in0.0 mm 0.00 in0.0 mm
05:25 AM 10.6°F-11.9°C 5.9°F-14.5°C 81% Calm Calm -- 28.47 in964.1 mb - 0.00 in0.0 mm 0.00 in0.0 mm
05:26 AM 10.6°F-11.9°C 5.9°F-14.5°C 81% Calm Calm -- 28.47 in964.1 mb - 0.00 in0.0 mm 0.00 in0.0 mm
05:27 AM 10.8°F-11.8°C 6.1°F-14.4°C 81% Calm Calm -- 28.47 in964.1 mb - 0.00 in0.0 mm 0.00 in0.0 mm
05:28 AM 10.8°F-11.8°C 6.1°F-14.4°C 81% Calm Calm -- 28.47 in964.1 mb - 0.00 in0.0 mm 0.00 in0.0 mm
05:29 AM 10.8°F-11.8°C 6.1°F-14.4°C 81% Calm Calm -- 28.47 in964.1 mb - 0.00 in0.0 mm 0.00 in0.0 mm
05:30 AM 10.5°F-11.9°C 5.8°F-14.6°C 81% Calm Calm -- 28.47 in964.1 mb - 0.00 in0.0 mm 0.00 in0.0 mm
05:31 AM 10.4°F-12.0°C 5.7°F-14.6°C 81% Calm Calm -- 28.47 in964.1 mb - 0.00 in0.0 mm 0.00 in0.0 mm
05:32 AM 10.4°F-12.0°C 5.7°F-14.6°C 81% Calm Calm -- 28.47 in964.1 mb - 0.00 in0.0 mm 0.00 in0.0 mm
05:33 AM 10.4°F-12.0°C 6.0°F-14.4°C 82% Calm Calm -- 28.47 in964.1 mb - 0.00 in0.0 mm 0.00 in0.0 mm
05:34 AM 10.4°F-12.0°C 6.0°F-14.4°C 82% Calm Calm -- 28.47 in964.1 mb - 0.00 in0.0 mm 0.00 in0.0 mm
05:35 AM 10.4°F-12.0°C 6.0°F-14.4°C 82% Calm Calm -- 28.47 in964.1 mb - 0.00 in0.0 mm 0.00 in0.0 mm
05:36 AM 10.4°F-12.0°C 6.0°F-14.4°C 82% Calm Calm -- 28.47 in964.1 mb - 0.00 in0.0 mm 0.00 in0.0 mm
05:37 AM 10.4°F-12.0°C 6.0°F-14.4°C 82% Calm Calm -- 28.47 in964.1 mb - 0.00 in0.0 mm 0.00 in0.0 mm
05:38 AM 10.4°F-12.0°C 6.0°F-14.4°C 82% Calm Calm -- 28.47 in964.1 mb - 0.00 in0.0 mm 0.00 in0.0 mm
05:39 AM 10.4°F-12.0°C 6.0°F-14.4°C 82% Calm Calm -- 28.47 in964.1 mb - 0.00 in0.0 mm 0.00 in0.0 mm
05:40 AM 10.4°F-12.0°C 6.0°F-14.4°C 82% Calm Calm -- 28.47 in964.1 mb - 0.00 in0.0 mm 0.00 in0.0 mm
05:41 AM 10.6°F-11.9°C 6.2°F-14.3°C 82% 1.2 mph N1.9 kmh N 2.3 mph3.7 kmh 28.47 in964.1 mb - 0.00 in0.0 mm 0.00 in0.0 mm
05:42 AM 10.6°F-11.9°C 6.2°F-14.3°C 82% 2.3 mph NNW3.7 kmh NNW 2.3 mph3.7 kmh 28.47 in964.1 mb - 0.00 in0.0 mm 0.00 in0.0 mm
05:43 AM 10.8°F-11.8°C 6.3°F-14.3°C 82% 2.3 mph N3.7 kmh N 2.3 mph3.7 kmh 28.47 in964.1 mb - 0.00 in0.0 mm 0.00 in0.0 mm
05:44 AM 10.8°F-11.8°C 6.4°F-14.2°C 82% 1.2 mph NNE1.9 kmh NNE 2.3 mph3.7 kmh 28.47 in964.1 mb - 0.00 in0.0 mm 0.00 in0.0 mm
05:45 AM 10.9°F-11.7°C 6.5°F-14.2°C 82% 2.3 mph NE3.7 kmh NE 3.5 mph5.6 kmh 28.47 in964.1 mb - 0.00 in0.0 mm 0.00 in0.0 mm
05:46 AM 10.9°F-11.7°C 6.5°F-14.2°C 82% 2.3 mph NNE3.7 kmh NNE 2.3 mph3.7 kmh 28.47 in964.1 mb - 0.00 in0.0 mm 0.00 in0.0 mm
05:47 AM 10.9°F-11.7°C 6.5°F-14.2°C 82% 1.2 mph NW1.9 kmh NW 1.2 mph1.9 kmh 28.47 in964.1 mb - 0.00 in0.0 mm 0.00 in0.0 mm
05:48 AM 10.9°F-11.7°C 6.5°F-14.2°C 82% Calm Calm -- 28.47 in964.1 mb - 0.00 in0.0 mm 0.00 in0.0 mm
05:49 AM 10.9°F-11.7°C 6.5°F-14.2°C 82% Calm Calm 2.3 mph3.7 kmh 28.47 in964.1 mb - 0.00 in0.0 mm 0.00 in0.0 mm
05:50 AM 10.9°F-11.7°C 6.5°F-14.2°C 82% 1.2 mph N1.9 kmh N 2.3 mph3.7 kmh 28.47 in964.1 mb - 0.00 in0.0 mm 0.00 in0.0 mm
05:51 AM 11.1°F-11.6°C 6.6°F-14.1°C 82% 1.2 mph N1.9 kmh N 2.3 mph3.7 kmh 28.47 in964.1 mb - 0.00 in0.0 mm 0.00 in0.0 mm
05:52 AM 11.1°F-11.6°C 6.7°F-14.1°C 82% 2.3 mph NNE3.7 kmh NNE 2.3 mph3.7 kmh 28.47 in964.1 mb - 0.00 in0.0 mm 0.00 in0.0 mm
05:53 AM 11.1°F-11.6°C 6.7°F-14.1°C 82% 1.2 mph NNE1.9 kmh NNE 1.2 mph1.9 kmh 28.47 in964.1 mb - 0.00 in0.0 mm 0.00 in0.0 mm
05:54 AM 11.1°F-11.6°C 6.7°F-14.1°C 82% Calm Calm -- 28.47 in964.1 mb - 0.00 in0.0 mm 0.00 in0.0 mm
05:55 AM 11.1°F-11.6°C 6.7°F-14.1°C 82% Calm Calm -- 28.47 in964.1 mb - 0.00 in0.0 mm 0.00 in0.0 mm
05:56 AM 11.1°F-11.6°C 6.7°F-14.1°C 82% Calm Calm -- 28.47 in964.1 mb - 0.00 in0.0 mm 0.00 in0.0 mm
05:57 AM 11.0°F-11.7°C 6.6°F-14.1°C 82% Calm Calm -- 28.47 in964.1 mb - 0.00 in0.0 mm 0.00 in0.0 mm
05:58 AM 10.9°F-11.7°C 6.5°F-14.2°C 82% Calm Calm -- 28.47 in964.1 mb - 0.00 in0.0 mm 0.00 in0.0 mm
05:59 AM 10.8°F-11.8°C 6.4°F-14.2°C 82% Calm Calm -- 28.47 in964.1 mb - 0.00 in0.0 mm 0.00 in0.0 mm
06:00 AM 10.5°F-11.9°C 6.1°F-14.4°C 82% Calm Calm -- 28.47 in964.1 mb - 0.00 in0.0 mm 0.00 in0.0 mm
06:01 AM 10.2°F-12.1°C 6.1°F-14.4°C 83% Calm Calm -- 28.47 in964.1 mb - 0.00 in0.0 mm 0.00 in0.0 mm
06:02 AM 10.0°F-12.2°C 5.9°F-14.5°C 83% Calm Calm -- 28.48 in964.4 mb - 0.00 in0.0 mm 0.00 in0.0 mm
06:03 AM 10.0°F-12.2°C 5.8°F-14.6°C 83% Calm Calm -- 28.48 in964.4 mb - 0.00 in0.0 mm 0.00 in0.0 mm
06:04 AM 9.9°F-12.3°C 5.8°F-14.6°C 83% Calm Calm -- 28.48 in964.4 mb - 0.00 in0.0 mm 0.00 in0.0 mm
06:05 AM 9.9°F-12.3°C 5.8°F-14.6°C 83% Calm Calm -- 28.48 in964.4 mb - 0.00 in0.0 mm 0.00 in0.0 mm
06:06 AM 9.9°F-12.3°C 5.8°F-14.6°C 83% Calm Calm -- 28.48 in964.4 mb - 0.00 in0.0 mm 0.00 in0.0 mm
06:07 AM 9.9°F-12.3°C 5.8°F-14.6°C 83% Calm Calm -- 28.48 in964.4 mb - 0.00 in0.0 mm 0.00 in0.0 mm
06:08 AM 9.7°F-12.4°C 5.6°F-14.7°C 83% Calm Calm -- 28.48 in964.4 mb - 0.00 in0.0 mm 0.00 in0.0 mm
06:09 AM 9.7°F-12.4°C 5.6°F-14.7°C 83% Calm Calm -- 28.48 in964.4 mb - 0.00 in0.0 mm 0.00 in0.0 mm
06:10 AM 9.7°F-12.4°C 5.6°F-14.7°C 83% Calm Calm -- 28.48 in964.4 mb - 0.00 in0.0 mm 0.00 in0.0 mm
06:11 AM 9.7°F-12.4°C 5.6°F-14.7°C 83% Calm Calm -- 28.48 in964.4 mb - 0.00 in0.0 mm 0.00 in0.0 mm
06:12 AM 9.7°F-12.4°C 5.6°F-14.7°C 83% Calm Calm -- 28.48 in964.4 mb - 0.00 in0.0 mm 0.00 in0.0 mm
06:13 AM 9.6°F-12.4°C 5.5°F-14.7°C 83% Calm Calm -- 28.48 in964.4 mb - 0.00 in0.0 mm 0.00 in0.0 mm
06:14 AM 9.5°F-12.5°C 5.3°F-14.8°C 83% Calm Calm -- 28.48 in964.4 mb - 0.00 in0.0 mm 0.00 in0.0 mm
06:15 AM 9.3°F-12.6°C 5.2°F-14.9°C 83% Calm Calm -- 28.48 in964.4 mb - 0.00 in0.0 mm 0.00 in0.0 mm
06:16 AM 9.3°F-12.6°C 5.2°F-14.9°C 83% Calm Calm 1.2 mph1.9 kmh 28.48 in964.4 mb - 0.00 in0.0 mm 0.00 in0.0 mm
06:17 AM 9.5°F-12.5°C 5.6°F-14.7°C 84% 1.2 mph NNE1.9 kmh NNE 2.3 mph3.7 kmh 28.48 in964.4 mb - 0.00 in0.0 mm 0.00 in0.0 mm
06:18 AM 9.5°F-12.5°C 5.6°F-14.7°C 84% 2.3 mph N3.7 kmh N 2.3 mph3.7 kmh 28.48 in964.4 mb - 0.00 in0.0 mm 0.00 in0.0 mm
06:19 AM 9.5°F-12.5°C 5.6°F-14.7°C 84% 1.2 mph N1.9 kmh N 1.2 mph1.9 kmh 28.48 in964.4 mb - 0.00 in0.0 mm 0.00 in0.0 mm
06:20 AM 9.5°F-12.5°C 5.9°F-14.5°C 85% Calm Calm -- 28.48 in964.4 mb - 0.00 in0.0 mm 0.00 in0.0 mm
06:21 AM 9.5°F-12.5°C 5.9°F-14.5°C 85% Calm Calm 2.3 mph3.7 kmh 28.48 in964.4 mb - 0.00 in0.0 mm 0.00 in0.0 mm
06:22 AM 9.5°F-12.5°C 5.9°F-14.5°C 85% 2.3 mph NE3.7 kmh NE 2.3 mph3.7 kmh 28.48 in964.4 mb - 0.00 in0.0 mm 0.00 in0.0 mm
06:23 AM 9.5°F-12.5°C 5.9°F-14.5°C 85% 2.3 mph N3.7 kmh N 3.5 mph5.6 kmh 28.48 in964.4 mb - 0.00 in0.0 mm 0.00 in0.0 mm
06:24 AM 9.7°F-12.4°C 6.1°F-14.4°C 85% 2.3 mph N3.7 kmh N 2.3 mph3.7 kmh 28.48 in964.4 mb - 0.00 in0.0 mm 0.00 in0.0 mm
06:25 AM 9.7°F-12.4°C 6.1°F-14.4°C 85% 2.3 mph NE3.7 kmh NE 2.3 mph3.7 kmh 28.48 in964.4 mb - 0.00 in0.0 mm 0.00 in0.0 mm
06:26 AM 9.7°F-12.4°C 6.1°F-14.4°C 85% 1.2 mph NNE1.9 kmh NNE 2.3 mph3.7 kmh 28.48 in964.4 mb - 0.00 in0.0 mm 0.00 in0.0 mm
06:27 AM 9.8°F-12.3°C 6.2°F-14.3°C 85% 2.3 mph NNE3.7 kmh NNE 2.3 mph3.7 kmh 28.48 in964.4 mb - 0.00 in0.0 mm 0.00 in0.0 mm
06:28 AM 9.9°F-12.3°C 6.3°F-14.3°C 85% 2.3 mph NNE3.7 kmh NNE 2.3 mph3.7 kmh 28.48 in964.4 mb - 0.00 in0.0 mm 0.00 in0.0 mm
06:29 AM 9.9°F-12.3°C 6.3°F-14.3°C 85% 1.2 mph NNE1.9 kmh NNE 1.2 mph1.9 kmh 28.48 in964.4 mb - 0.00 in0.0 mm 0.00 in0.0 mm
06:30 AM 10.0°F-12.2°C 6.4°F-14.2°C 85% 1.2 mph NNE1.9 kmh NNE 2.3 mph3.7 kmh 28.48 in964.4 mb - 0.00 in0.0 mm 0.00 in0.0 mm
06:31 AM 10.0°F-12.2°C 6.4°F-14.2°C 85% 2.3 mph NNE3.7 kmh NNE 2.3 mph3.7 kmh 28.48 in964.4 mb - 0.00 in0.0 mm 0.00 in0.0 mm
06:32 AM 10.0°F-12.2°C 6.4°F-14.2°C 85% 1.2 mph N1.9 kmh N 1.2 mph1.9 kmh 28.48 in964.4 mb - 0.00 in0.0 mm 0.00 in0.0 mm
06:33 AM 10.0°F-12.2°C 6.4°F-14.2°C 85% 1.2 mph NE1.9 kmh NE 2.3 mph3.7 kmh 28.48 in964.4 mb - 0.00 in0.0 mm 0.00 in0.0 mm
06:34 AM 10.0°F-12.2°C 6.4°F-14.2°C 85% 2.3 mph NNE3.7 kmh NNE 2.3 mph3.7 kmh 28.48 in964.4 mb - 0.00 in0.0 mm 0.00 in0.0 mm
06:35 AM 10.2°F-12.1°C 6.6°F-14.1°C 85% 1.2 mph NNE1.9 kmh NNE 1.2 mph1.9 kmh 28.48 in964.4 mb - 0.00 in0.0 mm 0.00 in0.0 mm
06:36 AM 10.2°F-12.1°C 6.6°F-14.1°C 85% Calm Calm 1.2 mph1.9 kmh 28.48 in964.4 mb - 0.00 in0.0 mm 0.00 in0.0 mm
06:37 AM 10.1°F-12.2°C 6.5°F-14.2°C 85% Calm Calm 2.3 mph3.7 kmh 28.48 in964.4 mb - 0.00 in0.0 mm 0.00 in0.0 mm
06:38 AM 10.0°F-12.2°C 6.4°F-14.2°C 85% 1.2 mph NNE1.9 kmh NNE 2.3 mph3.7 kmh 28.48 in964.4 mb - 0.00 in0.0 mm 0.00 in0.0 mm
06:39 AM 10.0°F-12.2°C 6.4°F-14.2°C 85% 1.2 mph NNE1.9 kmh NNE 1.2 mph1.9 kmh 28.48 in964.4 mb - 0.00 in0.0 mm 0.00 in0.0 mm
06:40 AM 10.0°F-12.2°C 6.4°F-14.2°C 85% Calm Calm 2.3 mph3.7 kmh 28.48 in964.4 mb - 0.00 in0.0 mm 0.00 in0.0 mm
06:41 AM 10.0°F-12.2°C 6.4°F-14.2°C 85% 2.3 mph N3.7 kmh N 2.3 mph3.7 kmh 28.48 in964.4 mb - 0.00 in0.0 mm 0.00 in0.0 mm
06:42 AM 10.3°F-12.1°C 6.7°F-14.1°C 85% 1.2 mph N1.9 kmh N 2.3 mph3.7 kmh 28.48 in964.4 mb - 0.00 in0.0 mm 0.00 in0.0 mm
06:43 AM 10.4°F-12.0°C 6.8°F-14.0°C 85% 1.2 mph N1.9 kmh N 1.2 mph1.9 kmh 28.48 in964.4 mb - 0.00 in0.0 mm 0.00 in0.0 mm
06:44 AM 10.6°F-11.9°C 7.0°F-13.9°C 85% Calm Calm -- 28.48 in964.4 mb - 0.00 in0.0 mm 0.00 in0.0 mm
06:45 AM 10.6°F-11.9°C 7.0°F-13.9°C 85% Calm Calm -- 28.48 in964.4 mb - 0.00 in0.0 mm 0.00 in0.0 mm
06:46 AM 10.4°F-12.0°C 6.8°F-14.0°C 85% Calm Calm -- 28.48 in964.4 mb - 0.00 in0.0 mm 0.00 in0.0 mm
06:47 AM 10.4°F-12.0°C 6.8°F-14.0°C 85% Calm Calm -- 28.48 in964.4 mb - 0.00 in0.0 mm 0.00 in0.0 mm
06:48 AM 10.4°F-12.0°C 6.8°F-14.0°C 85% Calm Calm -- 28.48 in964.4 mb - 0.00 in0.0 mm 0.00 in0.0 mm
06:49 AM 10.4°F-12.0°C 6.7°F-14.1°C 85% Calm Calm -- 28.48 in964.4 mb - 0.00 in0.0 mm 0.00 in0.0 mm
06:50 AM 10.2°F-12.1°C 6.6°F-14.1°C 85% Calm Calm -- 28.48 in964.4 mb - 0.00 in0.0 mm 0.00 in0.0 mm
06:51 AM 10.2°F-12.1°C 6.6°F-14.1°C 85% Calm Calm -- 28.48 in964.4 mb - 0.00 in0.0 mm 0.00 in0.0 mm
06:52 AM 10.2°F-12.1°C 6.6°F-14.1°C 85% Calm Calm -- 28.48 in964.4 mb - 0.00 in0.0 mm 0.00 in0.0 mm
06:53 AM 10.2°F-12.1°C 6.6°F-14.1°C 85% Calm Calm 1.2 mph1.9 kmh 28.48 in964.4 mb - 0.00 in0.0 mm 0.00 in0.0 mm
06:54 AM 10.0°F-12.2°C 6.4°F-14.2°C 85% 1.2 mph NE1.9 kmh NE 1.2 mph1.9 kmh 28.48 in964.4 mb - 0.00 in0.0 mm 0.00 in0.0 mm
06:55 AM 9.8°F-12.3°C 6.2°F-14.3°C 85% 1.2 mph NE1.9 kmh NE 2.3 mph3.7 kmh 28.48 in964.4 mb - 0.00 in0.0 mm 0.00 in0.0 mm
06:56 AM 9.7°F-12.4°C 6.1°F-14.4°C 85% 2.3 mph NNE3.7 kmh NNE 2.3 mph3.7 kmh 28.48 in964.4 mb - 0.00 in0.0 mm 0.00 in0.0 mm
06:57 AM 9.7°F-12.4°C 6.4°F-14.2°C 86% 2.3 mph NNE3.7 kmh NNE 2.3 mph3.7 kmh 28.48 in964.4 mb - 0.00 in0.0 mm 0.00 in0.0 mm
06:58 AM 9.7°F-12.4°C 6.4°F-14.2°C 86% 2.3 mph NNE3.7 kmh NNE 2.3 mph3.7 kmh 28.48 in964.4 mb - 0.00 in0.0 mm 0.00 in0.0 mm
06:59 AM 9.7°F-12.4°C 6.4°F-14.2°C 86% 2.3 mph NNE3.7 kmh NNE 1.2 mph1.9 kmh 28.48 in964.4 mb - 0.00 in0.0 mm 0.00 in0.0 mm
07:00 AM 9.7°F-12.4°C 6.4°F-14.2°C 86% 1.2 mph NNE1.9 kmh NNE 1.2 mph1.9 kmh 28.48 in964.4 mb - 0.00 in0.0 mm 0.00 in0.0 mm
07:01 AM 9.8°F-12.3°C 6.4°F-14.2°C 86% 1.2 mph NNE1.9 kmh NNE 2.3 mph3.7 kmh 28.48 in964.4 mb - 0.00 in0.0 mm 0.00 in0.0 mm
07:02 AM 9.9°F-12.3°C 6.6°F-14.1°C 86% 2.3 mph NNE3.7 kmh NNE 2.3 mph3.7 kmh 28.48 in964.4 mb - 0.00 in0.0 mm 0.00 in0.0 mm
07:03 AM 9.9°F-12.3°C 6.6°F-14.1°C 86% 1.2 mph N1.9 kmh N 1.2 mph1.9 kmh 28.48 in964.4 mb - 0.00 in0.0 mm 0.00 in0.0 mm
07:04 AM 10.0°F-12.2°C 6.6°F-14.1°C 86% 1.2 mph NNE1.9 kmh NNE 2.3 mph3.7 kmh 28.48 in964.4 mb - 0.00 in0.0 mm 0.00 in0.0 mm
07:05 AM 10.0°F-12.2°C 6.6°F-14.1°C 86% 2.3 mph NNE3.7 kmh NNE 2.3 mph3.7 kmh 28.48 in964.4 mb - 0.00 in0.0 mm 0.00 in0.0 mm
07:06 AM 10.0°F-12.2°C 6.6°F-14.1°C 86% 1.2 mph NNE1.9 kmh NNE 3.5 mph5.6 kmh 28.48 in964.4 mb - 0.00 in0.0 mm 0.00 in0.0 mm
07:07 AM 10.0°F-12.2°C 6.6°F-14.1°C 86% 2.3 mph NNE3.7 kmh NNE 3.5 mph5.6 kmh 28.48 in964.4 mb - 0.00 in0.0 mm 0.00 in0.0 mm
07:08 AM 10.1°F-12.2°C 6.8°F-14.0°C 86% 2.3 mph NNE3.7 kmh NNE 2.3 mph3.7 kmh 28.48 in964.4 mb - 0.00 in0.0 mm 0.00 in0.0 mm
07:09 AM 10.3°F-12.1°C 6.9°F-13.9°C 86% 2.3 mph NNE3.7 kmh NNE 2.3 mph3.7 kmh 28.48 in964.4 mb - 0.00 in0.0 mm 0.00 in0.0 mm
07:10 AM 10.4°F-12.0°C 7.0°F-13.9°C 86% 1.2 mph NNE1.9 kmh NNE 1.2 mph1.9 kmh 28.48 in964.4 mb - 0.00 in0.0 mm 0.00 in0.0 mm
07:11 AM 10.5°F-11.9°C 7.2°F-13.8°C 86% Calm Calm -- 28.48 in964.4 mb - 0.00 in0.0 mm 0.00 in0.0 mm
07:12 AM 10.6°F-11.9°C 7.2°F-13.8°C 86% Calm Calm -- 28.48 in964.4 mb - 0.00 in0.0 mm 0.00 in0.0 mm
07:13 AM 10.6°F-11.9°C 7.2°F-13.8°C 86% Calm Calm -- 28.48 in964.4 mb - 0.00 in0.0 mm 0.00 in0.0 mm
07:14 AM 10.4°F-12.0°C 7.0°F-13.9°C 86% Calm Calm -- 28.49 in964.8 mb - 0.00 in0.0 mm 0.00 in0.0 mm
07:15 AM 10.2°F-12.1°C 6.9°F-13.9°C 86% Calm Calm -- 28.49 in964.8 mb - 0.00 in0.0 mm 0.00 in0.0 mm
07:16 AM 10.1°F-12.2°C 6.7°F-14.1°C 86% Calm Calm -- 28.49 in964.8 mb - 0.00 in0.0 mm 0.00 in0.0 mm
07:17 AM 10.0°F-12.2°C 6.6°F-14.1°C 86% Calm Calm -- 28.49 in964.8 mb - 0.00 in0.0 mm 0.00 in0.0 mm
07:18 AM 10.0°F-12.2°C 6.6°F-14.1°C 86% Calm Calm -- 28.49 in964.8 mb - 0.00 in0.0 mm 0.00 in0.0 mm
07:19 AM 10.0°F-12.2°C 6.6°F-14.1°C 86% Calm Calm -- 28.49 in964.8 mb - 0.00 in0.0 mm 0.00 in0.0 mm
07:20 AM 9.9°F-12.3°C 6.6°F-14.1°C 86% Calm Calm -- 28.49 in964.8 mb - 0.00 in0.0 mm 0.00 in0.0 mm
07:21 AM 9.9°F-12.3°C 6.6°F-14.1°C 86% Calm Calm -- 28.49 in964.8 mb - 0.00 in0.0 mm 0.00 in0.0 mm
07:22 AM 9.9°F-12.3°C 6.6°F-14.1°C 86% Calm Calm -- 28.49 in964.8 mb - 0.00 in0.0 mm 0.00 in0.0 mm
07:23 AM 9.7°F-12.4°C 6.4°F-14.2°C 86% Calm Calm -- 28.49 in964.8 mb - 0.00 in0.0 mm 0.00 in0.0 mm
07:24 AM 9.7°F-12.4°C 6.4°F-14.2°C 86% Calm Calm -- 28.49 in964.8 mb - 0.00 in0.0 mm 0.00 in0.0 mm
07:25 AM 9.7°F-12.4°C 6.4°F-14.2°C 86% Calm Calm -- 28.50 in965.1 mb - 0.00 in0.0 mm 0.00 in0.0 mm
07:26 AM 9.7°F-12.4°C 6.4°F-14.2°C 86% Calm Calm -- 28.50 in965.1 mb - 0.00 in0.0 mm 0.00 in0.0 mm
07:27 AM 9.7°F-12.4°C 6.4°F-14.2°C 86% Calm Calm -- 28.50 in965.1 mb - 0.00 in0.0 mm 0.00 in0.0 mm
07:28 AM 9.7°F-12.4°C 6.4°F-14.2°C 86% Calm Calm -- 28.50 in965.1 mb - 0.00 in0.0 mm 0.00 in0.0 mm
07:29 AM 9.7°F-12.4°C 6.4°F-14.2°C 86% Calm Calm -- 28.50 in965.1 mb - 0.00 in0.0 mm 0.00 in0.0 mm
07:30 AM 9.7°F-12.4°C 6.4°F-14.2°C 86% Calm Calm -- 28.50 in965.1 mb - 0.00 in0.0 mm 0.00 in0.0 mm
07:31 AM 9.7°F-12.4°C 6.4°F-14.2°C 86% Calm Calm -- 28.50 in965.1 mb - 0.00 in0.0 mm 0.00 in0.0 mm
07:32 AM 9.7°F-12.4°C 6.4°F-14.2°C 86% Calm Calm -- 28.50 in965.1 mb - 0.00 in0.0 mm 0.00 in0.0 mm
07:33 AM 9.5°F-12.5°C 6.2°F-14.3°C 86% Calm Calm -- 28.50 in965.1 mb - 0.00 in0.0 mm 0.00 in0.0 mm
07:34 AM 9.3°F-12.6°C 6.0°F-14.4°C 86% Calm Calm -- 28.50 in965.1 mb - 0.00 in0.0 mm 0.00 in0.0 mm
07:35 AM 9.1°F-12.7°C 5.7°F-14.6°C 86% Calm Calm -- 28.50 in965.1 mb - 0.00 in0.0 mm 0.00 in0.0 mm
07:36 AM 9.0°F-12.8°C 5.7°F-14.6°C 86% Calm Calm -- 28.50 in965.1 mb - 0.00 in0.0 mm 0.00 in0.0 mm
07:37 AM 8.9°F-12.8°C 5.5°F-14.7°C 86% Calm Calm -- 28.50 in965.1 mb - 0.00 in0.0 mm 0.00 in0.0 mm
07:38 AM 8.8°F-12.9°C 5.5°F-14.7°C 86% Calm Calm -- 28.50 in965.1 mb - 0.00 in0.0 mm 0.00 in0.0 mm
07:39 AM 8.8°F-12.9°C 5.5°F-14.7°C 86% Calm Calm -- 28.50 in965.1 mb - 0.00 in0.0 mm 0.00 in0.0 mm
07:40 AM 8.8°F-12.9°C 5.5°F-14.7°C 86% Calm Calm -- 28.50 in965.1 mb - 0.00 in0.0 mm 0.00 in0.0 mm
07:41 AM 8.8°F-12.9°C 5.5°F-14.7°C 86% Calm Calm -- 28.50 in965.1 mb - 0.00 in0.0 mm 0.00 in0.0 mm
07:42 AM 8.8°F-12.9°C 5.5°F-14.7°C 86% Calm Calm -- 28.50 in965.1 mb - 0.00 in0.0 mm 0.00 in0.0 mm
07:43 AM 8.8°F-12.9°C 5.5°F-14.7°C 86% Calm Calm -- 28.50 in965.1 mb - 0.00 in0.0 mm 0.00 in0.0 mm
07:44 AM 8.8°F-12.9°C 5.5°F-14.7°C 86% Calm Calm -- 28.50 in965.1 mb - 0.00 in0.0 mm 0.00 in0.0 mm
07:45 AM 8.8°F-12.9°C 5.5°F-14.7°C 86% Calm Calm -- 28.50 in965.1 mb - 0.00 in0.0 mm 0.00 in0.0 mm
07:46 AM 8.8°F-12.9°C 5.5°F-14.7°C 86% Calm Calm -- 28.50 in965.1 mb - 0.00 in0.0 mm 0.00 in0.0 mm
07:47 AM 8.6°F-13.0°C 5.3°F-14.8°C 86% Calm Calm -- 28.50 in965.1 mb - 0.00 in0.0 mm 0.00 in0.0 mm
07:48 AM 8.4°F-13.1°C 5.1°F-14.9°C 86% Calm Calm -- 28.50 in965.1 mb - 0.00 in0.0 mm 0.00 in0.0 mm
07:49 AM 8.4°F-13.1°C 5.1°F-14.9°C 86% Calm Calm -- 28.50 in965.1 mb - 0.00 in0.0 mm 0.00 in0.0 mm
07:50 AM 8.4°F-13.1°C 5.1°F-14.9°C 86% Calm Calm -- 28.50 in965.1 mb - 0.00 in0.0 mm 0.00 in0.0 mm
07:51 AM 8.4°F-13.1°C 5.1°F-14.9°C 86% Calm Calm -- 28.50 in965.1 mb - 0.00 in0.0 mm 0.00 in0.0 mm
07:52 AM 8.4°F-13.1°C 5.1°F-14.9°C 86% Calm Calm -- 28.50 in965.1 mb - 0.00 in0.0 mm 0.00 in0.0 mm
07:53 AM 8.4°F-13.1°C 5.3°F-14.8°C 87% Calm Calm -- 28.50 in965.1 mb - 0.00 in0.0 mm 0.00 in0.0 mm
07:54 AM 8.6°F-13.0°C 5.5°F-14.7°C 87% Calm Calm -- 28.50 in965.1 mb - 0.00 in0.0 mm 0.00 in0.0 mm
07:55 AM 8.6°F-13.0°C 5.5°F-14.7°C 87% Calm Calm -- 28.50 in965.1 mb - 0.00 in0.0 mm 0.00 in0.0 mm
07:56 AM 8.6°F-13.0°C 5.5°F-14.7°C 87% Calm Calm -- 28.50 in965.1 mb - 0.00 in0.0 mm 0.00 in0.0 mm
07:57 AM 8.6°F-13.0°C 5.5°F-14.7°C 87% Calm Calm -- 28.50 in965.1 mb - 0.00 in0.0 mm 0.00 in0.0 mm
07:58 AM 8.4°F-13.1°C 5.3°F-14.8°C 87% Calm Calm -- 28.50 in965.1 mb - 0.00 in0.0 mm 0.00 in0.0 mm
07:59 AM 8.1°F-13.3°C 5.0°F-15.0°C 87% Calm Calm -- 28.50 in965.1 mb - 0.00 in0.0 mm 0.00 in0.0 mm
08:00 AM 8.1°F-13.3°C 5.0°F-15.0°C 87% Calm Calm -- 28.50 in965.1 mb - 0.00 in0.0 mm 0.00 in0.0 mm
08:01 AM 8.2°F-13.2°C 5.4°F-14.8°C 88% Calm Calm -- 28.50 in965.1 mb - 0.00 in0.0 mm 0.00 in0.0 mm
08:02 AM 8.2°F-13.2°C 5.4°F-14.8°C 88% Calm Calm -- 28.50 in965.1 mb - 0.00 in0.0 mm 0.00 in0.0 mm
08:03 AM 8.2°F-13.2°C 5.4°F-14.8°C 88% Calm Calm -- 28.50 in965.1 mb - 0.00 in0.0 mm 0.00 in0.0 mm
08:04 AM 8.2°F-13.2°C 5.4°F-14.8°C 88% Calm Calm -- 28.50 in965.1 mb - 0.00 in0.0 mm 0.00 in0.0 mm
08:05 AM 8.1°F-13.3°C 5.3°F-14.8°C 88% Calm Calm -- 28.50 in965.1 mb - 0.00 in0.0 mm 0.00 in0.0 mm
08:06 AM 8.1°F-13.3°C 5.3°F-14.8°C 88% Calm Calm -- 28.50 in965.1 mb - 0.00 in0.0 mm 0.00 in0.0 mm
08:07 AM 8.1°F-13.3°C 5.3°F-14.8°C 88% Calm Calm -- 28.50 in965.1 mb - 0.00 in0.0 mm 0.00 in0.0 mm
08:08 AM 8.1°F-13.3°C 5.5°F-14.7°C 89% Calm Calm -- 28.50 in965.1 mb - 0.00 in0.0 mm 0.00 in0.0 mm
08:09 AM 8.1°F-13.3°C 5.5°F-14.7°C 89% Calm Calm -- 28.50 in965.1 mb - 0.00 in0.0 mm 0.00 in0.0 mm
08:10 AM 8.1°F-13.3°C 5.5°F-14.7°C 89% Calm Calm -- 28.50 in965.1 mb - 0.00 in0.0 mm 0.00 in0.0 mm
08:11 AM 8.2°F-13.2°C 5.9°F-14.5°C 90% Calm Calm -- 28.50 in965.1 mb - 0.00 in0.0 mm 0.00 in0.0 mm
08:12 AM 8.4°F-13.1°C 6.1°F-14.4°C 90% Calm Calm -- 28.50 in965.1 mb - 0.00 in0.0 mm 0.00 in0.0 mm
08:13 AM 8.4°F-13.1°C 6.1°F-14.4°C 90% Calm Calm -- 28.50 in965.1 mb - 0.00 in0.0 mm 0.00 in0.0 mm
08:14 AM 8.4°F-13.1°C 6.1°F-14.4°C 90% Calm Calm -- 28.51 in965.5 mb - 0.00 in0.0 mm 0.00 in0.0 mm
08:15 AM 8.4°F-13.1°C 6.1°F-14.4°C 90% Calm Calm -- 28.51 in965.5 mb - 0.00 in0.0 mm 0.00 in0.0 mm
08:16 AM 8.6°F-13.0°C 6.2°F-14.3°C 90% Calm Calm -- 28.51 in965.5 mb - 0.00 in0.0 mm 0.00 in0.0 mm
08:17 AM 8.6°F-13.0°C 6.3°F-14.3°C 90% Calm Calm -- 28.51 in965.5 mb - 0.00 in0.0 mm 0.00 in0.0 mm
08:18 AM 8.6°F-13.0°C 6.3°F-14.3°C 90% Calm Calm -- 28.51 in965.5 mb - 0.00 in0.0 mm 0.00 in0.0 mm
08:19 AM 8.6°F-13.0°C 6.3°F-14.3°C 90% Calm Calm -- 28.51 in965.5 mb - 0.00 in0.0 mm 0.00 in0.0 mm
08:20 AM 8.8°F-12.9°C 6.5°F-14.2°C 90% Calm Calm -- 28.51 in965.5 mb - 0.00 in0.0 mm 0.00 in0.0 mm
08:21 AM 8.8°F-12.9°C 6.5°F-14.2°C 90% Calm Calm -- 28.51 in965.5 mb - 0.00 in0.0 mm 0.00 in0.0 mm
08:22 AM 9.0°F-12.8°C 6.7°F-14.1°C 90% Calm Calm -- 28.51 in965.5 mb - 0.00 in0.0 mm 0.00 in0.0 mm
08:23 AM 9.8°F-12.3°C 7.4°F-13.7°C 90% Calm Calm -- 28.51 in965.5 mb - 0.00 in0.0 mm 0.00 in0.0 mm
08:24 AM 10.3°F-12.1°C 7.5°F-13.6°C 88% Calm Calm -- 28.51 in965.5 mb - 0.00 in0.0 mm 0.00 in0.0 mm
08:25 AM 10.6°F-11.9°C 7.7°F-13.5°C 88% Calm Calm -- 28.51 in965.5 mb - 0.00 in0.0 mm 0.00 in0.0 mm
08:26 AM 10.6°F-11.9°C 7.5°F-13.6°C 87% Calm Calm -- 28.51 in965.5 mb - 0.00 in0.0 mm 0.00 in0.0 mm
08:27 AM 10.5°F-11.9°C 7.4°F-13.7°C 87% Calm Calm -- 28.51 in965.5 mb - 0.00 in0.0 mm 0.00 in0.0 mm
08:28 AM 10.4°F-12.0°C 7.3°F-13.7°C 87% Calm Calm -- 28.51 in965.5 mb - 0.00 in0.0 mm 0.00 in0.0 mm
08:29 AM 10.4°F-12.0°C 7.3°F-13.7°C 87% Calm Calm -- 28.51 in965.5 mb - 0.00 in0.0 mm 0.00 in0.0 mm
08:30 AM 10.8°F-11.8°C 7.7°F-13.5°C 87% Calm Calm -- 28.51 in965.5 mb - 0.00 in0.0 mm 0.00 in0.0 mm
08:31 AM 11.5°F-11.4°C 8.1°F-13.3°C 86% Calm Calm -- 28.51 in965.5 mb - 0.00 in0.0 mm 0.00 in0.0 mm
08:32 AM 12.0°F-11.1°C 8.1°F-13.3°C 84% Calm Calm -- 28.51 in965.5 mb - 0.00 in0.0 mm 0.00 in0.0 mm
08:33 AM 12.6°F-10.8°C 8.1°F-13.3°C 82% Calm Calm -- 28.51 in965.5 mb - 0.00 in0.0 mm 0.00 in0.0 mm
08:34 AM 12.9°F-10.6°C 7.9°F-13.4°C 80% Calm Calm 1.2 mph1.9 kmh 28.51 in965.5 mb - 0.00 in0.0 mm 0.00 in0.0 mm
08:35 AM 13.2°F-10.4°C 7.6°F-13.6°C 78% 1.2 mph N1.9 kmh N 1.2 mph1.9 kmh 28.51 in965.5 mb - 0.00 in0.0 mm 0.00 in0.0 mm
08:36 AM 13.0°F-10.6°C 7.5°F-13.6°C 78% 1.2 mph WNW1.9 kmh WNW 1.2 mph1.9 kmh 28.51 in965.5 mb - 0.00 in0.0 mm 0.00 in0.0 mm
08:37 AM 12.9°F-10.6°C 7.6°F-13.6°C 79% Calm Calm -- 28.51 in965.5 mb - 0.00 in0.0 mm 0.00 in0.0 mm
08:38 AM 12.8°F-10.7°C 7.5°F-13.6°C 79% Calm Calm -- 28.51 in965.5 mb - 0.00 in0.0 mm 0.00 in0.0 mm
08:39 AM 12.8°F-10.7°C 7.5°F-13.6°C 79% Calm Calm 2.3 mph3.7 kmh 28.51 in965.5 mb - 0.00 in0.0 mm 0.00 in0.0 mm
08:40 AM 13.1°F-10.5°C 7.5°F-13.6°C 78% 2.3 mph NW3.7 kmh NW 2.3 mph3.7 kmh 28.51 in965.5 mb - 0.00 in0.0 mm 0.00 in0.0 mm
08:41 AM 13.3°F-10.4°C 7.7°F-13.5°C 78% 1.2 mph N1.9 kmh N 1.2 mph1.9 kmh 28.51 in965.5 mb - 0.00 in0.0 mm 0.00 in0.0 mm
08:42 AM 13.5°F-10.3°C 7.7°F-13.5°C 77% Calm Calm -- 28.51 in965.5 mb - 0.00 in0.0 mm 0.00 in0.0 mm
08:43 AM 13.7°F-10.2°C 7.8°F-13.4°C 77% Calm Calm -- 28.51 in965.5 mb - 0.00 in0.0 mm 0.00 in0.0 mm
08:44 AM 13.8°F-10.1°C 7.6°F-13.6°C 76% Calm Calm -- 28.51 in965.5 mb - 0.00 in0.0 mm 0.00 in0.0 mm
08:45 AM 13.9°F-10.1°C 7.7°F-13.5°C 76% Calm Calm -- 28.51 in965.5 mb - 0.00 in0.0 mm 0.00 in0.0 mm
08:46 AM 14.0°F-10.0°C 7.8°F-13.4°C 76% Calm Calm -- 28.51 in965.5 mb - 0.00 in0.0 mm 0.00 in0.0 mm
08:47 AM 13.9°F-10.1°C 7.7°F-13.5°C 76% Calm Calm -- 28.51 in965.5 mb - 0.00 in0.0 mm 0.00 in0.0 mm
08:48 AM 13.8°F-10.1°C 7.6°F-13.6°C 76% Calm Calm -- 28.51 in965.5 mb - 0.00 in0.0 mm 0.00 in0.0 mm
08:49 AM 13.6°F-10.2°C 7.7°F-13.5°C 77% Calm Calm -- 28.51 in965.5 mb - 0.00 in0.0 mm 0.00 in0.0 mm
08:50 AM 13.6°F-10.2°C 7.7°F-13.5°C 77% Calm Calm -- 28.51 in965.5 mb - 0.00 in0.0 mm 0.00 in0.0 mm
08:51 AM 13.6°F-10.2°C 7.7°F-13.5°C 77% Calm Calm -- 28.51 in965.5 mb - 0.00 in0.0 mm 0.00 in0.0 mm
08:52 AM 13.7°F-10.2°C 7.8°F-13.4°C 77% Calm Calm -- 28.51 in965.5 mb - 0.00 in0.0 mm 0.00 in0.0 mm
08:53 AM 13.8°F-10.1°C 8.0°F-13.3°C 77% Calm Calm -- 28.51 in965.5 mb - 0.00 in0.0 mm 0.00 in0.0 mm
08:54 AM 14.3°F-9.8°C 8.1°F-13.3°C 76% Calm Calm -- 28.51 in965.5 mb - 0.00 in0.0 mm 0.00 in0.0 mm
08:55 AM 15.0°F-9.4°C 8.5°F-13.1°C 75% Calm Calm -- 28.51 in965.5 mb - 0.00 in0.0 mm 0.00 in0.0 mm
08:56 AM 15.1°F-9.4°C 8.3°F-13.2°C 74% Calm Calm -- 28.51 in965.5 mb - 0.00 in0.0 mm 0.00 in0.0 mm
08:57 AM 15.2°F-9.3°C 8.4°F-13.1°C 74% Calm Calm -- 28.51 in965.5 mb - 0.00 in0.0 mm 0.00 in0.0 mm
08:58 AM 15.4°F-9.2°C 8.6°F-13.0°C 74% Calm Calm 2.3 mph3.7 kmh 28.51 in965.5 mb - 0.00 in0.0 mm 0.00 in0.0 mm
08:59 AM 15.7°F-9.1°C 8.3°F-13.2°C 72% 1.2 mph NNE1.9 kmh NNE 2.3 mph3.7 kmh 28.51 in965.5 mb - 0.00 in0.0 mm 0.00 in0.0 mm
09:00 AM 15.8°F-9.0°C 8.1°F-13.3°C 71% 2.3 mph NNE3.7 kmh NNE 2.3 mph3.7 kmh 28.51 in965.5 mb - 0.00 in0.0 mm 0.00 in0.0 mm
09:01 AM 16.0°F-8.9°C 7.9°F-13.4°C 70% 2.3 mph N3.7 kmh N 2.3 mph3.7 kmh 28.51 in965.5 mb - 0.00 in0.0 mm 0.00 in0.0 mm
09:02 AM 16.0°F-8.9°C 7.9°F-13.4°C 70% 2.3 mph N3.7 kmh N 2.3 mph3.7 kmh 28.51 in965.5 mb - 0.00 in0.0 mm 0.00 in0.0 mm
09:03 AM 16.0°F-8.9°C 8.2°F-13.2°C 71% 1.2 mph N1.9 kmh N 1.2 mph1.9 kmh 28.51 in965.5 mb - 0.00 in0.0 mm 0.00 in0.0 mm
09:04 AM 15.7°F-9.1°C 8.3°F-13.2°C 72% 1.2 mph W1.9 kmh W 1.2 mph1.9 kmh 28.51 in965.5 mb - 0.00 in0.0 mm 0.00 in0.0 mm
09:05 AM 15.4°F-9.2°C 8.0°F-13.3°C 72% 1.2 mph NW1.9 kmh NW 1.2 mph1.9 kmh 28.51 in965.5 mb - 0.00 in0.0 mm 0.00 in0.0 mm
09:06 AM 15.4°F-9.2°C 8.0°F-13.3°C 72% 1.2 mph WNW1.9 kmh WNW 2.3 mph3.7 kmh 28.51 in965.5 mb - 0.00 in0.0 mm 0.00 in0.0 mm
09:07 AM 15.5°F-9.2°C 8.1°F-13.3°C 72% 2.3 mph NNW3.7 kmh NNW 2.3 mph3.7 kmh 28.51 in965.5 mb - 0.00 in0.0 mm 0.00 in0.0 mm
09:08 AM 15.9°F-8.9°C 8.4°F-13.1°C 72% 1.2 mph NNE1.9 kmh NNE 1.2 mph1.9 kmh 28.51 in965.5 mb - 0.00 in0.0 mm 0.00 in0.0 mm
09:09 AM 16.1°F-8.8°C 8.6°F-13.0°C 72% Calm Calm 2.3 mph3.7 kmh 28.51 in965.5 mb - 0.00 in0.0 mm 0.00 in0.0 mm
09:10 AM 15.7°F-9.1°C 8.3°F-13.2°C 72% 1.2 mph W1.9 kmh W 2.3 mph3.7 kmh 28.51 in965.5 mb - 0.00 in0.0 mm 0.00 in0.0 mm
09:11 AM 15.5°F-9.2°C 8.1°F-13.3°C 72% 1.2 mph NW1.9 kmh NW 1.2 mph1.9 kmh 28.51 in965.5 mb - 0.00 in0.0 mm 0.00 in0.0 mm
09:12 AM 16.0°F-8.9°C 8.3°F-13.2°C 71% Calm Calm 1.2 mph1.9 kmh 28.51 in965.5 mb - 0.00 in0.0 mm 0.00 in0.0 mm
09:13 AM 16.0°F-8.9°C 8.3°F-13.2°C 71% 1.2 mph WNW1.9 kmh WNW 2.3 mph3.7 kmh 28.51 in965.5 mb - 0.00 in0.0 mm 0.00 in0.0 mm
09:14 AM 15.6°F-9.1°C 7.9°F-13.4°C 71% 1.2 mph WNW1.9 kmh WNW 2.3 mph3.7 kmh 28.52 in965.8 mb - 0.00 in0.0 mm 0.00 in0.0 mm
09:15 AM 15.7°F-9.1°C 8.0°F-13.3°C 71% 2.3 mph W3.7 kmh W 3.5 mph5.6 kmh 28.52 in965.8 mb - 0.00 in0.0 mm 0.00 in0.0 mm
09:16 AM 15.8°F-9.0°C 8.1°F-13.3°C 71% 2.3 mph W3.7 kmh W 2.3 mph3.7 kmh 28.52 in965.8 mb - 0.00 in0.0 mm 0.00 in0.0 mm
09:17 AM 15.6°F-9.1°C 7.9°F-13.4°C 71% 2.3 mph W3.7 kmh W 2.3 mph3.7 kmh 28.52 in965.8 mb - 0.00 in0.0 mm 0.00 in0.0 mm
09:18 AM 15.8°F-9.0°C 8.1°F-13.3°C 71% 2.3 mph WNW3.7 kmh WNW 3.5 mph5.6 kmh 28.52 in965.8 mb - 0.00 in0.0 mm 0.00 in0.0 mm
09:19 AM 16.0°F-8.9°C 8.3°F-13.2°C 71% 1.2 mph NW1.9 kmh NW 1.2 mph1.9 kmh 28.52 in965.8 mb - 0.00 in0.0 mm 0.00 in0.0 mm
09:20 AM 16.4°F-8.7°C 8.3°F-13.2°C 70% 2.3 mph NNE3.7 kmh NNE 3.5 mph5.6 kmh 28.52 in965.8 mb - 0.00 in0.0 mm 0.00 in0.0 mm
09:21 AM 16.5°F-8.6°C 8.1°F-13.3°C 69% 2.3 mph NNE3.7 kmh NNE 3.5 mph5.6 kmh 28.52 in965.8 mb - 0.00 in0.0 mm 0.00 in0.0 mm
09:22 AM 16.7°F-8.5°C 8.2°F-13.2°C 69% 2.3 mph NE3.7 kmh NE 2.3 mph3.7 kmh 28.52 in965.8 mb - 0.00 in0.0 mm 0.00 in0.0 mm
09:23 AM 16.7°F-8.5°C 8.6°F-13.0°C 70% 1.2 mph E1.9 kmh E 1.2 mph1.9 kmh 28.52 in965.8 mb - 0.00 in0.0 mm 0.00 in0.0 mm
09:24 AM 16.7°F-8.5°C 8.6°F-13.0°C 70% Calm Calm 3.5 mph5.6 kmh 28.52 in965.8 mb - 0.00 in0.0 mm 0.00 in0.0 mm
09:25 AM 16.7°F-8.5°C 8.6°F-13.0°C 70% 2.3 mph W3.7 kmh W 3.5 mph5.6 kmh 28.52 in965.8 mb - 0.00 in0.0 mm 0.00 in0.0 mm
09:26 AM 16.7°F-8.5°C 8.6°F-13.0°C 70% 2.3 mph WNW3.7 kmh WNW 2.3 mph3.7 kmh 28.52 in965.8 mb - 0.00 in0.0 mm 0.00 in0.0 mm
09:27 AM 16.7°F-8.5°C 8.6°F-13.0°C 70% 1.2 mph WNW1.9 kmh WNW 3.5 mph5.6 kmh 28.52 in965.8 mb - 0.00 in0.0 mm 0.00 in0.0 mm
09:28 AM 16.5°F-8.6°C 8.4°F-13.1°C 70% 2.3 mph WNW3.7 kmh WNW 3.5 mph5.6 kmh 28.52 in965.8 mb - 0.00 in0.0 mm 0.00 in0.0 mm
09:29 AM 16.5°F-8.6°C 8.4°F-13.1°C 70% 2.3 mph W3.7 kmh W 2.3 mph3.7 kmh 28.52 in965.8 mb - 0.00 in0.0 mm 0.00 in0.0 mm
09:30 AM 16.5°F-8.6°C 8.5°F-13.1°C 70% 1.2 mph WNW1.9 kmh WNW 2.3 mph3.7 kmh 28.52 in965.8 mb - 0.00 in0.0 mm 0.00 in0.0 mm
09:31 AM 17.0°F-8.3°C 8.9°F-12.8°C 70% 2.3 mph N3.7 kmh N 2.3 mph3.7 kmh 28.52 in965.8 mb - 0.00 in0.0 mm 0.00 in0.0 mm
09:32 AM 17.4°F-8.1°C 8.9°F-12.8°C 69% 1.2 mph NE1.9 kmh NE 1.2 mph1.9 kmh 28.52 in965.8 mb - 0.00 in0.0 mm 0.00 in0.0 mm
09:33 AM 17.4°F-8.1°C 9.0°F-12.8°C 69% 1.2 mph WNW1.9 kmh WNW 3.5 mph5.6 kmh 28.52 in965.8 mb - 0.00 in0.0 mm 0.00 in0.0 mm
09:34 AM 17.3°F-8.2°C 8.9°F-12.8°C 69% 3.5 mph W5.6 kmh W 4.6 mph7.4 kmh 28.52 in965.8 mb - 0.00 in0.0 mm 0.00 in0.0 mm
09:35 AM 17.1°F-8.3°C 9.0°F-12.8°C 70% 4.6 mph WSW7.4 kmh WSW 3.5 mph5.6 kmh 28.52 in965.8 mb - 0.00 in0.0 mm 0.00 in0.0 mm
09:36 AM 16.9°F-8.4°C 8.8°F-12.9°C 70% 3.5 mph SW5.6 kmh SW 3.5 mph5.6 kmh 28.52 in965.8 mb - 0.00 in0.0 mm 0.00 in0.0 mm
09:37 AM 16.7°F-8.5°C 8.6°F-13.0°C 70% 3.5 mph WSW5.6 kmh WSW 4.6 mph7.4 kmh 28.52 in965.8 mb - 0.00 in0.0 mm 0.00 in0.0 mm
09:38 AM 16.7°F-8.5°C 8.7°F-12.9°C 70% 3.5 mph WSW5.6 kmh WSW 4.6 mph7.4 kmh 28.52 in965.8 mb - 0.00 in0.0 mm 0.00 in0.0 mm
09:39 AM 17.0°F-8.3°C 9.5°F-12.5°C 72% 3.5 mph W5.6 kmh W 3.5 mph5.6 kmh 28.52 in965.8 mb - 0.00 in0.0 mm 0.00 in0.0 mm
09:40 AM 17.2°F-8.2°C 9.7°F-12.4°C 72% 3.5 mph WSW5.6 kmh WSW 3.5 mph5.6 kmh 28.52 in965.8 mb - 0.00 in0.0 mm 0.00 in0.0 mm
09:41 AM 17.1°F-8.3°C 9.4°F-12.6°C 71% 2.3 mph SW3.7 kmh SW 3.5 mph5.6 kmh 28.52 in965.8 mb - 0.00 in0.0 mm 0.00 in0.0 mm
09:42 AM 17.1°F-8.3°C 9.3°F-12.6°C 71% 3.5 mph W5.6 kmh W 3.5 mph5.6 kmh 28.52 in965.8 mb - 0.00 in0.0 mm 0.00 in0.0 mm
09:43 AM 17.2°F-8.2°C 9.4°F-12.6°C 71% 3.5 mph W5.6 kmh W 3.5 mph5.6 kmh 28.52 in965.8 mb - 0.00 in0.0 mm 0.00 in0.0 mm
09:44 AM 17.3°F-8.2°C 9.5°F-12.5°C 71% 2.3 mph WNW3.7 kmh WNW 3.5 mph5.6 kmh 28.52 in965.8 mb - 0.00 in0.0 mm 0.00 in0.0 mm
09:45 AM 17.8°F-7.9°C 10.0°F-12.2°C 71% 2.3 mph WSW3.7 kmh WSW 3.5 mph5.6 kmh 28.52 in965.8 mb - 0.00 in0.0 mm 0.00 in0.0 mm
09:46 AM 17.9°F-7.8°C 10.0°F-12.2°C 71% 2.3 mph WSW3.7 kmh WSW 3.5 mph5.6 kmh 28.52 in965.8 mb - 0.00 in0.0 mm 0.00 in0.0 mm
09:47 AM 18.1°F-7.7°C 10.6°F-11.9°C 72% 3.5 mph W5.6 kmh W 3.5 mph5.6 kmh 28.52 in965.8 mb - 0.00 in0.0 mm 0.00 in0.0 mm
09:48 AM 18.1°F-7.7°C 10.3°F-12.1°C 71% 3.5 mph WSW5.6 kmh WSW 4.6 mph7.4 kmh 28.52 in965.8 mb - 0.00 in0.0 mm 0.00 in0.0 mm
09:49 AM 18.2°F-7.7°C 10.1°F-12.2°C 70% 3.5 mph W5.6 kmh W 4.6 mph7.4 kmh 28.53 in966.1 mb - 0.00 in0.0 mm 0.00 in0.0 mm
09:50 AM 18.4°F-7.6°C 9.9°F-12.3°C 69% 3.5 mph WSW5.6 kmh WSW 3.5 mph5.6 kmh 28.53 in966.1 mb - 0.00 in0.0 mm 0.00 in0.0 mm
09:51 AM 18.5°F-7.5°C 10.1°F-12.2°C 69% 2.3 mph WNW3.7 kmh WNW 3.5 mph5.6 kmh 28.53 in966.1 mb - 0.00 in0.0 mm 0.00 in0.0 mm
09:52 AM 18.9°F-7.3°C 10.1°F-12.2°C 68% 3.5 mph W5.6 kmh W 3.5 mph5.6 kmh 28.53 in966.1 mb - 0.00 in0.0 mm 0.00 in0.0 mm
09:53 AM 19.5°F-6.9°C 10.6°F-11.9°C 68% 2.3 mph WNW3.7 kmh WNW 3.5 mph5.6 kmh 28.53 in966.1 mb - 0.00 in0.0 mm 0.00 in0.0 mm
09:54 AM 19.8°F-6.8°C 10.2°F-12.1°C 66% 3.5 mph W5.6 kmh W 4.6 mph7.4 kmh 28.53 in966.1 mb - 0.00 in0.0 mm 0.00 in0.0 mm
09:55 AM 20.0°F-6.7°C 9.4°F-12.6°C 63% 4.6 mph WNW7.4 kmh WNW 5.8 mph9.3 kmh 28.53 in966.1 mb - 0.00 in0.0 mm 0.00 in0.0 mm
09:56 AM 20.1°F-6.6°C 8.4°F-13.1°C 60% 4.6 mph NW7.4 kmh NW 4.6 mph7.4 kmh 28.53 in966.1 mb - 0.00 in0.0 mm 0.00 in0.0 mm
09:57 AM 20.2°F-6.6°C 8.2°F-13.2°C 59% 3.5 mph W5.6 kmh W 5.8 mph9.3 kmh 28.53 in966.1 mb - 0.00 in0.0 mm 0.00 in0.0 mm
09:58 AM 20.6°F-6.3°C 8.5°F-13.1°C 59% 4.6 mph NW7.4 kmh NW 5.8 mph9.3 kmh 28.53 in966.1 mb - 0.00 in0.0 mm 0.00 in0.0 mm
09:59 AM 20.7°F-6.3°C 7.9°F-13.4°C 57% 4.6 mph WNW7.4 kmh WNW 5.8 mph9.3 kmh 28.53 in966.1 mb - 0.00 in0.0 mm 0.00 in0.0 mm
10:00 AM 20.7°F-6.3°C 7.1°F-13.8°C 55% 4.6 mph W7.4 kmh W 8.1 mph13.0 kmh 28.53 in966.1 mb - 0.00 in0.0 mm 0.00 in0.0 mm
10:01 AM 20.8°F-6.2°C 6.7°F-14.1°C 54% 6.9 mph W11.1 kmh W 8.1 mph13.0 kmh 28.53 in966.1 mb - 0.00 in0.0 mm 0.00 in0.0 mm
10:02 AM 20.8°F-6.2°C 6.3°F-14.3°C 53% 5.8 mph WNW9.3 kmh WNW 5.8 mph9.3 kmh 28.53 in966.1 mb - 0.00 in0.0 mm 0.00 in0.0 mm
10:03 AM 20.8°F-6.2°C 5.9°F-14.5°C 52% 4.6 mph N7.4 kmh N 10.4 mph16.7 kmh 28.53 in966.1 mb - 0.00 in0.0 mm 0.00 in0.0 mm
10:04 AM 21.0°F-6.1°C 5.2°F-14.9°C 50% 8.1 mph NW13.0 kmh NW 10.4 mph16.7 kmh 28.53 in966.1 mb - 0.00 in0.0 mm 0.00 in0.0 mm
10:05 AM 21.0°F-6.1°C 3.9°F-15.6°C 47% 6.9 mph N11.1 kmh N 6.9 mph11.1 kmh 28.53 in966.1 mb - 0.00 in0.0 mm 0.00 in0.0 mm
10:06 AM 21.0°F-6.1°C 3.4°F-15.9°C 46% 5.8 mph N9.3 kmh N 6.9 mph11.1 kmh 28.53 in966.1 mb - 0.00 in0.0 mm 0.00 in0.0 mm
10:07 AM 21.2°F-6.0°C 3.1°F-16.1°C 45% 4.6 mph NW7.4 kmh NW 5.8 mph9.3 kmh 28.53 in966.1 mb - 0.00 in0.0 mm 0.00 in0.0 mm
10:08 AM 21.2°F-6.0°C 3.1°F-16.1°C 45% 4.6 mph NE7.4 kmh NE 5.8 mph9.3 kmh 28.53 in966.1 mb - 0.00 in0.0 mm 0.00 in0.0 mm
10:09 AM 21.2°F-6.0°C 3.1°F-16.1°C 45% 5.8 mph ESE9.3 kmh ESE 5.8 mph9.3 kmh 28.53 in966.1 mb - 0.00 in0.0 mm 0.00 in0.0 mm
10:10 AM 21.2°F-6.0°C 3.1°F-16.1°C 45% 5.8 mph NNW9.3 kmh NNW 6.9 mph11.1 kmh 28.53 in966.1 mb - 0.00 in0.0 mm 0.00 in0.0 mm
10:11 AM 21.5°F-5.8°C 3.4°F-15.9°C 45% 4.6 mph NW7.4 kmh NW 5.8 mph9.3 kmh 28.53 in966.1 mb - 0.00 in0.0 mm 0.00 in0.0 mm
10:12 AM 21.7°F-5.7°C 3.6°F-15.8°C 45% 4.6 mph NW7.4 kmh NW 6.9 mph11.1 kmh 28.53 in966.1 mb - 0.00 in0.0 mm 0.00 in0.0 mm
10:13 AM 21.9°F-5.6°C 2.8°F-16.2°C 43% 5.8 mph NNE9.3 kmh NNE 6.9 mph11.1 kmh 28.53 in966.1 mb - 0.00 in0.0 mm 0.00 in0.0 mm
10:14 AM 21.7°F-5.7°C 1.6°F-16.9°C 41% 5.8 mph NE9.3 kmh NE 6.9 mph11.1 kmh 28.54 in966.5 mb - 0.00 in0.0 mm 0.00 in0.0 mm
10:15 AM 21.7°F-5.7°C 1.6°F-16.9°C 41% 4.6 mph NNW7.4 kmh NNW 5.8 mph9.3 kmh 28.54 in966.5 mb - 0.00 in0.0 mm 0.00 in0.0 mm
10:16 AM 21.7°F-5.7°C 1.6°F-16.9°C 41% 4.6 mph N7.4 kmh N 6.9 mph11.1 kmh 28.54 in966.5 mb - 0.00 in0.0 mm 0.00 in0.0 mm
10:17 AM 21.7°F-5.7°C 1.6°F-16.9°C 41% 5.8 mph N9.3 kmh N 6.9 mph11.1 kmh 28.54 in966.5 mb - 0.00 in0.0 mm 0.00 in0.0 mm
10:18 AM 21.8°F-5.7°C 1.7°F-16.8°C 41% 5.8 mph E9.3 kmh E 6.9 mph11.1 kmh 28.54 in966.5 mb - 0.00 in0.0 mm 0.00 in0.0 mm
10:19 AM 21.9°F-5.6°C 1.8°F-16.8°C 41% 5.8 mph NNE9.3 kmh NNE 6.9 mph11.1 kmh 28.54 in966.5 mb - 0.00 in0.0 mm 0.00 in0.0 mm
10:20 AM 22.1°F-5.5°C 1.4°F-17.0°C 40% 4.6 mph N7.4 kmh N 5.8 mph9.3 kmh 28.54 in966.5 mb - 0.00 in0.0 mm 0.00 in0.0 mm
10:21 AM 22.5°F-5.3°C 2.3°F-16.5°C 41% 4.6 mph N7.4 kmh N 5.8 mph9.3 kmh 28.54 in966.5 mb - 0.00 in0.0 mm 0.00 in0.0 mm
10:22 AM 22.6°F-5.2°C 2.4°F-16.4°C 41% 5.8 mph NW9.3 kmh NW 8.1 mph13.0 kmh 28.54 in966.5 mb - 0.00 in0.0 mm 0.00 in0.0 mm
10:23 AM 22.6°F-5.2°C 2.4°F-16.4°C 41% 5.8 mph N9.3 kmh N 8.1 mph13.0 kmh 28.54 in966.5 mb - 0.00 in0.0 mm 0.00 in0.0 mm
10:24 AM 22.6°F-5.2°C 2.4°F-16.4°C 41% 3.5 mph N5.6 kmh N 6.9 mph11.1 kmh 28.54 in966.5 mb - 0.00 in0.0 mm 0.00 in0.0 mm
10:25 AM 22.6°F-5.2°C 1.9°F-16.7°C 40% 4.6 mph NE7.4 kmh NE 6.9 mph11.1 kmh 28.54 in966.5 mb - 0.00 in0.0 mm 0.00 in0.0 mm
10:26 AM 22.8°F-5.1°C 2.0°F-16.7°C 40% 4.6 mph N7.4 kmh N 5.8 mph9.3 kmh 28.54 in966.5 mb - 0.00 in0.0 mm 0.00 in0.0 mm
10:27 AM 22.9°F-5.1°C 2.1°F-16.6°C 40% 5.8 mph N9.3 kmh N 5.8 mph9.3 kmh 28.54 in966.5 mb - 0.00 in0.0 mm 0.00 in0.0 mm
10:28 AM 23.2°F-4.9°C 2.4°F-16.4°C 40% 4.6 mph NW7.4 kmh NW 5.8 mph9.3 kmh 28.54 in966.5 mb - 0.00 in0.0 mm 0.00 in0.0 mm
10:29 AM 23.4°F-4.8°C 2.6°F-16.3°C 40% 5.8 mph NNE9.3 kmh NNE 6.9 mph11.1 kmh 28.54 in966.5 mb - 0.00 in0.0 mm 0.00 in0.0 mm
10:30 AM 23.2°F-4.9°C 1.9°F-16.7°C 39% 5.8 mph NNE9.3 kmh NNE 6.9 mph11.1 kmh 28.54 in966.5 mb - 0.00 in0.0 mm 0.00 in0.0 mm
10:31 AM 23.2°F-4.9°C 1.9°F-16.7°C 39% 5.8 mph N9.3 kmh N 6.9 mph11.1 kmh 28.54 in966.5 mb - 0.00 in0.0 mm 0.00 in0.0 mm
10:32 AM 23.2°F-4.9°C 2.4°F-16.4°C 40% 3.5 mph NW5.6 kmh NW 5.8 mph9.3 kmh 28.54 in966.5 mb - 0.00 in0.0 mm 0.00 in0.0 mm
10:33 AM 23.2°F-4.9°C 1.9°F-16.7°C 39% 4.6 mph NE7.4 kmh NE 5.8 mph9.3 kmh 28.54 in966.5 mb - 0.00 in0.0 mm 0.00 in0.0 mm
10:34 AM 23.2°F-4.9°C 1.9°F-16.7°C 39% 4.6 mph N7.4 kmh N 4.6 mph7.4 kmh 28.54 in966.5 mb - 0.00 in0.0 mm 0.00 in0.0 mm
10:35 AM 23.4°F-4.8°C 2.1°F-16.6°C 39% 4.6 mph N7.4 kmh N 8.1 mph13.0 kmh 28.54 in966.5 mb - 0.00 in0.0 mm 0.00 in0.0 mm
10:36 AM 23.5°F-4.7°C 2.1°F-16.6°C 39% 6.9 mph N11.1 kmh N 6.9 mph11.1 kmh 28.54 in966.5 mb - 0.00 in0.0 mm 0.00 in0.0 mm
10:37 AM 23.5°F-4.7°C 1.6°F-16.9°C 38% 6.9 mph NE11.1 kmh NE 9.2 mph14.8 kmh 28.54 in966.5 mb - 0.00 in0.0 mm 0.00 in0.0 mm
10:38 AM 23.5°F-4.7°C 1.0°F-17.2°C 37% 6.9 mph E11.1 kmh E 9.2 mph14.8 kmh 28.54 in966.5 mb - 0.00 in0.0 mm 0.00 in0.0 mm
10:39 AM 23.5°F-4.7°C 1.0°F-17.2°C 37% 5.8 mph NNW9.3 kmh NNW 8.1 mph13.0 kmh 28.54 in966.5 mb - 0.00 in0.0 mm 0.00 in0.0 mm
10:40 AM 23.5°F-4.7°C 1.0°F-17.2°C 37% 6.9 mph N11.1 kmh N 8.1 mph13.0 kmh 28.54 in966.5 mb - 0.00 in0.0 mm 0.00 in0.0 mm
10:41 AM 23.5°F-4.7°C 0.4°F-17.6°C 36% 5.8 mph NW9.3 kmh NW 6.9 mph11.1 kmh 28.54 in966.5 mb - 0.00 in0.0 mm 0.00 in0.0 mm
10:42 AM 23.5°F-4.7°C 0.4°F-17.6°C 36% 5.8 mph NNE9.3 kmh NNE 10.4 mph16.7 kmh 28.54 in966.5 mb - 0.00 in0.0 mm 0.00 in0.0 mm
10:43 AM 23.5°F-4.7°C -0.2°F-17.9°C 35% 6.9 mph NNE11.1 kmh NNE 9.2 mph14.8 kmh 28.54 in966.5 mb - 0.00 in0.0 mm 0.00 in0.0 mm
10:44 AM 23.5°F-4.7°C -0.2°F-17.9°C 35% 8.1 mph N13.0 kmh N 10.4 mph16.7 kmh 28.54 in966.5 mb - 0.00 in0.0 mm 0.00 in0.0 mm
10:45 AM 23.5°F-4.7°C -0.2°F-17.9°C 35% 8.1 mph NNW13.0 kmh NNW 10.4 mph16.7 kmh 28.54 in966.5 mb - 0.00 in0.0 mm 0.00 in0.0 mm
10:46 AM 23.5°F-4.7°C -0.2°F-17.9°C 35% 9.2 mph NW14.8 kmh NW 10.4 mph16.7 kmh 28.54 in966.5 mb - 0.00 in0.0 mm 0.00 in0.0 mm
10:47 AM 23.4°F-4.8°C -0.3°F-17.9°C 35% 8.1 mph N13.0 kmh N 9.2 mph14.8 kmh 28.54 in966.5 mb - 0.00 in0.0 mm 0.00 in0.0 mm
10:48 AM 23.4°F-4.8°C -0.9°F-18.3°C 34% 6.9 mph N11.1 kmh N 5.8 mph9.3 kmh 28.54 in966.5 mb - 0.00 in0.0 mm 0.00 in0.0 mm
10:49 AM 23.5°F-4.7°C -0.8°F-18.2°C 34% 5.8 mph N9.3 kmh N 6.9 mph11.1 kmh 28.54 in966.5 mb - 0.00 in0.0 mm 0.00 in0.0 mm
10:50 AM 23.8°F-4.6°C -0.5°F-18.1°C 34% 4.6 mph NE7.4 kmh NE 6.9 mph11.1 kmh 28.55 in966.8 mb - 0.00 in0.0 mm 0.00 in0.0 mm
10:51 AM 24.2°F-4.3°C -0.2°F-17.9°C 34% 4.6 mph NNE7.4 kmh NNE 5.8 mph9.3 kmh 28.55 in966.8 mb - 0.00 in0.0 mm 0.00 in0.0 mm
10:52 AM 24.4°F-4.2°C 0.0°F-17.8°C 34% 4.6 mph NW7.4 kmh NW 3.5 mph5.6 kmh 28.55 in966.8 mb - 0.00 in0.0 mm 0.00 in0.0 mm
10:53 AM 24.7°F-4.1°C 0.3°F-17.6°C 34% 3.5 mph NNE5.6 kmh NNE 5.8 mph9.3 kmh 28.55 in966.8 mb - 0.00 in0.0 mm 0.00 in0.0 mm
10:54 AM 24.9°F-3.9°C 0.5°F-17.5°C 34% 4.6 mph NW7.4 kmh NW 8.1 mph13.0 kmh 28.55 in966.8 mb - 0.00 in0.0 mm 0.00 in0.0 mm
10:55 AM 24.7°F-4.1°C -0.4°F-18.0°C 33% 6.9 mph NE11.1 kmh NE 10.4 mph16.7 kmh 28.55 in966.8 mb - 0.00 in0.0 mm 0.00 in0.0 mm
10:56 AM 24.4°F-4.2°C -0.7°F-18.2°C 33% 6.9 mph NNE11.1 kmh NNE 5.8 mph9.3 kmh 28.55 in966.8 mb - 0.00 in0.0 mm 0.00 in0.0 mm
10:57 AM 24.3°F-4.3°C -0.7°F-18.2°C 33% 5.8 mph NNE9.3 kmh NNE 6.9 mph11.1 kmh 28.55 in966.8 mb - 0.00 in0.0 mm 0.00 in0.0 mm
10:58 AM 24.3°F-4.3°C -0.1°F-17.8°C 34% 5.8 mph N9.3 kmh N 8.1 mph13.0 kmh 28.55 in966.8 mb - 0.00 in0.0 mm 0.00 in0.0 mm
10:59 AM 24.3°F-4.3°C -0.1°F-17.8°C 34% 5.8 mph NNW9.3 kmh NNW 8.1 mph13.0 kmh 28.55 in966.8 mb - 0.00 in0.0 mm 0.00 in0.0 mm
11:00 AM 24.3°F-4.3°C -0.7°F-18.2°C 33% 6.9 mph NNE11.1 kmh NNE 6.9 mph11.1 kmh 28.55 in966.8 mb - 0.00 in0.0 mm 0.00 in0.0 mm
11:01 AM 24.5°F-4.2°C -1.2°F-18.4°C 32% 6.9 mph NNE11.1 kmh NNE 6.9 mph11.1 kmh 28.55 in966.8 mb - 0.00 in0.0 mm 0.00 in0.0 mm
11:02 AM 24.6°F-4.1°C -1.1°F-18.4°C 32% 5.8 mph N9.3 kmh N 8.1 mph13.0 kmh 28.55 in966.8 mb - 0.00 in0.0 mm 0.00 in0.0 mm
11:03 AM 24.7°F-4.1°C -1.1°F-18.4°C 32% 5.8 mph E9.3 kmh E 10.4 mph16.7 kmh 28.55 in966.8 mb - 0.00 in0.0 mm 0.00 in0.0 mm
11:04 AM 24.6°F-4.1°C -1.8°F-18.8°C 31% 8.1 mph N13.0 kmh N 10.4 mph16.7 kmh 28.55 in966.8 mb - 0.00 in0.0 mm 0.00 in0.0 mm
11:05 AM 24.4°F-4.2°C -2.0°F-18.9°C 31% 5.8 mph NNE9.3 kmh NNE 5.8 mph9.3 kmh 28.55 in966.8 mb - 0.00 in0.0 mm 0.00 in0.0 mm
11:06 AM 24.6°F-4.1°C -1.1°F-18.4°C 32% 5.8 mph NNE9.3 kmh NNE 8.1 mph13.0 kmh 28.55 in966.8 mb - 0.00 in0.0 mm 0.00 in0.0 mm
11:07 AM 24.7°F-4.1°C -1.1°F-18.4°C 32% 6.9 mph WSW11.1 kmh WSW 8.1 mph13.0 kmh 28.55 in966.8 mb - 0.00 in0.0 mm 0.00 in0.0 mm
11:08 AM 24.7°F-4.1°C -1.0°F-18.3°C 32% 5.8 mph N9.3 kmh N 8.1 mph13.0 kmh 28.55 in966.8 mb - 0.00 in0.0 mm 0.00 in0.0 mm
11:09 AM 25.1°F-3.8°C -0.6°F-18.1°C 32% 6.9 mph NNE11.1 kmh NNE 8.1 mph13.0 kmh 28.55 in966.8 mb - 0.00 in0.0 mm 0.00 in0.0 mm
11:10 AM 25.0°F-3.9°C -1.4°F-18.6°C 31% 5.8 mph NNE9.3 kmh NNE 6.9 mph11.1 kmh 28.55 in966.8 mb - 0.00 in0.0 mm 0.00 in0.0 mm
11:11 AM 25.1°F-3.8°C -2.1°F-18.9°C 30% 5.8 mph NE9.3 kmh NE 10.4 mph16.7 kmh 28.55 in966.8 mb - 0.00 in0.0 mm 0.00 in0.0 mm
11:12 AM 25.3°F-3.7°C -1.9°F-18.8°C 30% 8.1 mph NE13.0 kmh NE 10.4 mph16.7 kmh 28.55 in966.8 mb - 0.00 in0.0 mm 0.00 in0.0 mm
11:13 AM 25.2°F-3.8°C -2.0°F-18.9°C 30% 6.9 mph NE11.1 kmh NE 9.2 mph14.8 kmh 28.55 in966.8 mb - 0.00 in0.0 mm 0.00 in0.0 mm
11:14 AM 25.2°F-3.8°C -2.0°F-18.9°C 30% 8.1 mph N13.0 kmh N 11.5 mph18.5 kmh 28.54 in966.5 mb - 0.00 in0.0 mm 0.00 in0.0 mm
11:15 AM 25.2°F-3.8°C -2.0°F-18.9°C 30% 9.2 mph NW14.8 kmh NW 11.5 mph18.5 kmh 28.54 in966.5 mb - 0.00 in0.0 mm 0.00 in0.0 mm
11:16 AM 24.7°F-4.1°C -1.7°F-18.7°C 31% 5.8 mph NNW9.3 kmh NNW 8.1 mph13.0 kmh 28.54 in966.5 mb - 0.00 in0.0 mm 0.00 in0.0 mm
11:17 AM 24.6°F-4.1°C -1.1°F-18.4°C 32% 6.9 mph NNE11.1 kmh NNE 8.1 mph13.0 kmh 28.54 in966.5 mb - 0.00 in0.0 mm 0.00 in0.0 mm
11:18 AM 25.0°F-3.9°C -0.1°F-17.8°C 33% 5.8 mph NE9.3 kmh NE 5.8 mph9.3 kmh 28.54 in966.5 mb - 0.00 in0.0 mm 0.00 in0.0 mm
11:19 AM 25.4°F-3.7°C 0.2°F-17.7°C 33% 4.6 mph N7.4 kmh N 5.8 mph9.3 kmh 28.54 in966.5 mb - 0.00 in0.0 mm 0.00 in0.0 mm
11:20 AM 25.5°F-3.6°C 0.3°F-17.6°C 33% 4.6 mph NE7.4 kmh NE 5.8 mph9.3 kmh 28.54 in966.5 mb - 0.00 in0.0 mm 0.00 in0.0 mm
11:21 AM 25.5°F-3.6°C 0.3°F-17.6°C 33% 4.6 mph NNW7.4 kmh NNW 5.8 mph9.3 kmh 28.54 in966.5 mb - 0.00 in0.0 mm 0.00 in0.0 mm
11:22 AM 25.7°F-3.5°C 0.5°F-17.5°C 33% 4.6 mph NE7.4 kmh NE 4.6 mph7.4 kmh 28.54 in966.5 mb - 0.00 in0.0 mm 0.00 in0.0 mm
11:23 AM 25.9°F-3.4°C 0.7°F-17.4°C 33% 3.5 mph N5.6 kmh N 5.8 mph9.3 kmh 28.54 in966.5 mb - 0.00 in0.0 mm 0.00 in0.0 mm
11:24 AM 26.1°F-3.3°C 0.9°F-17.3°C 33% 4.6 mph NE7.4 kmh NE 5.8 mph9.3 kmh 28.54 in966.5 mb - 0.00 in0.0 mm 0.00 in0.0 mm
11:25 AM 26.2°F-3.2°C 1.6°F-16.9°C 34% 4.6 mph NNE7.4 kmh NNE 3.5 mph5.6 kmh 28.54 in966.5 mb - 0.00 in0.0 mm 0.00 in0.0 mm
11:26 AM 26.4°F-3.1°C 1.8°F-16.8°C 34% 3.5 mph ENE5.6 kmh ENE 5.8 mph9.3 kmh 28.54 in966.5 mb - 0.00 in0.0 mm 0.00 in0.0 mm
11:27 AM 26.4°F-3.1°C 1.8°F-16.8°C 34% 4.6 mph NNW7.4 kmh NNW 5.8 mph9.3 kmh 28.54 in966.5 mb - 0.00 in0.0 mm 0.00 in0.0 mm
11:28 AM 26.5°F-3.1°C 1.2°F-17.1°C 33% 5.8 mph NNE9.3 kmh NNE 9.2 mph14.8 kmh 28.54 in966.5 mb - 0.00 in0.0 mm 0.00 in0.0 mm
11:29 AM 26.2°F-3.2°C 1.0°F-17.2°C 33% 6.9 mph N11.1 kmh N 9.2 mph14.8 kmh 28.54 in966.5 mb - 0.00 in0.0 mm 0.00 in0.0 mm
11:30 AM 26.0°F-3.3°C 0.7°F-17.4°C 33% 6.9 mph N11.1 kmh N 6.9 mph11.1 kmh 28.54 in966.5 mb - 0.00 in0.0 mm 0.00 in0.0 mm
11:31 AM 26.0°F-3.3°C 0.8°F-17.3°C 33% 4.6 mph N7.4 kmh N 4.6 mph7.4 kmh 28.54 in966.5 mb - 0.00 in0.0 mm 0.00 in0.0 mm
11:32 AM 26.2°F-3.2°C 0.9°F-17.3°C 33% 3.5 mph N5.6 kmh N 5.8 mph9.3 kmh 28.54 in966.5 mb - 0.00 in0.0 mm 0.00 in0.0 mm
11:33 AM 26.3°F-3.2°C 1.1°F-17.2°C 33% 5.8 mph W9.3 kmh W 9.2 mph14.8 kmh 28.54 in966.5 mb - 0.00 in0.0 mm 0.00 in0.0 mm
11:34 AM 26.4°F-3.1°C 1.1°F-17.2°C 33% 5.8 mph W9.3 kmh W 5.8 mph9.3 kmh 28.54 in966.5 mb - 0.00 in0.0 mm 0.00 in0.0 mm
11:35 AM 26.5°F-3.1°C 1.2°F-17.1°C 33% 4.6 mph NNW7.4 kmh NNW 5.8 mph9.3 kmh 28.54 in966.5 mb - 0.00 in0.0 mm 0.00 in0.0 mm
11:36 AM 26.4°F-3.1°C 1.2°F-17.1°C 33% 4.6 mph NW7.4 kmh NW 5.8 mph9.3 kmh 28.54 in966.5 mb - 0.00 in0.0 mm 0.00 in0.0 mm
11:37 AM 26.2°F-3.2°C 1.0°F-17.2°C 33% 4.6 mph WNW7.4 kmh WNW 6.9 mph11.1 kmh 28.54 in966.5 mb - 0.00 in0.0 mm 0.00 in0.0 mm
11:38 AM 26.3°F-3.2°C 1.1°F-17.2°C 33% 5.8 mph NW9.3 kmh NW 6.9 mph11.1 kmh 28.54 in966.5 mb - 0.00 in0.0 mm 0.00 in0.0 mm
11:39 AM 26.5°F-3.1°C 1.2°F-17.1°C 33% 3.5 mph NNE5.6 kmh NNE 6.9 mph11.1 kmh 28.54 in966.5 mb - 0.00 in0.0 mm 0.00 in0.0 mm
11:40 AM 26.6°F-3.0°C 1.3°F-17.1°C 33% 4.6 mph W7.4 kmh W 6.9 mph11.1 kmh 28.54 in966.5 mb - 0.00 in0.0 mm 0.00 in0.0 mm
11:41 AM 26.7°F-2.9°C 2.1°F-16.6°C 34% 4.6 mph NW7.4 kmh NW 6.9 mph11.1 kmh 28.54 in966.5 mb - 0.00 in0.0 mm 0.00 in0.0 mm
11:42 AM 26.6°F-3.0°C 1.3°F-17.1°C 33% 5.8 mph W9.3 kmh W 8.1 mph13.0 kmh 28.54 in966.5 mb - 0.00 in0.0 mm 0.00 in0.0 mm
11:43 AM 26.5°F-3.1°C 1.9°F-16.7°C 34% 5.8 mph NW9.3 kmh NW 8.1 mph13.0 kmh 28.54 in966.5 mb - 0.00 in0.0 mm 0.00 in0.0 mm
11:44 AM 26.4°F-3.1°C 1.8°F-16.8°C 34% 4.6 mph W7.4 kmh W 5.8 mph9.3 kmh 28.54 in966.5 mb - 0.00 in0.0 mm 0.00 in0.0 mm
11:45 AM 26.5°F-3.1°C 1.8°F-16.8°C 34% 4.6 mph WSW7.4 kmh WSW 9.2 mph14.8 kmh 28.54 in966.5 mb - 0.00 in0.0 mm 0.00 in0.0 mm
11:46 AM 26.4°F-3.1°C 1.8°F-16.8°C 34% 5.8 mph WNW9.3 kmh WNW 9.2 mph14.8 kmh 28.54 in966.5 mb - 0.00 in0.0 mm 0.00 in0.0 mm
11:47 AM 26.9°F-2.8°C 2.2°F-16.6°C 34% 4.6 mph NE7.4 kmh NE 3.5 mph5.6 kmh 28.54 in966.5 mb - 0.00 in0.0 mm 0.00 in0.0 mm
11:48 AM 27.3°F-2.6°C 2.6°F-16.3°C 34% 3.5 mph NNE5.6 kmh NNE 4.6 mph7.4 kmh 28.54 in966.5 mb - 0.00 in0.0 mm 0.00 in0.0 mm
11:49 AM 27.6°F-2.4°C 2.9°F-16.2°C 34% 4.6 mph NNW7.4 kmh NNW 5.8 mph9.3 kmh 28.54 in966.5 mb - 0.00 in0.0 mm 0.00 in0.0 mm
11:50 AM 27.5°F-2.5°C 2.8°F-16.2°C 34% 4.6 mph W7.4 kmh W 4.6 mph7.4 kmh 28.54 in966.5 mb - 0.00 in0.0 mm 0.00 in0.0 mm
11:51 AM 27.5°F-2.5°C 2.8°F-16.2°C 34% 4.6 mph NW7.4 kmh NW 6.9 mph11.1 kmh 28.54 in966.5 mb - 0.00 in0.0 mm 0.00 in0.0 mm
11:52 AM 27.4°F-2.6°C 1.4°F-17.0°C 32% 6.9 mph NNW11.1 kmh NNW 8.1 mph13.0 kmh 28.54 in966.5 mb - 0.00 in0.0 mm 0.00 in0.0 mm
11:53 AM 27.1°F-2.7°C 1.1°F-17.2°C 32% 4.6 mph N7.4 kmh N 6.9 mph11.1 kmh 28.54 in966.5 mb - 0.00 in0.0 mm 0.00 in0.0 mm
11:54 AM 27.0°F-2.8°C 1.0°F-17.2°C 32% 6.9 mph NW11.1 kmh NW 8.1 mph13.0 kmh 28.54 in966.5 mb - 0.00 in0.0 mm 0.00 in0.0 mm
11:55 AM 27.0°F-2.8°C 1.0°F-17.2°C 32% 6.9 mph NW11.1 kmh NW 10.4 mph16.7 kmh 28.54 in966.5 mb - 0.00 in0.0 mm 0.00 in0.0 mm
11:56 AM 27.0°F-2.8°C 1.7°F-16.8°C 33% 5.8 mph NW9.3 kmh NW 6.9 mph11.1 kmh 28.54 in966.5 mb - 0.00 in0.0 mm 0.00 in0.0 mm
11:57 AM 27.2°F-2.7°C 2.5°F-16.4°C 34% 5.8 mph WNW9.3 kmh WNW 6.9 mph11.1 kmh 28.54 in966.5 mb - 0.00 in0.0 mm 0.00 in0.0 mm
11:58 AM 27.0°F-2.8°C 1.7°F-16.8°C 33% 5.8 mph NW9.3 kmh NW 6.9 mph11.1 kmh 28.54 in966.5 mb - 0.00 in0.0 mm 0.00 in0.0 mm
11:59 AM 27.0°F-2.8°C 1.7°F-16.8°C 33% 6.9 mph NW11.1 kmh NW 8.1 mph13.0 kmh 28.54 in966.5 mb - 0.00 in0.0 mm 0.00 in0.0 mm
12:00 PM 27.1°F-2.7°C 1.8°F-16.8°C 33% 6.9 mph WNW11.1 kmh WNW 8.1 mph13.0 kmh 28.54 in966.5 mb - 0.00 in0.0 mm 0.00 in0.0 mm
12:01 PM 27.2°F-2.7°C 1.8°F-16.8°C 33% 5.8 mph SSE9.3 kmh SSE 5.8 mph9.3 kmh 28.54 in966.5 mb - 0.00 in0.0 mm 0.00 in0.0 mm
12:02 PM 27.4°F-2.6°C 2.1°F-16.6°C 33% 3.5 mph W5.6 kmh W 5.8 mph9.3 kmh 28.54 in966.5 mb - 0.00 in0.0 mm 0.00 in0.0 mm
12:03 PM 27.7°F-2.4°C 2.3°F-16.5°C 33% 4.6 mph N7.4 kmh N 5.8 mph9.3 kmh 28.54 in966.5 mb - 0.00 in0.0 mm 0.00 in0.0 mm
12:04 PM 27.9°F-2.3°C 2.5°F-16.4°C 33% 4.6 mph W7.4 kmh W 5.8 mph9.3 kmh 28.54 in966.5 mb - 0.00 in0.0 mm 0.00 in0.0 mm
12:05 PM 28.0°F-2.2°C 2.5°F-16.4°C 33% 4.6 mph 7.4 kmh 5.8 mph9.3 kmh 28.54 in966.5 mb - 0.00 in0.0 mm 0.00 in0.0 mm
12:06 PM 28.1°F-2.2°C 2.7°F-16.3°C 33% 3.5 mph N5.6 kmh N 10.4 mph16.7 kmh 28.54 in966.5 mb - 0.00 in0.0 mm 0.00 in0.0 mm
12:07 PM 28.3°F-2.1°C 2.9°F-16.2°C 33% 5.8 mph NNW9.3 kmh NNW 10.4 mph16.7 kmh 28.54 in966.5 mb - 0.00 in0.0 mm 0.00 in0.0 mm
12:08 PM 28.1°F-2.2°C 2.7°F-16.3°C 33% 5.8 mph N9.3 kmh N 5.8 mph9.3 kmh 28.54 in966.5 mb - 0.00 in0.0 mm 0.00 in0.0 mm
12:09 PM 27.7°F-2.4°C 2.3°F-16.5°C 33% 5.8 mph WNW9.3 kmh WNW 8.1 mph13.0 kmh 28.54 in966.5 mb - 0.00 in0.0 mm 0.00 in0.0 mm
12:10 PM 27.8°F-2.3°C 2.4°F-16.4°C 33% 6.9 mph W11.1 kmh W 9.2 mph14.8 kmh 28.54 in966.5 mb - 0.00 in0.0 mm 0.00 in0.0 mm
12:11 PM 27.9°F-2.3°C 2.5°F-16.4°C 33% 6.9 mph NW11.1 kmh NW 9.2 mph14.8 kmh 28.54 in966.5 mb - 0.00 in0.0 mm 0.00 in0.0 mm
12:12 PM 27.9°F-2.3°C 2.5°F-16.4°C 33% 5.8 mph W9.3 kmh W 5.8 mph9.3 kmh 28.54 in966.5 mb - 0.00 in0.0 mm 0.00 in0.0 mm
12:13 PM 27.8°F-2.3°C 2.3°F-16.5°C 33% 4.6 mph NW7.4 kmh NW 5.8 mph9.3 kmh 28.54 in966.5 mb - 0.00 in0.0 mm 0.00 in0.0 mm
12:14 PM 27.9°F-2.3°C 2.4°F-16.4°C 33% 5.8 mph NW9.3 kmh NW 8.1 mph13.0 kmh 28.53 in966.1 mb - 0.00 in0.0 mm 0.00 in0.0 mm
12:15 PM 27.9°F-2.3°C 2.4°F-16.4°C 33% 5.8 mph NNW9.3 kmh NNW 5.8 mph9.3 kmh 28.53 in966.1 mb - 0.00 in0.0 mm 0.00 in0.0 mm
12:16 PM 27.5°F-2.5°C 2.1°F-16.6°C 33% 5.8 mph W9.3 kmh W 5.8 mph9.3 kmh 28.53 in966.1 mb - 0.00 in0.0 mm 0.00 in0.0 mm
12:17 PM 27.5°F-2.5°C 1.4°F-17.0°C 32% 5.8 mph W9.3 kmh W 9.2 mph14.8 kmh 28.53 in966.1 mb - 0.00 in0.0 mm 0.00 in0.0 mm
12:18 PM 27.5°F-2.5°C 1.5°F-16.9°C 32% 8.1 mph NW13.0 kmh NW 9.2 mph14.8 kmh 28.53 in966.1 mb - 0.00 in0.0 mm 0.00 in0.0 mm
12:19 PM 27.7°F-2.4°C 1.6°F-16.9°C 32% 6.9 mph WNW11.1 kmh WNW 6.9 mph11.1 kmh 28.53 in966.1 mb - 0.00 in0.0 mm 0.00 in0.0 mm
12:20 PM 27.8°F-2.3°C 1.7°F-16.8°C 32% 4.6 mph NW7.4 kmh NW 5.8 mph9.3 kmh 28.53 in966.1 mb - 0.00 in0.0 mm 0.00 in0.0 mm
12:21 PM 27.9°F-2.3°C 1.8°F-16.8°C 32% 5.8 mph N9.3 kmh N 9.2 mph14.8 kmh 28.53 in966.1 mb - 0.00 in0.0 mm 0.00 in0.0 mm
12:22 PM 28.0°F-2.2°C 1.9°F-16.7°C 32% 6.9 mph WNW11.1 kmh WNW 9.2 mph14.8 kmh 28.53 in966.1 mb - 0.00 in0.0 mm 0.00 in0.0 mm
12:23 PM 28.3°F-2.1°C 2.2°F-16.6°C 32% 6.9 mph SW11.1 kmh SW 9.2 mph14.8 kmh 28.53 in966.1 mb - 0.00 in0.0 mm 0.00 in0.0 mm
12:24 PM 28.6°F-1.9°C 1.7°F-16.8°C 31% 6.9 mph NNW11.1 kmh NNW 5.8 mph9.3 kmh 28.53 in966.1 mb - 0.00 in0.0 mm 0.00 in0.0 mm
12:25 PM 28.8°F-1.8°C 1.9°F-16.7°C 31% 5.8 mph NE9.3 kmh NE 5.8 mph9.3 kmh 28.53 in966.1 mb - 0.00 in0.0 mm 0.00 in0.0 mm
12:26 PM 28.9°F-1.7°C 2.0°F-16.7°C 31% 4.6 mph NW7.4 kmh NW 6.9 mph11.1 kmh 28.53 in966.1 mb - 0.00 in0.0 mm 0.00 in0.0 mm
12:27 PM 28.9°F-1.7°C 2.0°F-16.7°C 31% 6.9 mph N11.1 kmh N 8.1 mph13.0 kmh 28.53 in966.1 mb - 0.00 in0.0 mm 0.00 in0.0 mm
12:28 PM 28.9°F-1.7°C 0.6°F-17.4°C 29% 5.8 mph N9.3 kmh N 6.9 mph11.1 kmh 28.53 in966.1 mb - 0.00 in0.0 mm 0.00 in0.0 mm
12:29 PM 28.9°F-1.7°C -0.2°F-17.9°C 28% 5.8 mph SE9.3 kmh SE 6.9 mph11.1 kmh 28.53 in966.1 mb - 0.00 in0.0 mm 0.00 in0.0 mm
12:30 PM 29.0°F-1.7°C -0.1°F-17.8°C 28% 4.6 mph N7.4 kmh N 4.6 mph7.4 kmh 28.53 in966.1 mb - 0.00 in0.0 mm 0.00 in0.0 mm
12:31 PM 29.2°F-1.6°C 0.1°F-17.7°C 28% 4.6 mph N7.4 kmh N 9.2 mph14.8 kmh 28.53 in966.1 mb - 0.00 in0.0 mm 0.00 in0.0 mm
12:32 PM 29.4°F-1.4°C 0.3°F-17.6°C 28% 8.1 mph NW13.0 kmh NW 9.2 mph14.8 kmh 28.53 in966.1 mb - 0.00 in0.0 mm 0.00 in0.0 mm
12:33 PM 29.0°F-1.7°C -0.1°F-17.8°C 28% 6.9 mph WNW11.1 kmh WNW 6.9 mph11.1 kmh 28.53 in966.1 mb - 0.00 in0.0 mm 0.00 in0.0 mm
12:34 PM 28.7°F-1.8°C 0.4°F-17.6°C 29% 5.8 mph WSW9.3 kmh WSW 5.8 mph9.3 kmh 28.53 in966.1 mb - 0.00 in0.0 mm 0.00 in0.0 mm
12:35 PM 28.5°F-1.9°C 0.9°F-17.3°C 30% 5.8 mph W9.3 kmh W 5.8 mph9.3 kmh 28.53 in966.1 mb - 0.00 in0.0 mm 0.00 in0.0 mm
12:36 PM 28.6°F-1.9°C 1.0°F-17.2°C 30% 4.6 mph WNW7.4 kmh WNW 8.1 mph13.0 kmh 28.53 in966.1 mb - 0.00 in0.0 mm 0.00 in0.0 mm
12:37 PM 28.8°F-1.8°C 1.2°F-17.1°C 30% 6.9 mph WSW11.1 kmh WSW 10.4 mph16.7 kmh 28.53 in966.1 mb - 0.00 in0.0 mm 0.00 in0.0 mm
12:38 PM 29.0°F-1.7°C 0.6°F-17.4°C 29% 5.8 mph NNW9.3 kmh NNW 4.6 mph7.4 kmh 28.53 in966.1 mb - 0.00 in0.0 mm 0.00 in0.0 mm
12:39 PM 29.1°F-1.6°C 1.5°F-16.9°C 30% 3.5 mph WNW5.6 kmh WNW 4.6 mph7.4 kmh 28.53 in966.1 mb - 0.00 in0.0 mm 0.00 in0.0 mm
12:40 PM 29.4°F-1.4°C 1.0°F-17.2°C 29% 4.6 mph W7.4 kmh W 5.8 mph9.3 kmh 28.53 in966.1 mb - 0.00 in0.0 mm 0.00 in0.0 mm
12:41 PM 29.3°F-1.5°C 0.9°F-17.3°C 29% 4.6 mph E7.4 kmh E 9.2 mph14.8 kmh 28.53 in966.1 mb - 0.00 in0.0 mm 0.00 in0.0 mm
12:42 PM 29.3°F-1.5°C 0.9°F-17.3°C 29% 6.9 mph N11.1 kmh N 8.1 mph13.0 kmh 28.53 in966.1 mb - 0.00 in0.0 mm 0.00 in0.0 mm
12:43 PM 29.2°F-1.6°C 0.8°F-17.3°C 29% 6.9 mph NNE11.1 kmh NNE 10.4 mph16.7 kmh 28.53 in966.1 mb - 0.00 in0.0 mm 0.00 in0.0 mm
12:44 PM 29.2°F-1.6°C 0.8°F-17.3°C 29% 6.9 mph N11.1 kmh N 5.8 mph9.3 kmh 28.53 in966.1 mb - 0.00 in0.0 mm 0.00 in0.0 mm
12:45 PM 29.4°F-1.4°C 1.0°F-17.2°C 29% 5.8 mph N9.3 kmh N 5.8 mph9.3 kmh 28.53 in966.1 mb - 0.00 in0.0 mm 0.00 in0.0 mm
12:46 PM 29.3°F-1.5°C 0.9°F-17.3°C 29% 5.8 mph NNE9.3 kmh NNE 6.9 mph11.1 kmh 28.53 in966.1 mb - 0.00 in0.0 mm 0.00 in0.0 mm
12:47 PM 29.2°F-1.6°C 0.8°F-17.3°C 29% 5.8 mph NNW9.3 kmh NNW 5.8 mph9.3 kmh 28.53 in966.1 mb - 0.00 in0.0 mm 0.00 in0.0 mm
12:48 PM 29.1°F-1.6°C 0.7°F-17.4°C 29% 4.6 mph N7.4 kmh N 5.8 mph9.3 kmh 28.53 in966.1 mb - 0.00 in0.0 mm 0.00 in0.0 mm
12:49 PM 29.1°F-1.6°C 1.5°F-16.9°C 30% 4.6 mph NNW7.4 kmh NNW 4.6 mph7.4 kmh 28.53 in966.1 mb - 0.00 in0.0 mm 0.00 in0.0 mm
12:50 PM 29.5°F-1.4°C 1.8°F-16.8°C 30% 4.6 mph NW7.4 kmh NW 10.4 mph16.7 kmh 28.52 in965.8 mb - 0.00 in0.0 mm 0.00 in0.0 mm
12:51 PM 29.7°F-1.3°C 1.3°F-17.1°C 29% 8.1 mph N13.0 kmh N 10.4 mph16.7 kmh 28.52 in965.8 mb - 0.00 in0.0 mm 0.00 in0.0 mm
12:52 PM 29.5°F-1.4°C 1.1°F-17.2°C 29% 8.1 mph NNW13.0 kmh NNW 10.4 mph16.7 kmh 28.52 in965.8 mb - 0.00 in0.0 mm 0.00 in0.0 mm
12:53 PM 29.3°F-1.5°C 0.9°F-17.3°C 29% 6.9 mph WNW11.1 kmh WNW 9.2 mph14.8 kmh 28.52 in965.8 mb - 0.00 in0.0 mm 0.00 in0.0 mm
12:54 PM 29.1°F-1.6°C 0.7°F-17.4°C 29% 6.9 mph WNW11.1 kmh WNW 8.1 mph13.0 kmh 28.52 in965.8 mb - 0.00 in0.0 mm 0.00 in0.0 mm
12:55 PM 29.3°F-1.5°C 0.9°F-17.3°C 29% 4.6 mph WNW7.4 kmh WNW 8.1 mph13.0 kmh 28.52 in965.8 mb - 0.00 in0.0 mm 0.00 in0.0 mm
12:56 PM 29.3°F-1.5°C 0.9°F-17.3°C 29% 6.9 mph NNW11.1 kmh NNW 6.9 mph11.1 kmh 28.52 in965.8 mb - 0.00 in0.0 mm 0.00 in0.0 mm
12:57 PM 29.0°F-1.7°C 0.7°F-17.4°C 29% 6.9 mph NW11.1 kmh NW 9.2 mph14.8 kmh 28.52 in965.8 mb - 0.00 in0.0 mm 0.00 in0.0 mm
12:58 PM 28.9°F-1.7°C 0.6°F-17.4°C 29% 8.1 mph SW13.0 kmh SW 9.2 mph14.8 kmh 28.52 in965.8 mb - 0.00 in0.0 mm 0.00 in0.0 mm
12:59 PM 28.9°F-1.7°C 0.6°F-17.4°C 29% 5.8 mph W9.3 kmh W 8.1 mph13.0 kmh 28.52 in965.8 mb - 0.00 in0.0 mm 0.00 in0.0 mm
01:00 PM 28.9°F-1.7°C 0.6°F-17.4°C 29% 5.8 mph WNW9.3 kmh WNW 4.6 mph7.4 kmh 28.52 in965.8 mb - 0.00 in0.0 mm 0.00 in0.0 mm
01:01 PM 28.9°F-1.7°C 1.3°F-17.1°C 30% 4.6 mph N7.4 kmh N 8.1 mph13.0 kmh 28.52 in965.8 mb - 0.00 in0.0 mm 0.00 in0.0 mm
01:02 PM 29.0°F-1.7°C 1.4°F-17.0°C 30% 5.8 mph NNE9.3 kmh NNE 8.1 mph13.0 kmh 28.52 in965.8 mb - 0.00 in0.0 mm 0.00 in0.0 mm
01:03 PM 29.1°F-1.6°C 1.5°F-16.9°C 30% 6.9 mph N11.1 kmh N 6.9 mph11.1 kmh 28.52 in965.8 mb - 0.00 in0.0 mm 0.00 in0.0 mm
01:04 PM 29.3°F-1.5°C 1.6°F-16.9°C 30% 6.9 mph N11.1 kmh N 9.2 mph14.8 kmh 28.52 in965.8 mb - 0.00 in0.0 mm 0.00 in0.0 mm
01:05 PM 29.3°F-1.5°C 1.6°F-16.9°C 30% 4.6 mph NW7.4 kmh NW 5.8 mph9.3 kmh 28.52 in965.8 mb - 0.00 in0.0 mm 0.00 in0.0 mm
01:06 PM 29.5°F-1.4°C 1.8°F-16.8°C 30% 4.6 mph N7.4 kmh N 5.8 mph9.3 kmh 28.52 in965.8 mb - 0.00 in0.0 mm 0.00 in0.0 mm
01:07 PM 29.9°F-1.2°C 2.2°F-16.6°C 30% 4.6 mph W7.4 kmh W 5.8 mph9.3 kmh 28.52 in965.8 mb - 0.00 in0.0 mm 0.00 in0.0 mm
01:08 PM 29.9°F-1.2°C 2.2°F-16.6°C 30% 4.6 mph NW7.4 kmh NW 6.9 mph11.1 kmh 28.52 in965.8 mb - 0.00 in0.0 mm 0.00 in0.0 mm
01:09 PM 29.8°F-1.2°C 0.6°F-17.4°C 28% 5.8 mph NW9.3 kmh NW 8.1 mph13.0 kmh 28.52 in965.8 mb - 0.00 in0.0 mm 0.00 in0.0 mm
01:10 PM 29.5°F-1.4°C 1.1°F-17.2°C 29% 5.8 mph W9.3 kmh W 8.1 mph13.0 kmh 28.52 in965.8 mb - 0.00 in0.0 mm 0.00 in0.0 mm
01:11 PM 29.8°F-1.2°C 2.1°F-16.6°C 30% 4.6 mph NW7.4 kmh NW 8.1 mph13.0 kmh 28.52 in965.8 mb - 0.00 in0.0 mm 0.00 in0.0 mm
01:12 PM 30.0°F-1.1°C 1.5°F-16.9°C 29% 8.1 mph NW13.0 kmh NW 8.1 mph13.0 kmh 28.52 in965.8 mb - 0.00 in0.0 mm 0.00 in0.0 mm
01:13 PM 29.8°F-1.2°C 1.4°F-17.0°C 29% 6.9 mph W11.1 kmh W 6.9 mph11.1 kmh 28.52 in965.8 mb - 0.00 in0.0 mm 0.00 in0.0 mm
01:14 PM 29.8°F-1.2°C 1.4°F-17.0°C 29% 6.9 mph NW11.1 kmh NW 9.2 mph14.8 kmh 28.52 in965.8 mb - 0.00 in0.0 mm 0.00 in0.0 mm
01:15 PM 29.8°F-1.2°C 0.6°F-17.4°C 28% 6.9 mph W11.1 kmh W 9.2 mph14.8 kmh 28.52 in965.8 mb - 0.00 in0.0 mm 0.00 in0.0 mm
01:16 PM 29.8°F-1.2°C 0.6°F-17.4°C 28% 8.1 mph W13.0 kmh W 9.2 mph14.8 kmh 28.52 in965.8 mb - 0.00 in0.0 mm 0.00 in0.0 mm
01:17 PM 29.7°F-1.3°C -0.3°F-17.9°C 27% 5.8 mph NW9.3 kmh NW 5.8 mph9.3 kmh 28.52 in965.8 mb - 0.00 in0.0 mm 0.00 in0.0 mm
01:18 PM 29.6°F-1.3°C -0.4°F-18.0°C 27% 4.6 mph NE7.4 kmh NE 6.9 mph11.1 kmh 28.52 in965.8 mb - 0.00 in0.0 mm 0.00 in0.0 mm
01:19 PM 29.5°F-1.4°C -0.4°F-18.0°C 27% 5.8 mph W9.3 kmh W 6.9 mph11.1 kmh 28.52 in965.8 mb - 0.00 in0.0 mm 0.00 in0.0 mm
01:20 PM 29.5°F-1.4°C -0.4°F-18.0°C 27% 5.8 mph NW9.3 kmh NW 6.9 mph11.1 kmh 28.52 in965.8 mb - 0.00 in0.0 mm 0.00 in0.0 mm
01:21 PM 29.5°F-1.4°C -0.4°F-18.0°C 27% 5.8 mph WNW9.3 kmh WNW 8.1 mph13.0 kmh 28.52 in965.8 mb - 0.00 in0.0 mm 0.00 in0.0 mm
01:22 PM 29.7°F-1.3°C -0.2°F-17.9°C 27% 5.8 mph NW9.3 kmh NW 8.1 mph13.0 kmh 28.52 in965.8 mb - 0.00 in0.0 mm 0.00 in0.0 mm
01:23 PM 29.8°F-1.2°C -0.2°F-17.9°C 27% 5.8 mph N9.3 kmh N 6.9 mph11.1 kmh 28.52 in965.8 mb - 0.00 in0.0 mm 0.00 in0.0 mm
01:24 PM 29.7°F-1.3°C -0.3°F-17.9°C 27% 5.8 mph WNW9.3 kmh WNW 8.1 mph13.0 kmh 28.52 in965.8 mb - 0.00 in0.0 mm 0.00 in0.0 mm
01:25 PM 29.7°F-1.3°C -0.3°F-17.9°C 27% 5.8 mph NW9.3 kmh NW 6.9 mph11.1 kmh 28.52 in965.8 mb - 0.00 in0.0 mm 0.00 in0.0 mm
01:26 PM 29.7°F-1.3°C -1.1°F-18.4°C 26% 5.8 mph NNE9.3 kmh NNE 6.9 mph11.1 kmh 28.52 in965.8 mb - 0.00 in0.0 mm 0.00 in0.0 mm
01:27 PM 29.5°F-1.4°C -1.2°F-18.4°C 26% 5.8 mph NW9.3 kmh NW 5.8 mph9.3 kmh 28.52 in965.8 mb - 0.00 in0.0 mm 0.00 in0.0 mm
01:28 PM 29.4°F-1.4°C -0.5°F-18.1°C 27% 4.6 mph NNE7.4 kmh NNE 5.8 mph9.3 kmh 28.52 in965.8 mb - 0.00 in0.0 mm 0.00 in0.0 mm
01:29 PM 29.7°F-1.3°C -0.3°F-17.9°C 27% 5.8 mph NE9.3 kmh NE 5.8 mph9.3 kmh 28.52 in965.8 mb - 0.00 in0.0 mm 0.00 in0.0 mm
01:30 PM 30.1°F-1.1°C 0.1°F-17.7°C 27% 4.6 mph NNE7.4 kmh NNE 6.9 mph11.1 kmh 28.52 in965.8 mb - 0.00 in0.0 mm 0.00 in0.0 mm
01:31 PM 30.4°F-0.9°C -0.5°F-18.1°C 26% 5.8 mph NNE9.3 kmh NNE 9.2 mph14.8 kmh 28.52 in965.8 mb - 0.00 in0.0 mm 0.00 in0.0 mm
01:32 PM 30.3°F-0.9°C -0.5°F-18.1°C 26% 6.9 mph N11.1 kmh N 8.1 mph13.0 kmh 28.52 in965.8 mb - 0.00 in0.0 mm 0.00 in0.0 mm
01:33 PM 30.2°F-1.0°C 0.2°F-17.7°C 27% 5.8 mph WNW9.3 kmh WNW 6.9 mph11.1 kmh 28.52 in965.8 mb - 0.00 in0.0 mm 0.00 in0.0 mm
01:34 PM 30.2°F-1.0°C 0.2°F-17.7°C 27% 4.6 mph WNW7.4 kmh WNW 4.6 mph7.4 kmh 28.52 in965.8 mb - 0.00 in0.0 mm 0.00 in0.0 mm
01:35 PM 30.4°F-0.9°C 0.3°F-17.6°C 27% 4.6 mph NE7.4 kmh NE 4.6 mph7.4 kmh 28.52 in965.8 mb - 0.00 in0.0 mm 0.00 in0.0 mm
01:36 PM 30.6°F-0.8°C 0.5°F-17.5°C 27% 3.5 mph N5.6 kmh N 5.8 mph9.3 kmh 28.52 in965.8 mb - 0.00 in0.0 mm 0.00 in0.0 mm
01:37 PM 30.7°F-0.7°C 0.6°F-17.4°C 27% 5.8 mph N9.3 kmh N 6.9 mph11.1 kmh 28.52 in965.8 mb - 0.00 in0.0 mm 0.00 in0.0 mm
01:38 PM 30.3°F-0.9°C 1.0°F-17.2°C 28% 4.6 mph NE7.4 kmh NE 5.8 mph9.3 kmh 28.52 in965.8 mb - 0.00 in0.0 mm 0.00 in0.0 mm
01:39 PM 30.4°F-0.9°C 1.1°F-17.2°C 28% 4.6 mph NNW7.4 kmh NNW 4.6 mph7.4 kmh 28.52 in965.8 mb - 0.00 in0.0 mm 0.00 in0.0 mm
01:40 PM 30.5°F-0.8°C 1.2°F-17.1°C 28% 5.8 mph N9.3 kmh N 8.1 mph13.0 kmh 28.52 in965.8 mb - 0.00 in0.0 mm 0.00 in0.0 mm
01:41 PM 30.4°F-0.9°C 1.9°F-16.7°C 29% 5.8 mph NNW9.3 kmh NNW 6.9 mph11.1 kmh 28.52 in965.8 mb - 0.00 in0.0 mm 0.00 in0.0 mm
01:42 PM 30.5°F-0.8°C 1.2°F-17.1°C 28% 5.8 mph W9.3 kmh W 6.9 mph11.1 kmh 28.52 in965.8 mb - 0.00 in0.0 mm 0.00 in0.0 mm
01:43 PM 30.2°F-1.0°C 1.0°F-17.2°C 28% 5.8 mph NNW9.3 kmh NNW 6.9 mph11.1 kmh 28.52 in965.8 mb - 0.00 in0.0 mm 0.00 in0.0 mm
01:44 PM 30.4°F-0.9°C 1.2°F-17.1°C 28% 6.9 mph NW11.1 kmh NW 10.4 mph16.7 kmh 28.52 in965.8 mb - 0.00 in0.0 mm 0.00 in0.0 mm
01:45 PM 30.5°F-0.8°C 1.2°F-17.1°C 28% 8.1 mph N13.0 kmh N 8.1 mph13.0 kmh 28.52 in965.8 mb - 0.00 in0.0 mm 0.00 in0.0 mm
01:46 PM 30.2°F-1.0°C 0.9°F-17.3°C 28% 6.9 mph NNW11.1 kmh NNW 8.1 mph13.0 kmh 28.52 in965.8 mb - 0.00 in0.0 mm 0.00 in0.0 mm
01:47 PM 30.0°F-1.1°C 0.8°F-17.3°C 28% 5.8 mph N9.3 kmh N 5.8 mph9.3 kmh 28.52 in965.8 mb - 0.00 in0.0 mm 0.00 in0.0 mm
01:48 PM 30.5°F-0.8°C 1.2°F-17.1°C 28% 4.6 mph NW7.4 kmh NW 4.6 mph7.4 kmh 28.52 in965.8 mb - 0.00 in0.0 mm 0.00 in0.0 mm
01:49 PM 30.6°F-0.8°C 0.5°F-17.5°C 27% 5.8 mph NW9.3 kmh NW 8.1 mph13.0 kmh 28.52 in965.8 mb - 0.00 in0.0 mm 0.00 in0.0 mm
01:50 PM 30.6°F-0.8°C 0.5°F-17.5°C 27% 5.8 mph N9.3 kmh N 9.2 mph14.8 kmh 28.51 in965.5 mb - 0.00 in0.0 mm 0.00 in0.0 mm
01:51 PM 30.4°F-0.9°C 0.4°F-17.6°C 27% 6.9 mph NW11.1 kmh NW 9.2 mph14.8 kmh 28.51 in965.5 mb - 0.00 in0.0 mm 0.00 in0.0 mm
01:52 PM 30.6°F-0.8°C 1.3°F-17.1°C 28% 4.6 mph ESE7.4 kmh ESE 8.1 mph13.0 kmh 28.51 in965.5 mb - 0.00 in0.0 mm 0.00 in0.0 mm
01:53 PM 30.9°F-0.6°C 1.6°F-16.9°C 28% 5.8 mph N9.3 kmh N 5.8 mph9.3 kmh 28.51 in965.5 mb - 0.00 in0.0 mm 0.00 in0.0 mm
01:54 PM 30.9°F-0.6°C 1.6°F-16.9°C 28% 4.6 mph SW7.4 kmh SW 5.8 mph9.3 kmh 28.51 in965.5 mb - 0.00 in0.0 mm 0.00 in0.0 mm
01:55 PM 30.9°F-0.6°C 1.6°F-16.9°C 28% 5.8 mph NNW9.3 kmh NNW 10.4 mph16.7 kmh 28.51 in965.5 mb - 0.00 in0.0 mm 0.00 in0.0 mm
01:56 PM 30.8°F-0.7°C 0.7°F-17.4°C 27% 6.9 mph N11.1 kmh N 9.2 mph14.8 kmh 28.51 in965.5 mb - 0.00 in0.0 mm 0.00 in0.0 mm
01:57 PM 30.5°F-0.8°C -0.4°F-18.0°C 26% 6.9 mph NE11.1 kmh NE 8.1 mph13.0 kmh 28.51 in965.5 mb - 0.00 in0.0 mm 0.00 in0.0 mm
01:58 PM 30.4°F-0.9°C -1.3°F-18.5°C 25% 6.9 mph N11.1 kmh N 8.1 mph13.0 kmh 28.51 in965.5 mb - 0.00 in0.0 mm 0.00 in0.0 mm
01:59 PM 30.4°F-0.9°C -1.3°F-18.5°C 25% 6.9 mph NNW11.1 kmh NNW 8.1 mph13.0 kmh 28.51 in965.5 mb - 0.00 in0.0 mm 0.00 in0.0 mm
02:00 PM 30.2°F-1.0°C -1.5°F-18.6°C 25% 5.8 mph N9.3 kmh N 6.9 mph11.1 kmh 28.51 in965.5 mb - 0.00 in0.0 mm 0.00 in0.0 mm
02:01 PM 30.5°F-0.8°C -1.2°F-18.4°C 25% 5.8 mph N9.3 kmh N 5.8 mph9.3 kmh 28.51 in965.5 mb - 0.00 in0.0 mm 0.00 in0.0 mm
02:02 PM 30.6°F-0.8°C -1.1°F-18.4°C 25% 5.8 mph N9.3 kmh N 8.1 mph13.0 kmh 28.51 in965.5 mb - 0.00 in0.0 mm 0.00 in0.0 mm
02:03 PM 30.7°F-0.7°C -1.0°F-18.3°C 25% 6.9 mph NNE11.1 kmh NNE 8.1 mph13.0 kmh 28.51 in965.5 mb - 0.00 in0.0 mm 0.00 in0.0 mm
02:04 PM 30.6°F-0.8°C -1.1°F-18.4°C 25% 6.9 mph N11.1 kmh N 6.9 mph11.1 kmh 28.51 in965.5 mb - 0.00 in0.0 mm 0.00 in0.0 mm
02:05 PM 30.4°F-0.9°C -1.3°F-18.5°C 25% 6.9 mph NNE11.1 kmh NNE 9.2 mph14.8 kmh 28.51 in965.5 mb - 0.00 in0.0 mm 0.00 in0.0 mm
02:06 PM 30.1°F-1.1°C -1.5°F-18.6°C 25% 5.8 mph NNE9.3 kmh NNE 6.9 mph11.1 kmh 28.51 in965.5 mb - 0.00 in0.0 mm 0.00 in0.0 mm
02:07 PM 30.2°F-1.0°C -0.7°F-18.2°C 26% 6.9 mph NNE11.1 kmh NNE 10.4 mph16.7 kmh 28.51 in965.5 mb - 0.00 in0.0 mm 0.00 in0.0 mm
02:08 PM 30.1°F-1.1°C -0.7°F-18.2°C 26% 8.1 mph N13.0 kmh N 10.4 mph16.7 kmh 28.51 in965.5 mb - 0.00 in0.0 mm 0.00 in0.0 mm
02:09 PM 29.8°F-1.2°C -1.0°F-18.3°C 26% 5.8 mph WSW9.3 kmh WSW 8.1 mph13.0 kmh 28.51 in965.5 mb - 0.00 in0.0 mm 0.00 in0.0 mm
02:10 PM 30.1°F-1.1°C -0.7°F-18.2°C 26% 6.9 mph NW11.1 kmh NW 10.4 mph16.7 kmh 28.51 in965.5 mb - 0.00 in0.0 mm 0.00 in0.0 mm
02:11 PM 30.1°F-1.1°C 0.1°F-17.7°C 27% 6.9 mph NW11.1 kmh NW 8.1 mph13.0 kmh 28.51 in965.5 mb - 0.00 in0.0 mm 0.00 in0.0 mm
02:12 PM 30.4°F-0.9°C 1.1°F-17.2°C 28% 4.6 mph N7.4 kmh N 5.8 mph9.3 kmh 28.51 in965.5 mb - 0.00 in0.0 mm 0.00 in0.0 mm
02:13 PM 30.6°F-0.8°C 0.5°F-17.5°C 27% 5.8 mph 9.3 kmh 8.1 mph13.0 kmh 28.51 in965.5 mb - 0.00 in0.0 mm 0.00 in0.0 mm
02:14 PM 30.3°F-0.9°C 0.3°F-17.6°C 27% 5.8 mph NNW9.3 kmh NNW 4.6 mph7.4 kmh 28.51 in965.5 mb - 0.00 in0.0 mm 0.00 in0.0 mm
02:15 PM 30.2°F-1.0°C 0.2°F-17.7°C 27% 4.6 mph N7.4 kmh N 8.1 mph13.0 kmh 28.51 in965.5 mb - 0.00 in0.0 mm 0.00 in0.0 mm
02:16 PM 30.3°F-0.9°C -0.5°F-18.1°C 26% 5.8 mph NNE9.3 kmh NNE 10.4 mph16.7 kmh 28.51 in965.5 mb - 0.00 in0.0 mm 0.00 in0.0 mm
02:17 PM 30.0°F-1.1°C -0.8°F-18.2°C 26% 5.8 mph N9.3 kmh N 5.8 mph9.3 kmh 28.51 in965.5 mb - 0.00 in0.0 mm 0.00 in0.0 mm
02:18 PM 30.1°F-1.1°C 0.1°F-17.7°C 27% 4.6 mph NW7.4 kmh NW 5.8 mph9.3 kmh 28.51 in965.5 mb - 0.00 in0.0 mm 0.00 in0.0 mm
02:19 PM 30.5°F-0.8°C 0.4°F-17.6°C 27% 4.6 mph NNE7.4 kmh NNE 6.9 mph11.1 kmh 28.51 in965.5 mb - 0.00 in0.0 mm 0.00 in0.0 mm
02:20 PM 30.6°F-0.8°C 0.5°F-17.5°C 27% 6.9 mph NNE11.1 kmh NNE 9.2 mph14.8 kmh 28.51 in965.5 mb - 0.00 in0.0 mm 0.00 in0.0 mm
02:21 PM 30.6°F-0.8°C 0.5°F-17.5°C 27% 5.8 mph NNW9.3 kmh NNW 6.9 mph11.1 kmh 28.51 in965.5 mb - 0.00 in0.0 mm 0.00 in0.0 mm
02:22 PM 30.4°F-0.9°C 0.3°F-17.6°C 27% 5.8 mph NNE9.3 kmh NNE 5.8 mph9.3 kmh 28.51 in965.5 mb - 0.00 in0.0 mm 0.00 in0.0 mm
02:23 PM 30.4°F-0.9°C -0.5°F-18.1°C 26% 4.6 mph N7.4 kmh N 5.8 mph9.3 kmh 28.51 in965.5 mb - 0.00 in0.0 mm 0.00 in0.0 mm
02:24 PM 30.5°F-0.8°C -0.4°F-18.0°C 26% 4.6 mph NNE7.4 kmh NNE 9.2 mph14.8 kmh 28.51 in965.5 mb - 0.00 in0.0 mm 0.00 in0.0 mm
02:25 PM 30.6°F-0.8°C -0.3°F-17.9°C 26% 8.1 mph NNE13.0 kmh NNE 9.2 mph14.8 kmh 28.51 in965.5 mb - 0.00 in0.0 mm 0.00 in0.0 mm
02:26 PM 30.5°F-0.8°C -0.4°F-18.0°C 26% 6.9 mph NNE11.1 kmh NNE 8.1 mph13.0 kmh 28.51 in965.5 mb - 0.00 in0.0 mm 0.00 in0.0 mm
02:27 PM 30.4°F-0.9°C -0.5°F-18.1°C 26% 6.9 mph N11.1 kmh N 5.8 mph9.3 kmh 28.51 in965.5 mb - 0.00 in0.0 mm 0.00 in0.0 mm
02:28 PM 30.4°F-0.9°C 0.3°F-17.6°C 27% 5.8 mph WNW9.3 kmh WNW 5.8 mph9.3 kmh 28.51 in965.5 mb - 0.00 in0.0 mm 0.00 in0.0 mm
02:29 PM 30.4°F-0.9°C 0.3°F-17.6°C 27% 5.8 mph NNE9.3 kmh NNE 6.9 mph11.1 kmh 28.51 in965.5 mb - 0.00 in0.0 mm 0.00 in0.0 mm
02:30 PM 30.3°F-0.9°C 0.3°F-17.6°C 27% 5.8 mph NE9.3 kmh NE 5.8 mph9.3 kmh 28.51 in965.5 mb - 0.00 in0.0 mm 0.00 in0.0 mm
02:31 PM 30.2°F-1.0°C 0.2°F-17.7°C 27% 5.8 mph NNE9.3 kmh NNE 6.9 mph11.1 kmh 28.51 in965.5 mb - 0.00 in0.0 mm 0.00 in0.0 mm
02:32 PM 30.3°F-0.9°C 1.1°F-17.2°C 28% 5.8 mph WNW9.3 kmh WNW 6.9 mph11.1 kmh 28.51 in965.5 mb - 0.00 in0.0 mm 0.00 in0.0 mm
02:33 PM 30.4°F-0.9°C 1.1°F-17.2°C 28% 5.8 mph W9.3 kmh W 6.9 mph11.1 kmh 28.51 in965.5 mb - 0.00 in0.0 mm 0.00 in0.0 mm
02:34 PM 30.5°F-0.8°C 1.2°F-17.1°C 28% 4.6 mph N7.4 kmh N 10.4 mph16.7 kmh 28.51 in965.5 mb - 0.00 in0.0 mm 0.00 in0.0 mm
02:35 PM 30.7°F-0.7°C 1.4°F-17.0°C 28% 6.9 mph SW11.1 kmh SW 10.4 mph16.7 kmh 28.51 in965.5 mb - 0.00 in0.0 mm 0.00 in0.0 mm
02:36 PM 30.7°F-0.7°C 1.4°F-17.0°C 28% 6.9 mph N11.1 kmh N 9.2 mph14.8 kmh 28.51 in965.5 mb - 0.00 in0.0 mm 0.00 in0.0 mm
02:37 PM 30.9°F-0.6°C 1.6°F-16.9°C 28% 4.6 mph N7.4 kmh N 5.8 mph9.3 kmh 28.51 in965.5 mb - 0.00 in0.0 mm 0.00 in0.0 mm
02:38 PM 30.8°F-0.7°C 1.5°F-16.9°C 28% 4.6 mph NNW7.4 kmh NNW 9.2 mph14.8 kmh 28.51 in965.5 mb - 0.00 in0.0 mm 0.00 in0.0 mm
02:39 PM 30.9°F-0.6°C 0.8°F-17.3°C 27% 8.1 mph WNW13.0 kmh WNW 9.2 mph14.8 kmh 28.51 in965.5 mb - 0.00 in0.0 mm 0.00 in0.0 mm
02:40 PM 30.8°F-0.7°C 0.7°F-17.4°C 27% 9.2 mph WNW14.8 kmh WNW 11.5 mph18.5 kmh 28.51 in965.5 mb - 0.00 in0.0 mm 0.00 in0.0 mm
02:41 PM 30.4°F-0.9°C 0.4°F-17.6°C 27% 8.1 mph NW13.0 kmh NW 9.2 mph14.8 kmh 28.51 in965.5 mb - 0.00 in0.0 mm 0.00 in0.0 mm
02:42 PM 30.0°F-1.1°C 0.0°F-17.8°C 27% 6.9 mph W11.1 kmh W 6.9 mph11.1 kmh 28.51 in965.5 mb - 0.00 in0.0 mm 0.00 in0.0 mm
02:43 PM 30.0°F-1.1°C 0.0°F-17.8°C 27% 5.8 mph NW9.3 kmh NW 5.8 mph9.3 kmh 28.51 in965.5 mb - 0.00 in0.0 mm 0.00 in0.0 mm
02:44 PM 30.4°F-0.9°C 0.3°F-17.6°C 27% 4.6 mph NW7.4 kmh NW 5.8 mph9.3 kmh 28.51 in965.5 mb - 0.00 in0.0 mm 0.00 in0.0 mm
02:45 PM 30.9°F-0.6°C 0.8°F-17.3°C 27% 4.6 mph N7.4 kmh N 5.8 mph9.3 kmh 28.51 in965.5 mb - 0.00 in0.0 mm 0.00 in0.0 mm
02:46 PM 31.1°F-0.5°C 0.1°F-17.7°C 26% 4.6 mph N7.4 kmh N 5.8 mph9.3 kmh 28.51 in965.5 mb - 0.00 in0.0 mm 0.00 in0.0 mm
02:47 PM 31.2°F-0.4°C 0.2°F-17.7°C 26% 3.5 mph NW5.6 kmh NW 6.9 mph11.1 kmh 28.51 in965.5 mb - 0.00 in0.0 mm 0.00 in0.0 mm
02:48 PM 31.3°F-0.4°C -0.5°F-18.1°C 25% 5.8 mph NW9.3 kmh NW 9.2 mph14.8 kmh 28.51 in965.5 mb - 0.00 in0.0 mm 0.00 in0.0 mm
02:49 PM 31.2°F-0.4°C -0.6°F-18.1°C 25% 6.9 mph NW11.1 kmh NW 9.2 mph14.8 kmh 28.51 in965.5 mb - 0.00 in0.0 mm 0.00 in0.0 mm
02:50 PM 31.1°F-0.5°C -0.7°F-18.2°C 25% 5.8 mph WNW9.3 kmh WNW 6.9 mph11.1 kmh 28.50 in965.1 mb - 0.00 in0.0 mm 0.00 in0.0 mm
02:51 PM 31.1°F-0.5°C -0.7°F-18.2°C 25% 5.8 mph N9.3 kmh N 6.9 mph11.1 kmh 28.50 in965.1 mb - 0.00 in0.0 mm 0.00 in0.0 mm
02:52 PM 30.9°F-0.6°C -0.9°F-18.3°C 25% 4.6 mph SSW7.4 kmh SSW 5.8 mph9.3 kmh 28.50 in965.1 mb - 0.00 in0.0 mm 0.00 in0.0 mm
02:53 PM 30.9°F-0.6°C -1.7°F-18.7°C 24% 5.8 mph NNW9.3 kmh NNW 6.9 mph11.1 kmh 28.50 in965.1 mb - 0.00 in0.0 mm 0.00 in0.0 mm
02:54 PM 30.7°F-0.7°C -1.9°F-18.8°C 24% 5.8 mph S9.3 kmh S 5.8 mph9.3 kmh 28.50 in965.1 mb - 0.00 in0.0 mm 0.00 in0.0 mm
02:55 PM 30.6°F-0.8°C -1.1°F-18.4°C 25% 4.6 mph NNW7.4 kmh NNW 6.9 mph11.1 kmh 28.50 in965.1 mb - 0.00 in0.0 mm 0.00 in0.0 mm
02:56 PM 30.6°F-0.8°C -1.1°F-18.4°C 25% 6.9 mph WSW11.1 kmh WSW 6.9 mph11.1 kmh 28.50 in965.1 mb - 0.00 in0.0 mm 0.00 in0.0 mm
02:57 PM 30.7°F-0.7°C -1.1°F-18.4°C 25% 5.8 mph NNW9.3 kmh NNW 5.8 mph9.3 kmh 28.50 in965.1 mb - 0.00 in0.0 mm 0.00 in0.0 mm
02:58 PM 30.9°F-0.6°C -0.9°F-18.3°C 25% 5.8 mph NNE9.3 kmh NNE 6.9 mph11.1 kmh 28.50 in965.1 mb - 0.00 in0.0 mm 0.00 in0.0 mm
02:59 PM 30.9°F-0.6°C 0.0°F-17.8°C 26% 5.8 mph E9.3 kmh E 5.8 mph9.3 kmh 28.50 in965.1 mb - 0.00 in0.0 mm 0.00 in0.0 mm
03:00 PM 31.2°F-0.4°C 0.2°F-17.7°C 26% 4.6 mph NE7.4 kmh NE 4.6 mph7.4 kmh 28.50 in965.1 mb - 0.00 in0.0 mm 0.00 in0.0 mm
03:01 PM 31.4°F-0.3°C 0.4°F-17.6°C 26% 5.8 mph N9.3 kmh N 8.1 mph13.0 kmh 28.50 in965.1 mb - 0.00 in0.0 mm 0.00 in0.0 mm
03:02 PM 31.2°F-0.4°C 0.2°F-17.7°C 26% 6.9 mph ENE11.1 kmh ENE 8.1 mph13.0 kmh 28.51 in965.5 mb - 0.00 in0.0 mm 0.00 in0.0 mm
03:03 PM 30.8°F-0.7°C -0.1°F-17.8°C 26% 5.8 mph NNE9.3 kmh NNE 6.9 mph11.1 kmh 28.51 in965.5 mb - 0.00 in0.0 mm 0.00 in0.0 mm
03:04 PM 30.8°F-0.7°C -0.1°F-17.8°C 26% 4.6 mph N7.4 kmh N 5.8 mph9.3 kmh 28.51 in965.5 mb - 0.00 in0.0 mm 0.00 in0.0 mm
03:05 PM 30.7°F-0.7°C -0.2°F-17.9°C 26% 5.8 mph NE9.3 kmh NE 8.1 mph13.0 kmh 28.51 in965.5 mb - 0.00 in0.0 mm 0.00 in0.0 mm
03:06 PM 30.7°F-0.7°C -0.2°F-17.9°C 26% 6.9 mph NNE11.1 kmh NNE 8.1 mph13.0 kmh 28.51 in965.5 mb - 0.00 in0.0 mm 0.00 in0.0 mm
03:07 PM 30.7°F-0.7°C -0.2°F-17.9°C 26% 6.9 mph NE11.1 kmh NE 8.1 mph13.0 kmh 28.51 in965.5 mb - 0.00 in0.0 mm 0.00 in0.0 mm
03:08 PM 30.7°F-0.7°C -0.2°F-17.9°C 26% 5.8 mph NE9.3 kmh NE 8.1 mph13.0 kmh 28.51 in965.5 mb - 0.00 in0.0 mm 0.00 in0.0 mm
03:09 PM 30.6°F-0.8°C -0.3°F-17.9°C 26% 6.9 mph NE11.1 kmh NE 8.1 mph13.0 kmh 28.51 in965.5 mb - 0.00 in0.0 mm 0.00 in0.0 mm
03:10 PM 30.4°F-0.9°C -0.5°F-18.1°C 26% 6.9 mph NNE11.1 kmh NNE 8.1 mph13.0 kmh 28.51 in965.5 mb - 0.00 in0.0 mm 0.00 in0.0 mm
03:11 PM 30.2°F-1.0°C -0.6°F-18.1°C 26% 5.8 mph N9.3 kmh N 6.9 mph11.1 kmh 28.51 in965.5 mb - 0.00 in0.0 mm 0.00 in0.0 mm
03:12 PM 30.3°F-0.9°C -0.5°F-18.1°C 26% 5.8 mph NE9.3 kmh NE 5.8 mph9.3 kmh 28.51 in965.5 mb - 0.00 in0.0 mm 0.00 in0.0 mm
03:13 PM 30.4°F-0.9°C -0.5°F-18.1°C 26% 5.8 mph NNW9.3 kmh NNW 6.9 mph11.1 kmh 28.51 in965.5 mb - 0.00 in0.0 mm 0.00 in0.0 mm
03:14 PM 30.6°F-0.8°C -0.3°F-17.9°C 26% 6.9 mph NW11.1 kmh NW 8.1 mph13.0 kmh 28.51 in965.5 mb - 0.00 in0.0 mm 0.00 in0.0 mm
03:15 PM 30.7°F-0.7°C -0.2°F-17.9°C 26% 4.6 mph NNW7.4 kmh NNW 6.9 mph11.1 kmh 28.51 in965.5 mb - 0.00 in0.0 mm 0.00 in0.0 mm
03:16 PM 30.7°F-0.7°C -0.2°F-17.9°C 26% 4.6 mph NNE7.4 kmh NNE 5.8 mph9.3 kmh 28.51 in965.5 mb - 0.00 in0.0 mm 0.00 in0.0 mm
03:30 PM 30.7°F-0.7°C -0.2°F-17.9°C 26% 4.6 mph NNE7.4 kmh NNE 5.8 mph9.3 kmh 28.51 in965.5 mb - 0.00 in0.0 mm 0.00 in0.0 mm
03:31 PM 30.7°F-0.7°C -0.2°F-17.9°C 26% 4.6 mph NNE7.4 kmh NNE 5.8 mph9.3 kmh 28.51 in965.5 mb - 0.00 in0.0 mm 0.00 in0.0 mm
03:32 PM 30.7°F-0.7°C -0.2°F-17.9°C 26% 4.6 mph NNE7.4 kmh NNE 5.8 mph9.3 kmh 28.51 in965.5 mb - 0.00 in0.0 mm 0.00 in0.0 mm
03:33 PM 30.2°F-1.0°C -1.4°F-18.6°C 25% 5.8 mph SW9.3 kmh SW 5.8 mph9.3 kmh 28.51 in965.5 mb - 0.00 in0.0 mm 0.00 in0.0 mm
03:34 PM 30.1°F-1.1°C -0.7°F-18.2°C 26% 5.8 mph N9.3 kmh N 10.4 mph16.7 kmh 28.51 in965.5 mb - 0.00 in0.0 mm 0.00 in0.0 mm
03:35 PM 30.2°F-1.0°C -0.6°F-18.1°C 26% 5.8 mph NNW9.3 kmh NNW 8.1 mph13.0 kmh 28.51 in965.5 mb - 0.00 in0.0 mm 0.00 in0.0 mm
03:36 PM 30.3°F-0.9°C -0.5°F-18.1°C 26% 5.8 mph NW9.3 kmh NW 10.4 mph16.7 kmh 28.51 in965.5 mb - 0.00 in0.0 mm 0.00 in0.0 mm
03:37 PM 30.5°F-0.8°C -0.4°F-18.0°C 26% 8.1 mph NW13.0 kmh NW 10.4 mph16.7 kmh 28.51 in965.5 mb - 0.00 in0.0 mm 0.00 in0.0 mm
03:38 PM 30.4°F-0.9°C -0.5°F-18.1°C 26% 6.9 mph N11.1 kmh N 8.1 mph13.0 kmh 28.51 in965.5 mb - 0.00 in0.0 mm 0.00 in0.0 mm
03:39 PM 30.1°F-1.1°C -0.7°F-18.2°C 26% 6.9 mph NNW11.1 kmh NNW 8.1 mph13.0 kmh 28.51 in965.5 mb - 0.00 in0.0 mm 0.00 in0.0 mm
03:40 PM 29.8°F-1.2°C -1.0°F-18.3°C 26% 4.6 mph NNW7.4 kmh NNW 9.2 mph14.8 kmh 28.51 in965.5 mb - 0.00 in0.0 mm 0.00 in0.0 mm
03:41 PM 30.0°F-1.1°C 0.0°F-17.8°C 27% 8.1 mph NW13.0 kmh NW 9.2 mph14.8 kmh 28.51 in965.5 mb - 0.00 in0.0 mm 0.00 in0.0 mm
03:42 PM 30.2°F-1.0°C 0.2°F-17.7°C 27% 6.9 mph NNW11.1 kmh NNW 8.1 mph13.0 kmh 28.51 in965.5 mb - 0.00 in0.0 mm 0.00 in0.0 mm
03:43 PM 30.2°F-1.0°C 0.2°F-17.7°C 27% 4.6 mph NNW7.4 kmh NNW 4.6 mph7.4 kmh 28.51 in965.5 mb - 0.00 in0.0 mm 0.00 in0.0 mm
03:44 PM 30.3°F-0.9°C 0.3°F-17.6°C 27% 4.6 mph N7.4 kmh N 5.8 mph9.3 kmh 28.51 in965.5 mb - 0.00 in0.0 mm 0.00 in0.0 mm
03:45 PM 30.4°F-0.9°C 0.3°F-17.6°C 27% 4.6 mph NNE7.4 kmh NNE 5.8 mph9.3 kmh 28.51 in965.5 mb - 0.00 in0.0 mm 0.00 in0.0 mm
03:46 PM 30.6°F-0.8°C 0.5°F-17.5°C 27% 3.5 mph NE5.6 kmh NE 4.6 mph7.4 kmh 28.51 in965.5 mb - 0.00 in0.0 mm 0.00 in0.0 mm
03:47 PM 30.7°F-0.7°C 0.6°F-17.4°C 27% 4.6 mph N7.4 kmh N 4.6 mph7.4 kmh 28.51 in965.5 mb - 0.00 in0.0 mm 0.00 in0.0 mm
03:48 PM 30.7°F-0.7°C 0.6°F-17.4°C 27% 4.6 mph N7.4 kmh N 6.9 mph11.1 kmh 28.51 in965.5 mb - 0.00 in0.0 mm 0.00 in0.0 mm
03:49 PM 30.4°F-0.9°C 0.4°F-17.6°C 27% 5.8 mph W9.3 kmh W 6.9 mph11.1 kmh 28.51 in965.5 mb - 0.00 in0.0 mm 0.00 in0.0 mm
03:50 PM 30.4°F-0.9°C 0.3°F-17.6°C 27% 4.6 mph NW7.4 kmh NW 5.8 mph9.3 kmh 28.51 in965.5 mb - 0.00 in0.0 mm 0.00 in0.0 mm
03:51 PM 30.4°F-0.9°C 0.3°F-17.6°C 27% 5.8 mph NNW9.3 kmh NNW 6.9 mph11.1 kmh 28.51 in965.5 mb - 0.00 in0.0 mm 0.00 in0.0 mm
03:52 PM 30.3°F-0.9°C 0.2°F-17.7°C 27% 6.9 mph WNW11.1 kmh WNW 8.1 mph13.0 kmh 28.51 in965.5 mb - 0.00 in0.0 mm 0.00 in0.0 mm
03:53 PM 30.4°F-0.9°C 0.3°F-17.6°C 27% 6.9 mph WNW11.1 kmh WNW 9.2 mph14.8 kmh 28.51 in965.5 mb - 0.00 in0.0 mm 0.00 in0.0 mm
03:54 PM 30.2°F-1.0°C 0.2°F-17.7°C 27% 8.1 mph NW13.0 kmh NW 9.2 mph14.8 kmh 28.51 in965.5 mb - 0.00 in0.0 mm 0.00 in0.0 mm
03:55 PM 29.9°F-1.2°C -0.1°F-17.8°C 27% 5.8 mph N9.3 kmh N 5.8 mph9.3 kmh 28.51 in965.5 mb - 0.00 in0.0 mm 0.00 in0.0 mm
03:56 PM 29.8°F-1.2°C -0.2°F-17.9°C 27% 6.9 mph N11.1 kmh N 9.2 mph14.8 kmh 28.51 in965.5 mb - 0.00 in0.0 mm 0.00 in0.0 mm
03:57 PM 29.8°F-1.2°C -0.2°F-17.9°C 27% 8.1 mph NNE13.0 kmh NNE 6.9 mph11.1 kmh 28.51 in965.5 mb - 0.00 in0.0 mm 0.00 in0.0 mm
03:58 PM 29.6°F-1.3°C -0.3°F-17.9°C 27% 5.8 mph N9.3 kmh N 6.9 mph11.1 kmh 28.51 in965.5 mb - 0.00 in0.0 mm 0.00 in0.0 mm
03:59 PM 29.6°F-1.3°C 0.4°F-17.6°C 28% 4.6 mph N7.4 kmh N 4.6 mph7.4 kmh 28.51 in965.5 mb - 0.00 in0.0 mm 0.00 in0.0 mm
04:00 PM 29.8°F-1.2°C 0.6°F-17.4°C 28% 4.6 mph NE7.4 kmh NE 6.9 mph11.1 kmh 28.51 in965.5 mb - 0.00 in0.0 mm 0.00 in0.0 mm
04:01 PM 29.8°F-1.2°C 0.6°F-17.4°C 28% 5.8 mph SSE9.3 kmh SSE 6.9 mph11.1 kmh 28.52 in965.8 mb - 0.00 in0.0 mm 0.00 in0.0 mm
04:02 PM 29.8°F-1.2°C 0.6°F-17.4°C 28% 5.8 mph W9.3 kmh W 6.9 mph11.1 kmh 28.52 in965.8 mb - 0.00 in0.0 mm 0.00 in0.0 mm
04:03 PM 29.7°F-1.3°C 0.5°F-17.5°C 28% 5.8 mph NW9.3 kmh NW 6.9 mph11.1 kmh 28.52 in965.8 mb - 0.00 in0.0 mm 0.00 in0.0 mm
04:04 PM 29.8°F-1.2°C 0.6°F-17.4°C 28% 6.9 mph NW11.1 kmh NW 10.4 mph16.7 kmh 28.52 in965.8 mb - 0.00 in0.0 mm 0.00 in0.0 mm
04:05 PM 29.8°F-1.2°C 0.6°F-17.4°C 28% 6.9 mph W11.1 kmh W 6.9 mph11.1 kmh 28.52 in965.8 mb - 0.00 in0.0 mm 0.00 in0.0 mm
04:06 PM 29.7°F-1.3°C 0.5°F-17.5°C 28% 5.8 mph WSW9.3 kmh WSW 5.8 mph9.3 kmh 28.52 in965.8 mb - 0.00 in0.0 mm 0.00 in0.0 mm
04:07 PM 29.5°F-1.4°C 0.4°F-17.6°C 28% 4.6 mph ENE7.4 kmh ENE 5.8 mph9.3 kmh 28.52 in965.8 mb - 0.00 in0.0 mm 0.00 in0.0 mm
04:08 PM 29.7°F-1.3°C 0.5°F-17.5°C 28% 5.8 mph NNE9.3 kmh NNE 6.9 mph11.1 kmh 28.52 in965.8 mb - 0.00 in0.0 mm 0.00 in0.0 mm
04:09 PM 29.7°F-1.3°C 0.5°F-17.5°C 28% 5.8 mph N9.3 kmh N 6.9 mph11.1 kmh 28.52 in965.8 mb - 0.00 in0.0 mm 0.00 in0.0 mm
04:10 PM 29.8°F-1.2°C 0.6°F-17.4°C 28% 3.5 mph W5.6 kmh W 4.6 mph7.4 kmh 28.52 in965.8 mb - 0.00 in0.0 mm 0.00 in0.0 mm
04:11 PM 29.8°F-1.2°C 0.6°F-17.4°C 28% 3.5 mph NNW5.6 kmh NNW 5.8 mph9.3 kmh 28.52 in965.8 mb - 0.00 in0.0 mm 0.00 in0.0 mm
04:12 PM 29.8°F-1.2°C 0.6°F-17.4°C 28% 4.6 mph NW7.4 kmh NW 5.8 mph9.3 kmh 28.52 in965.8 mb - 0.00 in0.0 mm 0.00 in0.0 mm
04:13 PM 29.9°F-1.2°C 0.7°F-17.4°C 28% 4.6 mph NNW7.4 kmh NNW 5.8 mph9.3 kmh 28.52 in965.8 mb - 0.00 in0.0 mm 0.00 in0.0 mm
04:14 PM 30.0°F-1.1°C 0.8°F-17.3°C 28% 4.6 mph NW7.4 kmh NW 5.8 mph9.3 kmh 28.53 in966.1 mb - 0.00 in0.0 mm 0.00 in0.0 mm
04:15 PM 30.0°F-1.1°C 0.8°F-17.3°C 28% 4.6 mph NW7.4 kmh NW 4.6 mph7.4 kmh 28.53 in966.1 mb - 0.00 in0.0 mm 0.00 in0.0 mm
04:16 PM 29.9°F-1.2°C 0.7°F-17.4°C 28% 4.6 mph NNW7.4 kmh NNW 5.8 mph9.3 kmh 28.53 in966.1 mb - 0.00 in0.0 mm 0.00 in0.0 mm
04:17 PM 29.7°F-1.3°C 1.2°F-17.1°C 29% 4.6 mph N7.4 kmh N 5.8 mph9.3 kmh 28.53 in966.1 mb - 0.00 in0.0 mm 0.00 in0.0 mm
04:18 PM 29.4°F-1.4°C 1.0°F-17.2°C 29% 4.6 mph NW7.4 kmh NW 6.9 mph11.1 kmh 28.53 in966.1 mb - 0.00 in0.0 mm 0.00 in0.0 mm
04:19 PM 29.2°F-1.6°C 0.8°F-17.3°C 29% 4.6 mph NE7.4 kmh NE 6.9 mph11.1 kmh 28.53 in966.1 mb - 0.00 in0.0 mm 0.00 in0.0 mm
04:20 PM 29.4°F-1.4°C 1.0°F-17.2°C 29% 4.6 mph NNW7.4 kmh NNW 6.9 mph11.1 kmh 28.53 in966.1 mb - 0.00 in0.0 mm 0.00 in0.0 mm
04:21 PM 29.7°F-1.3°C 1.2°F-17.1°C 29% 3.5 mph NNW5.6 kmh NNW 5.8 mph9.3 kmh 28.53 in966.1 mb - 0.00 in0.0 mm 0.00 in0.0 mm
04:22 PM 29.7°F-1.3°C 1.3°F-17.1°C 29% 4.6 mph WNW7.4 kmh WNW 6.9 mph11.1 kmh 28.53 in966.1 mb - 0.00 in0.0 mm 0.00 in0.0 mm
04:23 PM 29.7°F-1.3°C 1.3°F-17.1°C 29% 5.8 mph NE9.3 kmh NE 6.9 mph11.1 kmh 28.53 in966.1 mb - 0.00 in0.0 mm 0.00 in0.0 mm
04:24 PM 29.6°F-1.3°C 0.4°F-17.6°C 28% 5.8 mph N9.3 kmh N 6.9 mph11.1 kmh 28.53 in966.1 mb - 0.00 in0.0 mm 0.00 in0.0 mm
04:25 PM 29.3°F-1.5°C 0.2°F-17.7°C 28% 5.8 mph NNE9.3 kmh NNE 6.9 mph11.1 kmh 28.53 in966.1 mb - 0.00 in0.0 mm 0.00 in0.0 mm
04:26 PM 29.3°F-1.5°C 0.2°F-17.7°C 28% 5.8 mph NNE9.3 kmh NNE 6.9 mph11.1 kmh 28.53 in966.1 mb - 0.00 in0.0 mm 0.00 in0.0 mm
04:27 PM 29.2°F-1.6°C 0.1°F-17.7°C 28% 4.6 mph NNE7.4 kmh NNE 3.5 mph5.6 kmh 28.53 in966.1 mb - 0.00 in0.0 mm 0.00 in0.0 mm
04:28 PM 29.5°F-1.4°C 0.4°F-17.6°C 28% 3.5 mph N5.6 kmh N 4.6 mph7.4 kmh 28.53 in966.1 mb - 0.00 in0.0 mm 0.00 in0.0 mm
04:29 PM 29.6°F-1.3°C 1.1°F-17.2°C 29% 3.5 mph NE5.6 kmh NE 5.8 mph9.3 kmh 28.53 in966.1 mb - 0.00 in0.0 mm 0.00 in0.0 mm
04:30 PM 29.6°F-1.3°C 1.2°F-17.1°C 29% 4.6 mph NE7.4 kmh NE 5.8 mph9.3 kmh 28.53 in966.1 mb - 0.00 in0.0 mm 0.00 in0.0 mm
04:31 PM 29.7°F-1.3°C 0.5°F-17.5°C 28% 4.6 mph NNW7.4 kmh NNW 5.8 mph9.3 kmh 28.53 in966.1 mb - 0.00 in0.0 mm 0.00 in0.0 mm
04:32 PM 29.6°F-1.3°C 0.4°F-17.6°C 28% 4.6 mph NE7.4 kmh NE 5.8 mph9.3 kmh 28.53 in966.1 mb - 0.00 in0.0 mm 0.00 in0.0 mm
04:33 PM 29.5°F-1.4°C 0.3°F-17.6°C 28% 3.5 mph NNW5.6 kmh NNW 3.5 mph5.6 kmh 28.53 in966.1 mb - 0.00 in0.0 mm 0.00 in0.0 mm
04:34 PM 29.5°F-1.4°C 0.3°F-17.6°C 28% 2.3 mph SSW3.7 kmh SSW 3.5 mph5.6 kmh 28.53 in966.1 mb - 0.00 in0.0 mm 0.00 in0.0 mm
04:35 PM 29.5°F-1.4°C 0.3°F-17.6°C 28% 3.5 mph N5.6 kmh N 8.1 mph13.0 kmh 28.53 in966.1 mb - 0.00 in0.0 mm 0.00 in0.0 mm
04:36 PM 29.2°F-1.6°C 0.1°F-17.7°C 28% 6.9 mph NE11.1 kmh NE 8.1 mph13.0 kmh 28.53 in966.1 mb - 0.00 in0.0 mm 0.00 in0.0 mm
04:37 PM 29.1°F-1.6°C 0.0°F-17.8°C 28% 3.5 mph NE5.6 kmh NE 4.6 mph7.4 kmh 28.53 in966.1 mb - 0.00 in0.0 mm 0.00 in0.0 mm
04:38 PM 29.1°F-1.6°C 0.0°F-17.8°C 28% 3.5 mph NW5.6 kmh NW 6.9 mph11.1 kmh 28.53 in966.1 mb - 0.00 in0.0 mm 0.00 in0.0 mm
04:39 PM 28.9°F-1.7°C 0.5°F-17.5°C 29% 4.6 mph NW7.4 kmh NW 6.9 mph11.1 kmh 28.53 in966.1 mb - 0.00 in0.0 mm 0.00 in0.0 mm
04:40 PM 28.6°F-1.9°C 0.3°F-17.6°C 29% 4.6 mph NW7.4 kmh NW 5.8 mph9.3 kmh 28.53 in966.1 mb - 0.00 in0.0 mm 0.00 in0.0 mm
04:41 PM 28.6°F-1.9°C 0.3°F-17.6°C 29% 5.8 mph W9.3 kmh W 9.2 mph14.8 kmh 28.53 in966.1 mb - 0.00 in0.0 mm 0.00 in0.0 mm
04:42 PM 28.5°F-1.9°C 0.2°F-17.7°C 29% 6.9 mph NW11.1 kmh NW 10.4 mph16.7 kmh 28.53 in966.1 mb - 0.00 in0.0 mm 0.00 in0.0 mm
04:43 PM 28.3°F-2.1°C 0.0°F-17.8°C 29% 6.9 mph WSW11.1 kmh WSW 10.4 mph16.7 kmh 28.53 in966.1 mb - 0.00 in0.0 mm 0.00 in0.0 mm
04:44 PM 28.0°F-2.2°C -0.2°F-17.9°C 29% 4.6 mph W7.4 kmh W 5.8 mph9.3 kmh 28.53 in966.1 mb - 0.00 in0.0 mm 0.00 in0.0 mm
04:45 PM 28.0°F-2.2°C -0.2°F-17.9°C 29% 5.8 mph W9.3 kmh W 5.8 mph9.3 kmh 28.53 in966.1 mb - 0.00 in0.0 mm 0.00 in0.0 mm
04:46 PM 27.7°F-2.4°C 0.3°F-17.6°C 30% 2.3 mph W3.7 kmh W 6.9 mph11.1 kmh 28.53 in966.1 mb - 0.00 in0.0 mm 0.00 in0.0 mm
04:47 PM 27.9°F-2.3°C 0.4°F-17.6°C 30% 4.6 mph NW7.4 kmh NW 8.1 mph13.0 kmh 28.53 in966.1 mb - 0.00 in0.0 mm 0.00 in0.0 mm
04:48 PM 28.1°F-2.2°C 0.6°F-17.4°C 30% 4.6 mph NNW7.4 kmh NNW 3.5 mph5.6 kmh 28.53 in966.1 mb - 0.00 in0.0 mm 0.00 in0.0 mm
04:49 PM 28.2°F-2.1°C 0.7°F-17.4°C 30% 3.5 mph NNW5.6 kmh NNW 5.8 mph9.3 kmh 28.53 in966.1 mb - 0.00 in0.0 mm 0.00 in0.0 mm
04:50 PM 28.2°F-2.1°C 0.7°F-17.4°C 30% 5.8 mph N9.3 kmh N 6.9 mph11.1 kmh 28.53 in966.1 mb - 0.00 in0.0 mm 0.00 in0.0 mm
04:51 PM 28.1°F-2.2°C 0.6°F-17.4°C 30% 3.5 mph NW5.6 kmh NW 1.2 mph1.9 kmh 28.53 in966.1 mb - 0.00 in0.0 mm 0.00 in0.0 mm
04:52 PM 27.9°F-2.3°C 1.1°F-17.2°C 31% 2.3 mph NW3.7 kmh NW 4.6 mph7.4 kmh 28.53 in966.1 mb - 0.00 in0.0 mm 0.00 in0.0 mm
04:53 PM 27.9°F-2.3°C 1.1°F-17.2°C 31% 4.6 mph NNW7.4 kmh NNW 6.9 mph11.1 kmh 28.53 in966.1 mb - 0.00 in0.0 mm 0.00 in0.0 mm
04:54 PM 27.8°F-2.3°C 1.1°F-17.2°C 31% 4.6 mph NNE7.4 kmh NNE 6.9 mph11.1 kmh 28.53 in966.1 mb - 0.00 in0.0 mm 0.00 in0.0 mm
04:55 PM 27.6°F-2.4°C 0.8°F-17.3°C 31% 2.3 mph WSW3.7 kmh WSW 2.3 mph3.7 kmh 28.53 in966.1 mb - 0.00 in0.0 mm 0.00 in0.0 mm
04:56 PM 27.8°F-2.3°C 1.0°F-17.2°C 31% 3.5 mph N5.6 kmh N 4.6 mph7.4 kmh 28.53 in966.1 mb - 0.00 in0.0 mm 0.00 in0.0 mm
04:57 PM 27.8°F-2.3°C 1.1°F-17.2°C 31% 4.6 mph NW7.4 kmh NW 6.9 mph11.1 kmh 28.53 in966.1 mb - 0.00 in0.0 mm 0.00 in0.0 mm
04:58 PM 27.7°F-2.4°C 0.9°F-17.3°C 31% 5.8 mph NW9.3 kmh NW 6.9 mph11.1 kmh 28.53 in966.1 mb - 0.00 in0.0 mm 0.00 in0.0 mm
04:59 PM 27.6°F-2.4°C 0.9°F-17.3°C 31% 5.8 mph N9.3 kmh N 6.9 mph11.1 kmh 28.53 in966.1 mb - 0.00 in0.0 mm 0.00 in0.0 mm
05:00 PM 27.3°F-2.6°C 0.6°F-17.4°C 31% 4.6 mph W7.4 kmh W 5.8 mph9.3 kmh 28.53 in966.1 mb - 0.00 in0.0 mm 0.00 in0.0 mm
05:01 PM 27.0°F-2.8°C 0.3°F-17.6°C 31% 4.6 mph W7.4 kmh W 5.8 mph9.3 kmh 28.53 in966.1 mb - 0.00 in0.0 mm 0.00 in0.0 mm
05:02 PM 26.8°F-2.9°C 0.8°F-17.3°C 32% 3.5 mph NNE5.6 kmh NNE 5.8 mph9.3 kmh 28.53 in966.1 mb - 0.00 in0.0 mm 0.00 in0.0 mm
05:03 PM 26.8°F-2.9°C 0.8°F-17.3°C 32% 3.5 mph N5.6 kmh N 5.8 mph9.3 kmh 28.53 in966.1 mb - 0.00 in0.0 mm 0.00 in0.0 mm
05:04 PM 26.8°F-2.9°C 0.8°F-17.3°C 32% 4.6 mph W7.4 kmh W 5.8 mph9.3 kmh 28.53 in966.1 mb - 0.00 in0.0 mm 0.00 in0.0 mm
05:05 PM 26.6°F-3.0°C 0.7°F-17.4°C 32% 5.8 mph NNW9.3 kmh NNW 6.9 mph11.1 kmh 28.53 in966.1 mb - 0.00 in0.0 mm 0.00 in0.0 mm
05:06 PM 26.6°F-3.0°C 0.7°F-17.4°C 32% 4.6 mph WNW7.4 kmh WNW 5.8 mph9.3 kmh 28.53 in966.1 mb - 0.00 in0.0 mm 0.00 in0.0 mm
05:07 PM 26.5°F-3.1°C 0.5°F-17.5°C 32% 4.6 mph WNW7.4 kmh WNW 5.8 mph9.3 kmh 28.53 in966.1 mb - 0.00 in0.0 mm 0.00 in0.0 mm
05:08 PM 26.2°F-3.2°C 0.3°F-17.6°C 32% 3.5 mph N5.6 kmh N 2.3 mph3.7 kmh 28.53 in966.1 mb - 0.00 in0.0 mm 0.00 in0.0 mm
05:09 PM 26.2°F-3.2°C 0.3°F-17.6°C 32% 1.2 mph NNE1.9 kmh NNE 2.3 mph3.7 kmh 28.53 in966.1 mb - 0.00 in0.0 mm 0.00 in0.0 mm
05:10 PM 26.5°F-3.1°C 0.6°F-17.4°C 32% 3.5 mph NNE5.6 kmh NNE 6.9 mph11.1 kmh 28.53 in966.1 mb - 0.00 in0.0 mm 0.00 in0.0 mm
05:11 PM 26.3°F-3.2°C 0.4°F-17.6°C 32% 5.8 mph NNW9.3 kmh NNW 5.8 mph9.3 kmh 28.53 in966.1 mb - 0.00 in0.0 mm 0.00 in0.0 mm
05:12 PM 26.1°F-3.3°C 0.2°F-17.7°C 32% 4.6 mph WSW7.4 kmh WSW 5.8 mph9.3 kmh 28.53 in966.1 mb - 0.00 in0.0 mm 0.00 in0.0 mm
05:13 PM 25.9°F-3.4°C 0.7°F-17.4°C 33% 4.6 mph NE7.4 kmh NE 6.9 mph11.1 kmh 28.53 in966.1 mb - 0.00 in0.0 mm 0.00 in0.0 mm
05:14 PM 25.9°F-3.4°C 0.7°F-17.4°C 33% 5.8 mph N9.3 kmh N 5.8 mph9.3 kmh 28.53 in966.1 mb - 0.00 in0.0 mm 0.00 in0.0 mm
05:15 PM 25.9°F-3.4°C 0.7°F-17.4°C 33% 3.5 mph NNE5.6 kmh NNE 4.6 mph7.4 kmh 28.53 in966.1 mb - 0.00 in0.0 mm 0.00 in0.0 mm
05:16 PM 26.1°F-3.3°C 0.9°F-17.3°C 33% 2.3 mph N3.7 kmh N 2.3 mph3.7 kmh 28.53 in966.1 mb - 0.00 in0.0 mm 0.00 in0.0 mm
05:17 PM 26.1°F-3.3°C 0.8°F-17.3°C 33% 2.3 mph NE3.7 kmh NE 4.6 mph7.4 kmh 28.53 in966.1 mb - 0.00 in0.0 mm 0.00 in0.0 mm
05:18 PM 25.9°F-3.4°C 0.7°F-17.4°C 33% 3.5 mph WNW5.6 kmh WNW 3.5 mph5.6 kmh 28.53 in966.1 mb - 0.00 in0.0 mm 0.00 in0.0 mm
05:19 PM 25.6°F-3.6°C 0.4°F-17.6°C 33% 2.3 mph W3.7 kmh W 4.6 mph7.4 kmh 28.53 in966.1 mb - 0.00 in0.0 mm 0.00 in0.0 mm
05:20 PM 25.3°F-3.7°C 0.2°F-17.7°C 33% 3.5 mph NW5.6 kmh NW 5.8 mph9.3 kmh 28.53 in966.1 mb - 0.00 in0.0 mm 0.00 in0.0 mm
05:21 PM 25.3°F-3.7°C 0.1°F-17.7°C 33% 5.8 mph NE9.3 kmh NE 5.8 mph9.3 kmh 28.53 in966.1 mb - 0.00 in0.0 mm 0.00 in0.0 mm
05:22 PM 25.2°F-3.8°C 0.0°F-17.8°C 33% 3.5 mph N5.6 kmh N 4.6 mph7.4 kmh 28.53 in966.1 mb - 0.00 in0.0 mm 0.00 in0.0 mm
05:23 PM 25.0°F-3.9°C 0.5°F-17.5°C 34% 2.3 mph NW3.7 kmh NW 5.8 mph9.3 kmh 28.53 in966.1 mb - 0.00 in0.0 mm 0.00 in0.0 mm
05:24 PM 24.8°F-4.0°C 0.4°F-17.6°C 34% 4.6 mph W7.4 kmh W 5.8 mph9.3 kmh 28.53 in966.1 mb - 0.00 in0.0 mm 0.00 in0.0 mm
05:25 PM 24.8°F-4.0°C 0.4°F-17.6°C 34% 2.3 mph N3.7 kmh N 4.6 mph7.4 kmh 28.53 in966.1 mb - 0.00 in0.0 mm 0.00 in0.0 mm
05:26 PM 24.7°F-4.1°C 0.2°F-17.7°C 34% 3.5 mph WNW5.6 kmh WNW 4.6 mph7.4 kmh 28.53 in966.1 mb - 0.00 in0.0 mm 0.00 in0.0 mm
05:27 PM 24.4°F-4.2°C 0.0°F-17.8°C 34% 2.3 mph WNW3.7 kmh WNW 3.5 mph5.6 kmh 28.53 in966.1 mb - 0.00 in0.0 mm 0.00 in0.0 mm
05:28 PM 24.3°F-4.3°C -0.1°F-17.8°C 34% 2.3 mph NW3.7 kmh NW 3.5 mph5.6 kmh 28.53 in966.1 mb - 0.00 in0.0 mm 0.00 in0.0 mm
05:29 PM 24.3°F-4.3°C -0.1°F-17.8°C 34% 3.5 mph WNW5.6 kmh WNW 4.6 mph7.4 kmh 28.53 in966.1 mb - 0.00 in0.0 mm 0.00 in0.0 mm
05:30 PM 24.3°F-4.3°C -0.1°F-17.8°C 34% 2.3 mph NNE3.7 kmh NNE 2.3 mph3.7 kmh 28.53 in966.1 mb - 0.00 in0.0 mm 0.00 in0.0 mm
05:31 PM 24.2°F-4.3°C 0.4°F-17.6°C 35% 2.3 mph NW3.7 kmh NW 4.6 mph7.4 kmh 28.53 in966.1 mb - 0.00 in0.0 mm 0.00 in0.0 mm
05:32 PM 23.9°F-4.5°C 0.2°F-17.7°C 35% 3.5 mph WNW5.6 kmh WNW 4.6 mph7.4 kmh 28.53 in966.1 mb - 0.00 in0.0 mm 0.00 in0.0 mm
05:33 PM 23.7°F-4.6°C 0.0°F-17.8°C 35% 3.5 mph N5.6 kmh N 4.6 mph7.4 kmh 28.53 in966.1 mb - 0.00 in0.0 mm 0.00 in0.0 mm
05:34 PM 23.7°F-4.6°C 0.0°F-17.8°C 35% 3.5 mph N5.6 kmh N 3.5 mph5.6 kmh 28.53 in966.1 mb - 0.00 in0.0 mm 0.00 in0.0 mm
05:35 PM 23.7°F-4.6°C 0.0°F-17.8°C 35% 3.5 mph NNW5.6 kmh NNW 4.6 mph7.4 kmh 28.53 in966.1 mb - 0.00 in0.0 mm 0.00 in0.0 mm
05:36 PM 23.5°F-4.7°C -0.2°F-17.9°C 35% 3.5 mph ENE5.6 kmh ENE 4.6 mph7.4 kmh 28.53 in966.1 mb - 0.00 in0.0 mm 0.00 in0.0 mm
05:37 PM 23.5°F-4.7°C -0.2°F-17.9°C 35% 1.2 mph N1.9 kmh N -- 28.53 in966.1 mb - 0.00 in0.0 mm 0.00 in0.0 mm
05:38 PM 23.5°F-4.7°C -0.2°F-17.9°C 35% Calm Calm 2.3 mph3.7 kmh 28.53 in966.1 mb - 0.00 in0.0 mm 0.00 in0.0 mm
05:39 PM 23.4°F-4.8°C -0.2°F-17.9°C 35% 1.2 mph W1.9 kmh W 3.5 mph5.6 kmh 28.53 in966.1 mb - 0.00 in0.0 mm 0.00 in0.0 mm
05:40 PM 23.2°F-4.9°C -0.5°F-18.1°C 35% 3.5 mph NW5.6 kmh NW 3.5 mph5.6 kmh 28.53 in966.1 mb - 0.00 in0.0 mm 0.00 in0.0 mm
05:41 PM 23.0°F-5.0°C 0.0°F-17.8°C 36% 2.3 mph NW3.7 kmh NW 2.3 mph3.7 kmh 28.53 in966.1 mb - 0.00 in0.0 mm 0.00 in0.0 mm
05:42 PM 23.0°F-5.0°C 0.0°F-17.8°C 36% 2.3 mph SW3.7 kmh SW 2.3 mph3.7 kmh 28.53 in966.1 mb - 0.00 in0.0 mm 0.00 in0.0 mm
05:43 PM 23.0°F-5.0°C 0.0°F-17.8°C 36% 2.3 mph WNW3.7 kmh WNW 2.3 mph3.7 kmh 28.53 in966.1 mb - 0.00 in0.0 mm 0.00 in0.0 mm
05:44 PM 23.0°F-5.0°C 0.0°F-17.8°C 36% 1.2 mph NNE1.9 kmh NNE 2.3 mph3.7 kmh 28.53 in966.1 mb - 0.00 in0.0 mm 0.00 in0.0 mm
05:45 PM 22.9°F-5.1°C -0.1°F-17.8°C 36% 2.3 mph N3.7 kmh N 5.8 mph9.3 kmh 28.53 in966.1 mb - 0.00 in0.0 mm 0.00 in0.0 mm
05:46 PM 22.6°F-5.2°C -0.4°F-18.0°C 36% 3.5 mph N5.6 kmh N 3.5 mph5.6 kmh 28.53 in966.1 mb - 0.00 in0.0 mm 0.00 in0.0 mm
05:47 PM 22.6°F-5.2°C -0.4°F-18.0°C 36% 2.3 mph N3.7 kmh N 3.5 mph5.6 kmh 28.53 in966.1 mb - 0.00 in0.0 mm 0.00 in0.0 mm
05:48 PM 22.6°F-5.2°C -0.4°F-18.0°C 36% 2.3 mph N3.7 kmh N 3.5 mph5.6 kmh 28.53 in966.1 mb - 0.00 in0.0 mm 0.00 in0.0 mm
05:49 PM 22.6°F-5.2°C -0.4°F-18.0°C 36% 1.2 mph NW1.9 kmh NW 1.2 mph1.9 kmh 28.53 in966.1 mb - 0.00 in0.0 mm 0.00 in0.0 mm
05:50 PM 22.5°F-5.3°C -0.4°F-18.0°C 36% 1.2 mph N1.9 kmh N 3.5 mph5.6 kmh 28.53 in966.1 mb - 0.00 in0.0 mm 0.00 in0.0 mm
05:51 PM 22.3°F-5.4°C -0.6°F-18.1°C 36% 2.3 mph WNW3.7 kmh WNW 4.6 mph7.4 kmh 28.53 in966.1 mb - 0.00 in0.0 mm 0.00 in0.0 mm
05:52 PM 22.3°F-5.4°C -0.7°F-18.2°C 36% 2.3 mph NW3.7 kmh NW 2.3 mph3.7 kmh 28.53 in966.1 mb - 0.00 in0.0 mm 0.00 in0.0 mm
05:53 PM 22.1°F-5.5°C -0.8°F-18.2°C 36% 2.3 mph WNW3.7 kmh WNW 2.3 mph3.7 kmh 28.53 in966.1 mb - 0.00 in0.0 mm 0.00 in0.0 mm
05:54 PM 22.1°F-5.5°C -0.3°F-17.9°C 37% 2.3 mph NW3.7 kmh NW 2.3 mph3.7 kmh 28.53 in966.1 mb - 0.00 in0.0 mm 0.00 in0.0 mm
05:55 PM 22.1°F-5.5°C -0.3°F-17.9°C 37% 1.2 mph N1.9 kmh N 2.3 mph3.7 kmh 28.53 in966.1 mb - 0.00 in0.0 mm 0.00 in0.0 mm
05:56 PM 22.0°F-5.6°C -0.3°F-17.9°C 37% 1.2 mph N1.9 kmh N 3.5 mph5.6 kmh 28.53 in966.1 mb - 0.00 in0.0 mm 0.00 in0.0 mm
05:57 PM 21.9°F-5.6°C -0.4°F-18.0°C 37% 2.3 mph N3.7 kmh N 3.5 mph5.6 kmh 28.53 in966.1 mb - 0.00 in0.0 mm 0.00 in0.0 mm
05:58 PM 21.9°F-5.6°C -0.4°F-18.0°C 37% 1.2 mph N1.9 kmh N 2.3 mph3.7 kmh 28.53 in966.1 mb - 0.00 in0.0 mm 0.00 in0.0 mm
05:59 PM 21.7°F-5.7°C -0.6°F-18.1°C 37% 2.3 mph N3.7 kmh N 2.3 mph3.7 kmh 28.53 in966.1 mb - 0.00 in0.0 mm 0.00 in0.0 mm
06:00 PM 21.7°F-5.7°C -0.6°F-18.1°C 37% Calm Calm 1.2 mph1.9 kmh 28.53 in966.1 mb - 0.00 in0.0 mm 0.00 in0.0 mm
06:01 PM 21.6°F-5.8°C -0.7°F-18.2°C 37% 2.3 mph N3.7 kmh N 3.5 mph5.6 kmh 28.53 in966.1 mb - 0.00 in0.0 mm 0.00 in0.0 mm
06:02 PM 21.6°F-5.8°C -0.1°F-17.8°C 38% 1.2 mph NNE1.9 kmh NNE 1.2 mph1.9 kmh 28.53 in966.1 mb - 0.00 in0.0 mm 0.00 in0.0 mm
06:03 PM 21.6°F-5.8°C -0.1°F-17.8°C 38% Calm Calm 2.3 mph3.7 kmh 28.53 in966.1 mb - 0.00 in0.0 mm 0.00 in0.0 mm
06:04 PM 21.3°F-5.9°C -0.4°F-18.0°C 38% 2.3 mph NW3.7 kmh NW 1.2 mph1.9 kmh 28.53 in966.1 mb - 0.00 in0.0 mm 0.00 in0.0 mm
06:05 PM 21.0°F-6.1°C -0.6°F-18.1°C 38% 1.2 mph NW1.9 kmh NW 1.2 mph1.9 kmh 28.53 in966.1 mb - 0.00 in0.0 mm 0.00 in0.0 mm
06:06 PM 21.0°F-6.1°C -0.7°F-18.2°C 38% 1.2 mph NNW1.9 kmh NNW 1.2 mph1.9 kmh 28.53 in966.1 mb - 0.00 in0.0 mm 0.00 in0.0 mm
06:07 PM 21.0°F-6.1°C -0.7°F-18.2°C 38% Calm Calm -- 28.53 in966.1 mb - 0.00 in0.0 mm 0.00 in0.0 mm
06:08 PM 21.0°F-6.1°C -0.7°F-18.2°C 38% Calm Calm 2.3 mph3.7 kmh 28.53 in966.1 mb - 0.00 in0.0 mm 0.00 in0.0 mm
06:09 PM 20.9°F-6.2°C -0.8°F-18.2°C 38% 1.2 mph NNE1.9 kmh NNE 1.2 mph1.9 kmh 28.53 in966.1 mb - 0.00 in0.0 mm 0.00 in0.0 mm
06:10 PM 20.8°F-6.2°C -0.9°F-18.3°C 38% 1.2 mph NNE1.9 kmh NNE 1.2 mph1.9 kmh 28.53 in966.1 mb - 0.00 in0.0 mm 0.00 in0.0 mm
06:11 PM 20.8°F-6.2°C -0.3°F-17.9°C 39% Calm Calm 2.3 mph3.7 kmh 28.53 in966.1 mb - 0.00 in0.0 mm 0.00 in0.0 mm
06:12 PM 20.8°F-6.2°C -0.3°F-17.9°C 39% 2.3 mph NNE3.7 kmh NNE 1.2 mph1.9 kmh 28.53 in966.1 mb - 0.00 in0.0 mm 0.00 in0.0 mm
06:13 PM 20.7°F-6.3°C -0.4°F-18.0°C 39% 2.3 mph NNE3.7 kmh NNE 2.3 mph3.7 kmh 28.53 in966.1 mb - 0.00 in0.0 mm 0.00 in0.0 mm
06:14 PM 20.5°F-6.4°C -0.6°F-18.1°C 39% 2.3 mph NNE3.7 kmh NNE 2.3 mph3.7 kmh 28.53 in966.1 mb - 0.00 in0.0 mm 0.00 in0.0 mm
06:15 PM 20.5°F-6.4°C -0.6°F-18.1°C 39% 1.2 mph NNE1.9 kmh NNE 1.2 mph1.9 kmh 28.53 in966.1 mb - 0.00 in0.0 mm 0.00 in0.0 mm
06:16 PM 20.4°F-6.4°C -0.7°F-18.2°C 39% 1.2 mph N1.9 kmh N 2.3 mph3.7 kmh 28.53 in966.1 mb - 0.00 in0.0 mm 0.00 in0.0 mm
06:17 PM 20.3°F-6.5°C -0.8°F-18.2°C 39% 2.3 mph N3.7 kmh N 3.5 mph5.6 kmh 28.53 in966.1 mb - 0.00 in0.0 mm 0.00 in0.0 mm
06:18 PM 20.3°F-6.5°C -0.8°F-18.2°C 39% 2.3 mph N3.7 kmh N 1.2 mph1.9 kmh 28.53 in966.1 mb - 0.00 in0.0 mm 0.00 in0.0 mm
06:19 PM 20.2°F-6.6°C -0.9°F-18.3°C 39% 1.2 mph NNW1.9 kmh NNW 1.2 mph1.9 kmh 28.53 in966.1 mb - 0.00 in0.0 mm 0.00 in0.0 mm
06:20 PM 20.1°F-6.6°C -0.9°F-18.3°C 39% Calm Calm 1.2 mph1.9 kmh 28.53 in966.1 mb - 0.00 in0.0 mm 0.00 in0.0 mm
06:21 PM 20.1°F-6.6°C -0.4°F-18.0°C 40% Calm Calm 1.2 mph1.9 kmh 28.53 in966.1 mb - 0.00 in0.0 mm 0.00 in0.0 mm
06:22 PM 20.1°F-6.6°C -0.4°F-18.0°C 40% Calm Calm 2.3 mph3.7 kmh 28.53 in966.1 mb - 0.00 in0.0 mm 0.00 in0.0 mm
06:23 PM 19.9°F-6.7°C -0.6°F-18.1°C 40% 1.2 mph N1.9 kmh N 2.3 mph3.7 kmh 28.53 in966.1 mb - 0.00 in0.0 mm 0.00 in0.0 mm
06:24 PM 19.9°F-6.7°C -0.6°F-18.1°C 40% 1.2 mph N1.9 kmh N 2.3 mph3.7 kmh 28.53 in966.1 mb - 0.00 in0.0 mm 0.00 in0.0 mm
06:25 PM 19.9°F-6.7°C -0.6°F-18.1°C 40% 2.3 mph NE3.7 kmh NE 2.3 mph3.7 kmh 28.53 in966.1 mb - 0.00 in0.0 mm 0.00 in0.0 mm
06:26 PM 19.9°F-6.7°C -0.6°F-18.1°C 40% 2.3 mph N3.7 kmh N 4.6 mph7.4 kmh 28.53 in966.1 mb - 0.00 in0.0 mm 0.00 in0.0 mm
06:27 PM 19.8°F-6.8°C -0.7°F-18.2°C 40% 2.3 mph NW3.7 kmh NW 2.3 mph3.7 kmh 28.53 in966.1 mb - 0.00 in0.0 mm 0.00 in0.0 mm
06:28 PM 19.8°F-6.8°C -0.7°F-18.2°C 40% 1.2 mph NW1.9 kmh NW 1.2 mph1.9 kmh 28.53 in966.1 mb - 0.00 in0.0 mm 0.00 in0.0 mm
06:29 PM 19.8°F-6.8°C -0.1°F-17.8°C 41% Calm Calm -- 28.53 in966.1 mb - 0.00 in0.0 mm 0.00 in0.0 mm
06:30 PM 19.8°F-6.8°C -0.1°F-17.8°C 41% Calm Calm -- 28.53 in966.1 mb - 0.00 in0.0 mm 0.00 in0.0 mm
06:31 PM 19.7°F-6.8°C -0.2°F-17.9°C 41% Calm Calm 1.2 mph1.9 kmh 28.53 in966.1 mb - 0.00 in0.0 mm 0.00 in0.0 mm
06:32 PM 19.6°F-6.9°C -0.3°F-17.9°C 41% 1.2 mph N1.9 kmh N 1.2 mph1.9 kmh 28.53 in966.1 mb - 0.00 in0.0 mm 0.00 in0.0 mm
06:33 PM 19.5°F-6.9°C -0.4°F-18.0°C 41% 1.2 mph NNE1.9 kmh NNE 2.3 mph3.7 kmh 28.53 in966.1 mb - 0.00 in0.0 mm 0.00 in0.0 mm
06:34 PM 19.4°F-7.0°C -0.5°F-18.1°C 41% 2.3 mph NNE3.7 kmh NNE 2.3 mph3.7 kmh 28.53 in966.1 mb - 0.00 in0.0 mm 0.00 in0.0 mm
06:35 PM 19.4°F-7.0°C -0.5°F-18.1°C 41% 2.3 mph NNE3.7 kmh NNE 2.3 mph3.7 kmh 28.53 in966.1 mb - 0.00 in0.0 mm 0.00 in0.0 mm
06:36 PM 19.4°F-7.0°C -0.5°F-18.1°C 41% 2.3 mph NE3.7 kmh NE 2.3 mph3.7 kmh 28.53 in966.1 mb - 0.00 in0.0 mm 0.00 in0.0 mm
06:37 PM 19.3°F-7.1°C -0.6°F-18.1°C 41% 1.2 mph NNE1.9 kmh NNE 1.2 mph1.9 kmh 28.53 in966.1 mb - 0.00 in0.0 mm 0.00 in0.0 mm
06:38 PM 19.2°F-7.1°C -0.7°F-18.2°C 41% 1.2 mph N1.9 kmh N 1.2 mph1.9 kmh 28.53 in966.1 mb - 0.00 in0.0 mm 0.00 in0.0 mm
06:39 PM 19.2°F-7.1°C -0.7°F-18.2°C 41% 1.2 mph N1.9 kmh N 1.2 mph1.9 kmh 28.53 in966.1 mb - 0.00 in0.0 mm 0.00 in0.0 mm
06:40 PM 19.2°F-7.1°C -0.7°F-18.2°C 41% 1.2 mph NNE1.9 kmh NNE 3.5 mph5.6 kmh 28.53 in966.1 mb - 0.00 in0.0 mm 0.00 in0.0 mm
06:41 PM 19.0°F-7.2°C -0.9°F-18.3°C 41% 2.3 mph N3.7 kmh N 2.3 mph3.7 kmh 28.53 in966.1 mb - 0.00 in0.0 mm 0.00 in0.0 mm
06:42 PM 19.0°F-7.2°C -0.9°F-18.3°C 41% 2.3 mph NW3.7 kmh NW 2.3 mph3.7 kmh 28.53 in966.1 mb - 0.00 in0.0 mm 0.00 in0.0 mm
06:43 PM 19.0°F-7.2°C -0.9°F-18.3°C 41% 1.2 mph NW1.9 kmh NW 2.3 mph3.7 kmh 28.53 in966.1 mb - 0.00 in0.0 mm 0.00 in0.0 mm
06:44 PM 18.9°F-7.3°C -0.9°F-18.3°C 41% 2.3 mph N3.7 kmh N 2.3 mph3.7 kmh 28.53 in966.1 mb - 0.00 in0.0 mm 0.00 in0.0 mm
06:45 PM 18.9°F-7.3°C -1.0°F-18.3°C 41% 2.3 mph NNW3.7 kmh NNW 2.3 mph3.7 kmh 28.53 in966.1 mb - 0.00 in0.0 mm 0.00 in0.0 mm
06:46 PM 18.8°F-7.3°C -0.5°F-18.1°C 42% 2.3 mph NW3.7 kmh NW 2.3 mph3.7 kmh 28.53 in966.1 mb - 0.00 in0.0 mm 0.00 in0.0 mm
06:47 PM 18.7°F-7.4°C -0.1°F-17.8°C 43% 2.3 mph NW3.7 kmh NW 2.3 mph3.7 kmh 28.53 in966.1 mb - 0.00 in0.0 mm 0.00 in0.0 mm
06:48 PM 18.7°F-7.4°C -0.1°F-17.8°C 43% 2.3 mph NNW3.7 kmh NNW 2.3 mph3.7 kmh 28.53 in966.1 mb - 0.00 in0.0 mm 0.00 in0.0 mm
06:49 PM 18.5°F-7.5°C 0.2°F-17.7°C 44% 2.3 mph NW3.7 kmh NW 2.3 mph3.7 kmh 28.53 in966.1 mb - 0.00 in0.0 mm 0.00 in0.0 mm
06:50 PM 18.5°F-7.5°C 0.2°F-17.7°C 44% 2.3 mph NNW3.7 kmh NNW 2.3 mph3.7 kmh 28.53 in966.1 mb - 0.00 in0.0 mm 0.00 in0.0 mm
06:51 PM 18.4°F-7.6°C 0.1°F-17.7°C 44% 2.3 mph NNW3.7 kmh NNW 3.5 mph5.6 kmh 28.53 in966.1 mb - 0.00 in0.0 mm 0.00 in0.0 mm
06:52 PM 18.3°F-7.6°C 0.0°F-17.8°C 44% 2.3 mph NNW3.7 kmh NNW 2.3 mph3.7 kmh 28.53 in966.1 mb - 0.00 in0.0 mm 0.00 in0.0 mm
06:53 PM 18.3°F-7.6°C 0.0°F-17.8°C 44% 2.3 mph N3.7 kmh N 2.3 mph3.7 kmh 28.53 in966.1 mb - 0.00 in0.0 mm 0.00 in0.0 mm
06:54 PM 18.3°F-7.6°C 0.0°F-17.8°C 44% 2.3 mph NNE3.7 kmh NNE 2.3 mph3.7 kmh 28.53 in966.1 mb - 0.00 in0.0 mm 0.00 in0.0 mm
06:55 PM 18.3°F-7.6°C 0.0°F-17.8°C 44% 2.3 mph N3.7 kmh N 2.3 mph3.7 kmh 28.53 in966.1 mb - 0.00 in0.0 mm 0.00 in0.0 mm
06:56 PM 18.3°F-7.6°C 0.0°F-17.8°C 44% 1.2 mph N1.9 kmh N 1.2 mph1.9 kmh 28.53 in966.1 mb - 0.00 in0.0 mm 0.00 in0.0 mm
06:57 PM 18.3°F-7.6°C 0.0°F-17.8°C 44% Calm Calm -- 28.53 in966.1 mb - 0.00 in0.0 mm 0.00 in0.0 mm
06:58 PM 18.3°F-7.6°C 0.0°F-17.8°C 44% 1.2 mph N1.9 kmh N 2.3 mph3.7 kmh 28.53 in966.1 mb - 0.00 in0.0 mm 0.00 in0.0 mm
06:59 PM 18.3°F-7.6°C 0.0°F-17.8°C 44% 2.3 mph NNE3.7 kmh NNE 3.5 mph5.6 kmh 28.53 in966.1 mb - 0.00 in0.0 mm 0.00 in0.0 mm
07:00 PM 18.3°F-7.6°C -0.5°F-18.1°C 43% 2.3 mph N3.7 kmh N 2.3 mph3.7 kmh 28.53 in966.1 mb - 0.00 in0.0 mm 0.00 in0.0 mm
07:01 PM 18.3°F-7.6°C -0.5°F-18.1°C 43% 2.3 mph N3.7 kmh N 2.3 mph3.7 kmh 28.53 in966.1 mb - 0.00 in0.0 mm 0.00 in0.0 mm
07:02 PM 18.3°F-7.6°C -0.5°F-18.1°C 43% 1.2 mph NNE1.9 kmh NNE 2.3 mph3.7 kmh 28.53 in966.1 mb - 0.00 in0.0 mm 0.00 in0.0 mm
07:03 PM 18.3°F-7.6°C -0.5°F-18.1°C 43% 1.2 mph N1.9 kmh N 2.3 mph3.7 kmh 28.53 in966.1 mb - 0.00 in0.0 mm 0.00 in0.0 mm
07:04 PM 18.3°F-7.6°C -0.5°F-18.1°C 43% 2.3 mph N3.7 kmh N 2.3 mph3.7 kmh 28.53 in966.1 mb - 0.00 in0.0 mm 0.00 in0.0 mm
07:05 PM 18.3°F-7.6°C -0.5°F-18.1°C 43% 2.3 mph N3.7 kmh N 2.3 mph3.7 kmh 28.53 in966.1 mb - 0.00 in0.0 mm 0.00 in0.0 mm
07:06 PM 18.3°F-7.6°C -0.5°F-18.1°C 43% 1.2 mph N1.9 kmh N 2.3 mph3.7 kmh 28.53 in966.1 mb - 0.00 in0.0 mm 0.00 in0.0 mm
07:07 PM 18.3°F-7.6°C -0.5°F-18.1°C 43% 2.3 mph NW3.7 kmh NW 2.3 mph3.7 kmh 28.53 in966.1 mb - 0.00 in0.0 mm 0.00 in0.0 mm
07:08 PM 18.3°F-7.6°C -0.5°F-18.1°C 43% 1.2 mph NW1.9 kmh NW 1.2 mph1.9 kmh 28.53 in966.1 mb - 0.00 in0.0 mm 0.00 in0.0 mm
07:09 PM 18.0°F-7.8°C -0.7°F-18.2°C 43% Calm Calm -- 28.53 in966.1 mb - 0.00 in0.0 mm 0.00 in0.0 mm
07:10 PM 17.9°F-7.8°C -0.8°F-18.2°C 43% Calm Calm -- 28.53 in966.1 mb - 0.00 in0.0 mm 0.00 in0.0 mm
07:11 PM 17.8°F-7.9°C -0.5°F-18.1°C 44% 1.2 mph N1.9 kmh N 5.8 mph9.3 kmh 28.53 in966.1 mb - 0.00 in0.0 mm 0.00 in0.0 mm
07:12 PM 17.8°F-7.9°C -0.5°F-18.1°C 44% 4.6 mph NNW7.4 kmh NNW 5.8 mph9.3 kmh 28.53 in966.1 mb - 0.00 in0.0 mm 0.00 in0.0 mm
07:13 PM 17.8°F-7.9°C -0.5°F-18.1°C 44% 3.5 mph NNW5.6 kmh NNW 3.5 mph5.6 kmh 28.53 in966.1 mb - 0.00 in0.0 mm 0.00 in0.0 mm
07:14 PM 17.7°F-7.9°C -0.6°F-18.1°C 44% 2.3 mph NNW3.7 kmh NNW 3.5 mph5.6 kmh 28.53 in966.1 mb - 0.00 in0.0 mm 0.00 in0.0 mm
07:15 PM 17.6°F-8.0°C -0.6°F-18.1°C 44% 2.3 mph NW3.7 kmh NW 3.5 mph5.6 kmh 28.53 in966.1 mb - 0.00 in0.0 mm 0.00 in0.0 mm
07:16 PM 17.6°F-8.0°C -0.6°F-18.1°C 44% 2.3 mph NW3.7 kmh NW 3.5 mph5.6 kmh 28.53 in966.1 mb - 0.00 in0.0 mm 0.00 in0.0 mm
07:17 PM 17.5°F-8.1°C -0.3°F-17.9°C 45% 2.3 mph WNW3.7 kmh WNW 2.3 mph3.7 kmh 28.53 in966.1 mb - 0.00 in0.0 mm 0.00 in0.0 mm
07:18 PM 17.4°F-8.1°C -0.4°F-18.0°C 45% 2.3 mph NNW3.7 kmh NNW 2.3 mph3.7 kmh 28.53 in966.1 mb - 0.00 in0.0 mm 0.00 in0.0 mm
07:19 PM 17.4°F-8.1°C -0.4°F-18.0°C 45% 2.3 mph N3.7 kmh N 2.3 mph3.7 kmh 28.53 in966.1 mb - 0.00 in0.0 mm 0.00 in0.0 mm
07:20 PM 17.4°F-8.1°C -0.4°F-18.0°C 45% 2.3 mph N3.7 kmh N 4.6 mph7.4 kmh 28.53 in966.1 mb - 0.00 in0.0 mm 0.00 in0.0 mm
07:21 PM 17.4°F-8.1°C -0.4°F-18.0°C 45% 3.5 mph NE5.6 kmh NE 3.5 mph5.6 kmh 28.53 in966.1 mb - 0.00 in0.0 mm 0.00 in0.0 mm
07:22 PM 17.5°F-8.1°C -0.2°F-17.9°C 45% 2.3 mph NNW3.7 kmh NNW 3.5 mph5.6 kmh 28.53 in966.1 mb - 0.00 in0.0 mm 0.00 in0.0 mm
07:23 PM 17.6°F-8.0°C -0.6°F-18.1°C 44% 2.3 mph NNE3.7 kmh NNE 4.6 mph7.4 kmh 28.53 in966.1 mb - 0.00 in0.0 mm 0.00 in0.0 mm
07:24 PM 17.6°F-8.0°C -0.6°F-18.1°C 44% 2.3 mph N3.7 kmh N 2.3 mph3.7 kmh 28.53 in966.1 mb - 0.00 in0.0 mm 0.00 in0.0 mm
07:25 PM 17.6°F-8.0°C -0.6°F-18.1°C 44% 2.3 mph N3.7 kmh N 2.3 mph3.7 kmh 28.53 in966.1 mb - 0.00 in0.0 mm 0.00 in0.0 mm
07:26 PM 17.8°F-7.9°C -0.5°F-18.1°C 44% 2.3 mph NNE3.7 kmh NNE 2.3 mph3.7 kmh 28.53 in966.1 mb - 0.00 in0.0 mm 0.00 in0.0 mm
07:27 PM 17.8°F-7.9°C -0.9°F-18.3°C 43% 3.5 mph NNE5.6 kmh NNE 4.6 mph7.4 kmh 28.53 in966.1 mb - 0.00 in0.0 mm 0.00 in0.0 mm
07:28 PM 18.0°F-7.8°C -1.3°F-18.5°C 42% 3.5 mph NNE5.6 kmh NNE 4.6 mph7.4 kmh 28.53 in966.1 mb - 0.00 in0.0 mm 0.00 in0.0 mm
07:29 PM 18.0°F-7.8°C -1.3°F-18.5°C 42% 3.5 mph NNE5.6 kmh NNE 2.3 mph3.7 kmh 28.53 in966.1 mb - 0.00 in0.0 mm 0.00 in0.0 mm
07:30 PM 18.0°F-7.8°C -1.3°F-18.5°C 42% 2.3 mph N3.7 kmh N 2.3 mph3.7 kmh 28.53 in966.1 mb - 0.00 in0.0 mm 0.00 in0.0 mm
07:31 PM 18.0°F-7.8°C -1.3°F-18.5°C 42% 1.2 mph NNW1.9 kmh NNW 2.3 mph3.7 kmh 28.53 in966.1 mb - 0.00 in0.0 mm 0.00 in0.0 mm
07:32 PM 18.0°F-7.8°C -1.3°F-18.5°C 42% 1.2 mph N1.9 kmh N 3.5 mph5.6 kmh 28.53 in966.1 mb - 0.00 in0.0 mm 0.00 in0.0 mm
07:33 PM 18.0°F-7.8°C -1.3°F-18.5°C 42% 2.3 mph NNW3.7 kmh NNW 3.5 mph5.6 kmh 28.53 in966.1 mb - 0.00 in0.0 mm 0.00 in0.0 mm
07:34 PM 18.0°F-7.8°C -1.3°F-18.5°C 42% 2.3 mph NNW3.7 kmh NNW 3.5 mph5.6 kmh 28.53 in966.1 mb - 0.00 in0.0 mm 0.00 in0.0 mm
07:35 PM 18.0°F-7.8°C -1.3°F-18.5°C 42% 2.3 mph NW3.7 kmh NW 3.5 mph5.6 kmh 28.53 in966.1 mb - 0.00 in0.0 mm 0.00 in0.0 mm
07:36 PM 18.0°F-7.8°C -1.3°F-18.5°C 42% 1.2 mph NW1.9 kmh NW 2.3 mph3.7 kmh 28.53 in966.1 mb - 0.00 in0.0 mm 0.00 in0.0 mm
07:37 PM 18.0°F-7.8°C -1.3°F-18.5°C 42% 2.3 mph NNW3.7 kmh NNW 2.3 mph3.7 kmh 28.53 in966.1 mb - 0.00 in0.0 mm 0.00 in0.0 mm
07:38 PM 17.9°F-7.8°C -0.9°F-18.3°C 43% 2.3 mph NNW3.7 kmh NNW 2.3 mph3.7 kmh 28.53 in966.1 mb - 0.00 in0.0 mm 0.00 in0.0 mm
07:39 PM 17.8°F-7.9°C -1.0°F-18.3°C 43% 2.3 mph NNW3.7 kmh NNW 2.3 mph3.7 kmh 28.53 in966.1 mb - 0.00 in0.0 mm 0.00 in0.0 mm
07:40 PM 17.8°F-7.9°C -1.0°F-18.3°C 43% 2.3 mph NW3.7 kmh NW 2.3 mph3.7 kmh 28.53 in966.1 mb - 0.00 in0.0 mm 0.00 in0.0 mm
07:41 PM 17.8°F-7.9°C -1.0°F-18.3°C 43% 2.3 mph NNW3.7 kmh NNW 2.3 mph3.7 kmh 28.53 in966.1 mb - 0.00 in0.0 mm 0.00 in0.0 mm
07:42 PM 17.8°F-7.9°C -1.0°F-18.3°C 43% 2.3 mph NW3.7 kmh NW 2.3 mph3.7 kmh 28.53 in966.1 mb - 0.00 in0.0 mm 0.00 in0.0 mm
07:43 PM 17.7°F-7.9°C -0.6°F-18.1°C 44% 2.3 mph NNW3.7 kmh NNW 2.3 mph3.7 kmh 28.53 in966.1 mb - 0.00 in0.0 mm 0.00 in0.0 mm
07:44 PM 17.6°F-8.0°C -0.6°F-18.1°C 44% 2.3 mph N3.7 kmh N 2.3 mph3.7 kmh 28.53 in966.1 mb - 0.00 in0.0 mm 0.00 in0.0 mm
07:45 PM 17.6°F-8.0°C -0.6°F-18.1°C 44% 2.3 mph NNW3.7 kmh NNW 2.3 mph3.7 kmh 28.53 in966.1 mb - 0.00 in0.0 mm 0.00 in0.0 mm
07:46 PM 17.6°F-8.0°C -0.6°F-18.1°C 44% 2.3 mph NW3.7 kmh NW 3.5 mph5.6 kmh 28.53 in966.1 mb - 0.00 in0.0 mm 0.00 in0.0 mm
07:47 PM 17.6°F-8.0°C -0.6°F-18.1°C 44% 2.3 mph NW3.7 kmh NW 1.2 mph1.9 kmh 28.53 in966.1 mb - 0.00 in0.0 mm 0.00 in0.0 mm
07:48 PM 17.6°F-8.0°C -0.6°F-18.1°C 44% 1.2 mph NW1.9 kmh NW 1.2 mph1.9 kmh 28.53 in966.1 mb - 0.00 in0.0 mm 0.00 in0.0 mm
07:49 PM 17.5°F-8.1°C -0.7°F-18.2°C 44% 1.2 mph NNW1.9 kmh NNW 1.2 mph1.9 kmh 28.54 in966.5 mb - 0.00 in0.0 mm 0.00 in0.0 mm
07:50 PM 17.4°F-8.1°C -0.8°F-18.2°C 44% Calm Calm 1.2 mph1.9 kmh 28.54 in966.5 mb - 0.00 in0.0 mm 0.00 in0.0 mm
07:51 PM 17.4°F-8.1°C -0.8°F-18.2°C 44% Calm Calm 1.2 mph1.9 kmh 28.54 in966.5 mb - 0.00 in0.0 mm 0.00 in0.0 mm
07:52 PM 17.2°F-8.2°C -1.0°F-18.3°C 44% Calm Calm -- 28.54 in966.5 mb - 0.00 in0.0 mm 0.00 in0.0 mm
07:53 PM 17.2°F-8.2°C -1.0°F-18.3°C 44% Calm Calm -- 28.54 in966.5 mb - 0.00 in0.0 mm 0.00 in0.0 mm
07:54 PM 17.2°F-8.2°C -1.0°F-18.3°C 44% Calm Calm -- 28.54 in966.5 mb - 0.00 in0.0 mm 0.00 in0.0 mm
07:55 PM 17.2°F-8.2°C -1.0°F-18.3°C 44% Calm Calm -- 28.54 in966.5 mb - 0.00 in0.0 mm 0.00 in0.0 mm
07:56 PM 17.2°F-8.2°C -1.0°F-18.3°C 44% Calm Calm -- 28.54 in966.5 mb - 0.00 in0.0 mm 0.00 in0.0 mm
07:57 PM 17.2°F-8.2°C -1.1°F-18.4°C 44% Calm Calm -- 28.54 in966.5 mb - 0.00 in0.0 mm 0.00 in0.0 mm
07:58 PM 17.1°F-8.3°C -1.1°F-18.4°C 44% Calm Calm 2.3 mph3.7 kmh 28.54 in966.5 mb - 0.00 in0.0 mm 0.00 in0.0 mm
07:59 PM 17.1°F-8.3°C -1.1°F-18.4°C 44% 1.2 mph NNW1.9 kmh NNW 2.3 mph3.7 kmh 28.54 in966.5 mb - 0.00 in0.0 mm 0.00 in0.0 mm
08:00 PM 17.1°F-8.3°C -1.1°F-18.4°C 44% Calm Calm -- 28.54 in966.5 mb - 0.00 in0.0 mm 0.00 in0.0 mm
08:01 PM 17.1°F-8.3°C -1.1°F-18.4°C 44% Calm Calm -- 28.54 in966.5 mb - 0.00 in0.0 mm 0.00 in0.0 mm
08:02 PM 17.1°F-8.3°C -1.1°F-18.4°C 44% Calm Calm -- 28.54 in966.5 mb - 0.00 in0.0 mm 0.00 in0.0 mm
08:03 PM 17.1°F-8.3°C -1.1°F-18.4°C 44% Calm Calm -- 28.54 in966.5 mb - 0.00 in0.0 mm 0.00 in0.0 mm
08:04 PM 17.0°F-8.3°C -1.2°F-18.4°C 44% Calm Calm -- 28.54 in966.5 mb - 0.00 in0.0 mm 0.00 in0.0 mm
08:05 PM 16.9°F-8.4°C -1.3°F-18.5°C 44% Calm Calm -- 28.54 in966.5 mb - 0.00 in0.0 mm 0.00 in0.0 mm
08:06 PM 16.7°F-8.5°C -1.5°F-18.6°C 44% Calm Calm -- 28.54 in966.5 mb - 0.00 in0.0 mm 0.00 in0.0 mm
08:07 PM 16.5°F-8.6°C -1.2°F-18.4°C 45% Calm Calm -- 28.54 in966.5 mb - 0.00 in0.0 mm 0.00 in0.0 mm
08:08 PM 16.5°F-8.6°C -1.2°F-18.4°C 45% Calm Calm -- 28.54 in966.5 mb - 0.00 in0.0 mm 0.00 in0.0 mm
08:09 PM 16.5°F-8.6°C -1.2°F-18.4°C 45% Calm Calm -- 28.54 in966.5 mb - 0.00 in0.0 mm 0.00 in0.0 mm
08:10 PM 16.3°F-8.7°C -1.4°F-18.6°C 45% Calm Calm -- 28.54 in966.5 mb - 0.00 in0.0 mm 0.00 in0.0 mm
08:11 PM 16.3°F-8.7°C -1.4°F-18.6°C 45% Calm Calm -- 28.54 in966.5 mb - 0.00 in0.0 mm 0.00 in0.0 mm
08:12 PM 16.3°F-8.7°C -1.4°F-18.6°C 45% Calm Calm -- 28.54 in966.5 mb - 0.00 in0.0 mm 0.00 in0.0 mm
08:13 PM 16.1°F-8.8°C -1.1°F-18.4°C 46% Calm Calm 1.2 mph1.9 kmh 28.55 in966.8 mb - 0.00 in0.0 mm 0.00 in0.0 mm
08:14 PM 16.0°F-8.9°C -1.2°F-18.4°C 46% 1.2 mph NW1.9 kmh NW 2.3 mph3.7 kmh 28.55 in966.8 mb - 0.00 in0.0 mm 0.00 in0.0 mm
08:15 PM 15.8°F-9.0°C -1.4°F-18.6°C 46% 1.2 mph NW1.9 kmh NW 2.3 mph3.7 kmh 28.55 in966.8 mb - 0.00 in0.0 mm